Provisional Data: Little Chiques Creek near Mount Joy, PA


Please select a monitoring station.
Please select start date.
Please select start date.

Toggle Unit: C/F Toggle Unit: C/F
Sample Time Temperature (C) Temperature (F) Specific Conductivity (mS/cm) pH   Turbidity (NTU+) DO (mg/L)
6/29/2021 12:00:00 AM 23.31 73.958 0.445 7.83 8.51 6.79
6/29/2021 12:15:00 AM 23.27 73.886 0.445 7.83 7.93 6.79
6/29/2021 12:30:00 AM 23.22 73.796 0.445 7.82 8.61 6.75
6/29/2021 12:45:00 AM 23.18 73.724 0.445 7.82 10.09 6.74
6/29/2021 1:00:00 AM 23.13 73.634 0.446 7.81 8.99 6.74
6/29/2021 1:15:00 AM 23.08 73.544 0.446 7.82 9.85 6.74
6/29/2021 1:30:00 AM 23.03 73.454 0.446 7.82 8.6 6.74
6/29/2021 1:45:00 AM 22.98 73.364 0.446 7.81 10.77 6.72
6/29/2021 2:00:00 AM 22.92 73.256 0.446 7.81 12.67 6.73
6/29/2021 2:15:00 AM 22.87 73.166 0.446 7.81 8.88 6.71
6/29/2021 2:30:00 AM 22.82 73.076 0.446 7.81 10.5 6.72
6/29/2021 2:45:00 AM 22.76 72.968 0.446 7.81 11.65 6.72
6/29/2021 3:00:00 AM 22.71 72.878 0.446 7.81 11.27 6.71
6/29/2021 3:15:00 AM 22.65 72.77 0.446 7.8 8.52 6.68
6/29/2021 3:30:00 AM 22.59 72.662 0.446 7.8 8.77 6.7
6/29/2021 3:45:00 AM 22.54 72.57201 0.447 7.8 10.99 6.69
6/29/2021 4:00:00 AM 22.48 72.464 0.447 7.8 8.17 6.71
6/29/2021 4:15:00 AM 22.42 72.356 0.447 7.8 8.46 6.71
6/29/2021 4:30:00 AM 22.36 72.248 0.447 7.8 10.49 6.71
6/29/2021 4:45:00 AM 22.3 72.14 0.447 7.8 10.55 6.72
6/29/2021 5:00:00 AM 22.24 72.032 0.447 7.8 10.86 6.74
6/29/2021 5:15:00 AM 22.19 71.942 0.447 7.79 10.44 6.73
6/29/2021 5:30:00 AM 22.13 71.834 0.447 7.79 8.29 6.72
6/29/2021 5:45:00 AM 22.07 71.726 0.447 7.79 8.33 6.74
6/29/2021 6:00:00 AM 22.02 71.636 0.447 7.79 10.12 6.76
6/29/2021 6:15:00 AM 21.97 71.546 0.447 7.79 8.39 6.75
6/29/2021 6:30:00 AM 21.92 71.456 0.447 7.79 11.18 6.72
6/29/2021 6:45:00 AM 21.87 71.366 0.447 7.79 9.8 6.77
6/29/2021 7:00:00 AM 21.83 71.294 0.447 7.79 7.77 6.81
6/29/2021 7:15:00 AM 21.8 71.24 0.447 7.79 7.16 6.84
6/29/2021 7:30:00 AM 21.78 71.204 0.447 7.79 7.75 6.89
6/29/2021 7:45:00 AM 21.77 71.186 0.447 7.79 8.16 6.9
6/29/2021 8:00:00 AM 21.77 71.186 0.447 7.8 6.81 6.95
6/29/2021 8:15:00 AM 21.78 71.204 0.447 7.8 7.1 6.97
6/29/2021 8:30:00 AM 21.8 71.24 0.448 7.8 8.29 7.05
6/29/2021 8:45:00 AM 21.83 71.294 0.448 7.81 5.7 7.12
6/29/2021 9:00:00 AM 21.88 71.384 0.448 7.81 5.9 7.17
6/29/2021 9:15:00 AM 21.93 71.474 0.448 7.82 4.83 7.25
6/29/2021 9:30:00 AM 22 71.6 0.448 7.83 5.05 7.34
6/29/2021 9:45:00 AM 22.07 71.726 0.448 7.84 8.48 7.41
6/29/2021 10:00:00 AM 22.14 71.852 0.448 7.84 7.11 7.46
6/29/2021 10:15:00 AM 22.21 71.978 0.448 7.85 49.46 7.58
6/29/2021 10:30:00 AM 22.3 72.14 0.448 7.86 9.64 7.68
6/29/2021 10:45:00 AM 22.41 72.338 0.448 7.87 11.87 7.77
6/29/2021 11:00:00 AM 22.52 72.536 0.448 7.88 9.84 7.85
6/29/2021 11:15:00 AM 22.66 72.788 0.448 7.89 5.71 7.95
6/29/2021 11:30:00 AM 22.83 73.094 0.448 7.9 9.72 8.05
6/29/2021 11:45:00 AM 23 73.4 0.447 7.92 8 8.19
6/29/2021 12:00:00 PM 23.2 73.76 0.447 7.93 10 8.31
6/29/2021 12:15:00 PM 23.43 74.174 0.447 7.95 9.03 8.47
6/29/2021 12:30:00 PM 23.68 74.624 0.447 7.96 12.58 8.62
6/29/2021 12:45:00 PM 23.96 75.128 0.447 7.98 8.9 8.76
6/29/2021 1:00:00 PM 24.23 75.614 0.447 8 6.84 8.92
6/29/2021 1:15:00 PM 24.47 76.046 0.447 8 8.05 8.99
6/29/2021 1:30:00 PM 24.71 76.478 0.446 8.03 15.51 9.1
6/29/2021 1:45:00 PM 24.95 76.91 0.446 8.05 7.87 9.2
6/29/2021 2:00:00 PM 25.17 77.306 0.446 8.07 6.92 9.26
6/29/2021 2:15:00 PM 25.36 77.648 0.446 8.08 7.27 9.31
6/29/2021 2:30:00 PM 25.54 77.972 0.445 8.1 6.09 9.39
6/29/2021 2:45:00 PM 25.66 78.188 0.445 8.11 5.84 9.41
6/29/2021 3:00:00 PM 25.82 78.476 0.445 8.09 17.64 9.37
6/29/2021 3:15:00 PM 25.97 78.746 0.445 8.12 8.15 9.41
6/29/2021 3:30:00 PM 26.09 78.962 0.444 8.12 6.87 9.34
6/29/2021 3:45:00 PM 26.21 79.17799 0.444 8.13 8.56 9.38
6/29/2021 4:00:00 PM 26.27 79.286 0.444 8.12 7.59 9.27
6/29/2021 4:15:00 PM 26.31 79.358 0.444 8.11 5.79 9.18
6/29/2021 4:30:00 PM 26.33 79.394 0.444 8.12 145.54 9.14
6/29/2021 4:45:00 PM 26.26 79.268 0.445 8.1 13.11 9.03
6/29/2021 5:00:00 PM 26.17 79.106 0.445 8.1 11.83 8.93
6/29/2021 5:15:00 PM 26.07 78.926 0.445 8.08 11.47 8.77
6/29/2021 5:30:00 PM 25.94 78.692 0.445 8.06 9.1 8.61
6/29/2021 5:45:00 PM 25.84 78.512 0.445 8.05 6.99 8.41
6/29/2021 6:00:00 PM 25.72 78.296 0.445 8.04 77.49 8.35
6/29/2021 6:15:00 PM 25.58 78.044 0.445 8.02 8.5 8.18
6/29/2021 6:30:00 PM 25.46 77.828 0.446 8.01 6.47 8.07
6/29/2021 6:45:00 PM 25.36 77.648 0.446 8 5.42 7.99
6/29/2021 7:00:00 PM 25.24 77.432 0.446 7.98 5.64 7.84
6/29/2021 7:15:00 PM 25.13 77.234 0.446 7.97 5.34 7.74
6/29/2021 7:30:00 PM 25.03 77.054 0.446 7.96 5.88 7.64
6/29/2021 7:45:00 PM 24.93 76.874 0.446 7.94 6.01 7.55
6/29/2021 8:00:00 PM 24.84 76.712 0.446 7.93 5.94 7.45
6/29/2021 8:15:00 PM 24.75 76.55 0.446 7.92 6.04 7.39
6/29/2021 8:30:00 PM 24.66 76.388 0.446 7.91 7.15 7.3
6/29/2021 8:45:00 PM 24.57 76.226 0.447 7.89 13.98 7.14
6/29/2021 9:00:00 PM 24.48 76.064 0.447 7.88 59.33 7.08
6/29/2021 9:15:00 PM 24.4 75.92 0.447 7.87 49.83 7.04
6/29/2021 9:30:00 PM 24.34 75.812 0.447 7.87 8.8 6.99
6/29/2021 9:45:00 PM 24.27 75.686 0.447 7.86 8.47 6.93
6/29/2021 10:00:00 PM 24.21 75.578 0.447 7.85 8.8 6.87
6/29/2021 10:15:00 PM 24.15 75.47 0.447 7.84 8.09 6.82
6/29/2021 10:30:00 PM 24.1 75.38 0.447 7.84 8.7 6.79
6/29/2021 10:45:00 PM 24.04 75.272 0.447 7.84 7.79 6.75
6/29/2021 11:00:00 PM 23.99 75.182 0.447 7.83 8.19 6.73
6/29/2021 11:15:00 PM 23.94 75.092 0.447 7.83 11.12 6.69
6/29/2021 11:30:00 PM 23.88 74.984 0.447 7.82 16.26 6.66
6/29/2021 11:45:00 PM 23.83 74.894 0.447 7.82 8.11 6.65
6/30/2021 12:00:00 AM 23.78 74.804 0.447 7.82 9.41 6.63
6/30/2021 12:15:00 AM 23.72 74.696 0.447 7.82 10.87 6.63
6/30/2021 12:30:00 AM 23.67 74.606 0.447 7.81 10.66 6.61
6/30/2021 12:45:00 AM 23.61 74.498 0.447 7.81 10.81 6.59
6/30/2021 1:00:00 AM 23.55 74.39 0.448 7.81 10.49 6.6
6/30/2021 1:15:00 AM 23.5 74.3 0.448 7.81 10.5 6.59
6/30/2021 1:30:00 AM 23.44 74.192 0.448 7.81 10.64 6.59
6/30/2021 1:45:00 AM 23.38 74.084 0.448 7.8 8.09 6.54
6/30/2021 2:00:00 AM 23.32 73.976 0.448 7.8 10.65 6.58
6/30/2021 2:15:00 AM 23.27 73.886 0.448 7.8 8.67 6.57
6/30/2021 2:30:00 AM 23.22 73.796 0.448 7.8 8.97 6.57
6/30/2021 2:45:00 AM 23.16 73.688 0.448 7.8 8.3 6.57
6/30/2021 3:00:00 AM 23.12 73.616 0.448 7.8 9.05 6.56
6/30/2021 3:15:00 AM 23.06 73.508 0.449 7.79 8.23 6.55
6/30/2021 3:30:00 AM 23.01 73.418 0.448 7.79 9.14 6.55
6/30/2021 3:45:00 AM 22.96 73.328 0.449 7.79 9.34 6.57
6/30/2021 4:00:00 AM 22.91 73.238 0.449 7.79 11.43 6.56
6/30/2021 4:15:00 AM 22.85 73.13 0.449 7.79 12.01 6.57
6/30/2021 4:30:00 AM 22.79 73.022 0.449 7.79 10.14 6.58
6/30/2021 4:45:00 AM 22.74 72.932 0.449 7.79 9.6 6.56
6/30/2021 5:00:00 AM 22.68 72.824 0.449 7.79 8.08 6.57
6/30/2021 5:15:00 AM 22.62 72.716 0.449 7.79 10.89 6.58
6/30/2021 5:30:00 AM 22.56 72.608 0.449 7.79 10.45 6.57
6/30/2021 5:45:00 AM 22.5 72.5 0.449 7.78 10.03 6.59
6/30/2021 6:00:00 AM 22.43 72.374 0.449 7.78 8.36 6.57
6/30/2021 6:15:00 AM 22.37 72.266 0.45 7.78 8.5 6.61
6/30/2021 6:30:00 AM 22.31 72.158 0.45 7.78 8.54 6.64
6/30/2021 6:45:00 AM 22.26 72.068 0.45 7.78 7.1 6.66
6/30/2021 7:00:00 AM 22.22 71.996 0.45 7.78 9.28 6.67
6/30/2021 7:15:00 AM 22.2 71.96 0.45 7.78 8.15 6.72
6/30/2021 7:30:00 AM 22.17 71.906 0.45 7.78 8.16 6.76
6/30/2021 7:45:00 AM 22.15 71.87 0.45 7.79 9.26 6.8
6/30/2021 8:00:00 AM 22.15 71.87 0.45 7.79 9.04 6.84
6/30/2021 8:15:00 AM 22.16 71.888 0.45 7.79 7.12 6.91
6/30/2021 8:30:00 AM 22.18 71.924 0.45 7.8 7.29 6.99
6/30/2021 8:45:00 AM 22.22 71.996 0.45 7.81 37.27 7.05
6/30/2021 9:00:00 AM 22.25 72.05 0.45 7.81 8.63 7.11
6/30/2021 9:15:00 AM 22.27 72.086 0.451 7.82 8.72 7.19
6/30/2021 9:30:00 AM 22.34 72.212 0.451 7.83 10.81 7.27
6/30/2021 9:45:00 AM 22.41 72.338 0.451 7.84 12.97 7.37
6/30/2021 10:00:00 AM 22.46 72.42799 0.451 7.85 8.62 7.48
6/30/2021 10:15:00 AM 22.54 72.57201 0.451 7.86 7.35 7.57
6/30/2021 10:30:00 AM 22.6 72.68 0.451 7.85 9.45 7.64
6/30/2021 10:45:00 AM 22.71 72.878 0.451 7.87 16.3 7.73
6/30/2021 11:00:00 AM 22.83 73.094 0.451 7.88 15.9 7.82
6/30/2021 11:15:00 AM 22.97 73.346 0.451 7.89 11.64 7.91
6/30/2021 11:30:00 AM 23.13 73.634 0.451 7.89 11.44 7.96
6/30/2021 11:45:00 AM 23.31 73.958 0.451 7.91 10.61 8.06
6/30/2021 12:00:00 PM 23.51 74.318 0.451 7.93 10.48 8.23
6/30/2021 12:15:00 PM 23.73 74.714 0.451 7.95 12.91 8.38
6/30/2021 12:30:00 PM 23.98 75.164 0.451 7.96 9.67 8.52
6/30/2021 12:45:00 PM 24.27 75.686 0.451 7.98 19.4 8.66
6/30/2021 1:00:00 PM 24.44 75.992 0.451 8 8.05 8.75
6/30/2021 1:15:00 PM 24.71 76.478 0.451 8.01 8.99 8.88
6/30/2021 1:30:00 PM 24.94 76.892 0.45 8.04 8.66 8.99
6/30/2021 1:45:00 PM 25.14 77.252 0.45 8.04 10.44 9.03
6/30/2021 2:00:00 PM 25.25 77.45 0.45 8.06 8.61 9.08
6/30/2021 2:15:00 PM 25.48 77.864 0.45 8.08 25.92 9.18
6/30/2021 2:30:00 PM 25.57 78.026 0.45 8.07 48.79 9.13
6/30/2021 2:45:00 PM 25.7 78.26 0.45 8.09 6.32 9.15
6/30/2021 3:00:00 PM 25.78 78.404 0.45 8.09 92.13 9.16
6/30/2021 3:15:00 PM 25.94 78.692 0.45 8.11 8.09 9.19
6/30/2021 3:30:00 PM 26.07 78.926 0.449 8.11 23.64 9.16
6/30/2021 3:45:00 PM 26.16 79.088 0.45 8.06 5.64 8.95
6/30/2021 4:00:00 PM 26.23 79.214 0.449 8.1 5.63 9.07
6/30/2021 4:15:00 PM 26.25 79.25 0.45 8.1 5.39 9
6/30/2021 4:30:00 PM 26.2 79.16 0.45 8.1 5.99 8.93
6/30/2021 4:45:00 PM 26.13 79.034 0.449 8.09 5.26 8.8
6/30/2021 5:00:00 PM 26.06 78.908 0.449 8.08 4.34 8.71
6/30/2021 5:15:00 PM 25.98 78.764 0.45 8.07 4.8 8.6
6/30/2021 5:30:00 PM 25.86 78.548 0.45 8.05 9.4 8.4
6/30/2021 5:45:00 PM 25.78 78.404 0.45 8.04 5.56 8.33
6/30/2021 6:00:00 PM 25.66 78.188 0.45 8.04 5.46 8.21
6/30/2021 6:15:00 PM 25.56 78.008 0.45 8.01 35.18 8.08
6/30/2021 6:30:00 PM 25.43 77.774 0.45 8.01 10.88 7.79
6/30/2021 6:45:00 PM 25.33 77.594 0.45 7.99 8.3 7.83
6/30/2021 7:00:00 PM 25.22 77.396 0.451 7.97 7.58 7.72
6/30/2021 7:15:00 PM 25.11 77.198 0.451 7.95 10.52 7.58
6/30/2021 7:30:00 PM 24.97 76.946 0.451 7.95 8.66 7.53
6/30/2021 7:45:00 PM 24.78 76.604 0.446 7.95 10.97 7.45
6/30/2021 8:00:00 PM 24.62 76.316 0.446 7.93 10.03 7.36
6/30/2021 8:15:00 PM 24.5 76.1 0.447 7.92 10.81 7.21
6/30/2021 8:30:00 PM 24.37 75.866 0.447 7.9 7.08 7.11
6/30/2021 8:45:00 PM 24.23 75.614 0.446 7.89 8.66 7
6/30/2021 9:00:00 PM 24.11 75.398 0.445 7.88 32.3 6.89
6/30/2021 9:15:00 PM 23.99 75.182 0.446 7.87 5.74 6.84
6/30/2021 9:30:00 PM 23.89 75.002 0.446 7.86 7.05 6.74
6/30/2021 9:45:00 PM 23.8 74.84 0.446 7.85 6.56 6.67
6/30/2021 10:00:00 PM 23.72 74.696 0.446 7.84 6.51 6.61
6/30/2021 10:15:00 PM 23.65 74.57 0.447 7.83 6.53 6.56
6/30/2021 10:30:00 PM 23.59 74.462 0.447 7.83 7.99 6.52
6/30/2021 10:45:00 PM 23.53 74.354 0.448 7.82 7.5 6.48
6/30/2021 11:00:00 PM 23.47 74.246 0.448 7.82 8.13 6.46
6/30/2021 11:15:00 PM 23.41 74.138 0.449 7.81 7.68 6.43
6/30/2021 11:30:00 PM 23.36 74.048 0.448 7.8 7.88 6.41
6/30/2021 11:45:00 PM 23.31 73.958 0.449 7.8 9.15 6.36
7/1/2021 12:00:00 AM 23.25 73.85 0.449 7.8 8.7 6.36
7/1/2021 12:15:00 AM 23.2 73.76 0.449 7.79 7.87 6.33
7/1/2021 12:30:00 AM 23.14 73.652 0.449 7.79 7.16 6.32
7/1/2021 12:45:00 AM 23.09 73.562 0.45 7.78 7.04 6.32
7/1/2021 1:00:00 AM 23.04 73.472 0.45 7.78 10.85 6.3
7/1/2021 1:15:00 AM 22.98 73.364 0.45 7.78 7.99 6.3
7/1/2021 1:30:00 AM 22.93 73.274 0.45 7.78 8.72 6.29
7/1/2021 1:45:00 AM 22.88 73.184 0.451 7.77 7.84 6.29
7/1/2021 2:00:00 AM 22.83 73.094 0.451 7.77 8.43 6.27
7/1/2021 2:15:00 AM 22.78 73.004 0.451 7.76 8.42 6.27
7/1/2021 2:30:00 AM 22.73 72.914 0.451 7.76 9.22 6.26
7/1/2021 2:45:00 AM 22.68 72.824 0.451 7.76 8.65 6.25
7/1/2021 3:00:00 AM 22.63 72.734 0.451 7.75 8.21 6.25
7/1/2021 3:15:00 AM 22.58 72.644 0.45 7.75 7.43 6.26
7/1/2021 3:30:00 AM 22.52 72.536 0.451 7.75 9.37 6.24
7/1/2021 3:45:00 AM 22.48 72.464 0.451 7.75 10.51 6.24
7/1/2021 4:00:00 AM 22.43 72.374 0.451 7.75 9.65 6.24
7/1/2021 4:15:00 AM 22.39 72.302 0.451 7.75 14.37 6.22
7/1/2021 4:30:00 AM 22.34 72.212 0.45 7.75 10.03 6.22
7/1/2021 4:45:00 AM 22.3 72.14 0.45 7.75 9.08 6.24
7/1/2021 5:00:00 AM 22.26 72.068 0.45 7.75 8.19 6.22
7/1/2021 5:15:00 AM 22.21 71.978 0.451 7.74 27.28 6.2
7/1/2021 5:30:00 AM 22.17 71.906 0.451 7.74 8.79 6.18
7/1/2021 5:45:00 AM 22.13 71.834 0.451 7.74 7.42 6.2
7/1/2021 6:00:00 AM 22.08 71.744 0.451 7.75 9.31 6.23
7/1/2021 6:15:00 AM 22.03 71.654 0.451 7.75 43.36 6.23
7/1/2021 6:30:00 AM 21.99 71.582 0.45 7.74 7.91 6.24
7/1/2021 6:45:00 AM 21.96 71.528 0.45 7.75 5.28 6.3
7/1/2021 7:00:00 AM 21.94 71.492 0.451 7.75 5.07 6.32
7/1/2021 7:15:00 AM 21.91 71.438 0.45 7.75 4.8 6.39
7/1/2021 7:30:00 AM 21.89 71.402 0.45 7.75 4.62 6.43
7/1/2021 7:45:00 AM 21.89 71.402 0.45 7.76 4.92 6.47
7/1/2021 8:00:00 AM 21.89 71.402 0.45 7.76 5.21 6.54
7/1/2021 8:15:00 AM 21.91 71.438 0.45 7.77 5.57 6.63
7/1/2021 8:30:00 AM 21.93 71.474 0.45 7.78 6.14 6.71
7/1/2021 8:45:00 AM 21.95 71.51 0.45 7.78 8.12 6.8
7/1/2021 9:00:00 AM 21.94 71.492 0.45 7.79 4.82 6.84
7/1/2021 9:15:00 AM 21.95 71.51 0.45 7.79 4.73 6.92
7/1/2021 9:30:00 AM 21.95 71.51 0.449 7.81 4.57 6.98
7/1/2021 9:45:00 AM 21.95 71.51 0.449 7.81 5.14 7.05
7/1/2021 10:00:00 AM 21.93 71.474 0.448 7.82 4.77 7.12
7/1/2021 10:15:00 AM 21.92 71.456 0.447 7.83 5.33 7.19
7/1/2021 10:30:00 AM 21.91 71.438 0.447 7.83 4.52 7.2
7/1/2021 10:45:00 AM 21.9 71.42 0.446 7.83 5.04 7.26
7/1/2021 11:00:00 AM 21.9 71.42 0.446 7.83 4.42 7.31
7/1/2021 11:15:00 AM 21.92 71.456 0.446 7.84 5.03 7.37
7/1/2021 11:30:00 AM 22.07 71.726 0.445 7.84 4.84 7.59
7/1/2021 11:45:00 AM 22.1 71.78 0.446 7.87 6.11 7.7
7/1/2021 12:00:00 PM 22.26 72.068 0.445 7.88 6.76 7.93
7/1/2021 12:15:00 PM 22.29 72.122 0.445 7.9 4.78 8.07
7/1/2021 12:30:00 PM 22.41 72.338 0.446 7.92 6.36 8.27
7/1/2021 12:45:00 PM 22.63 72.734 0.445 7.94 4.5 8.51
7/1/2021 1:00:00 PM 22.72 72.896 0.445 7.96 5.21 8.64
7/1/2021 1:15:00 PM 22.71 72.878 0.445 7.97 4.86 8.61
7/1/2021 1:30:00 PM 22.8 73.04 0.445 7.99 5.35 8.85
7/1/2021 1:45:00 PM 22.8 73.04 0.445 7.99 4.15 8.82
7/1/2021 2:00:00 PM 22.71 72.878 0.423 8.01 21.08 8.62
7/1/2021 2:15:00 PM 22.68 72.824 0.426 8 14.65 8.57
7/1/2021 2:30:00 PM 22.7 72.86 0.426 8.02 9.01 8.65
7/1/2021 2:45:00 PM 22.71 72.878 0.423 8.01 8.61 8.61
7/1/2021 3:00:00 PM 22.71 72.878 0.422 8.01 9.22 8.59
7/1/2021 3:15:00 PM 22.66 72.788 0.422 7.99 11.24 8.41
7/1/2021 3:30:00 PM 22.64 72.752 0.422 7.98 8.71 8.34
7/1/2021 3:45:00 PM 22.62 72.716 0.421 7.99 9.48 8.32
7/1/2021 4:00:00 PM 22.62 72.716 0.421 7.97 8.82 8.28
7/1/2021 4:15:00 PM 22.59 72.662 0.422 7.97 9.56 8.21
7/1/2021 4:30:00 PM 22.56 72.608 0.423 7.96 8.09 8.16
7/1/2021 4:45:00 PM 22.53 72.554 0.423 7.95 7.93 8.1
7/1/2021 5:00:00 PM 22.5 72.5 0.423 7.95 7.93 8.07
7/1/2021 5:15:00 PM 22.47 72.446 0.423 7.94 6.58 8.01
7/1/2021 5:30:00 PM 22.46 72.42799 0.424 7.93 7.07 8.03
7/1/2021 5:45:00 PM 22.46 72.42799 0.425 7.93 8.17 8.02
7/1/2021 6:00:00 PM 22.45 72.41 0.426 7.93 6.29 7.99
7/1/2021 6:15:00 PM 22.45 72.41 0.426 7.93 6.84 7.97
7/1/2021 6:30:00 PM 22.44 72.392 0.426 7.93 7.17 7.9
7/1/2021 6:45:00 PM 22.43 72.374 0.425 7.92 6.9 7.84
7/1/2021 7:00:00 PM 22.42 72.356 0.425 7.92 7.66 7.77
7/1/2021 7:15:00 PM 22.4 72.32 0.425 7.91 8.4 7.69
7/1/2021 7:30:00 PM 22.37 72.266 0.424 7.9 6.73 7.61
7/1/2021 7:45:00 PM 22.34 72.212 0.424 7.89 6.9 7.5
7/1/2021 8:00:00 PM 22.32 72.176 0.423 7.87 8.31 7.4
7/1/2021 8:15:00 PM 22.29 72.122 0.422 7.86 9.68 7.31
7/1/2021 8:30:00 PM 22.27 72.086 0.421 7.85 9.78 7.21
7/1/2021 8:45:00 PM 22.25 72.05 0.42 7.84 9.32 7.13
7/1/2021 9:00:00 PM 22.24 72.032 0.419 7.84 11.11 7.07
7/1/2021 9:15:00 PM 22.22 71.996 0.418 7.83 13.23 7.02
7/1/2021 9:30:00 PM 22.21 71.978 0.417 7.82 20.02 6.97
7/1/2021 9:45:00 PM 22.19 71.942 0.416 7.82 11.01 6.95
7/1/2021 10:00:00 PM 22.17 71.906 0.415 7.82 12.14 6.93
7/1/2021 10:15:00 PM 22.16 71.888 0.414 7.82 13.44 6.93
7/1/2021 10:30:00 PM 22.15 71.87 0.414 7.82 16.86 6.92
7/1/2021 10:45:00 PM 22.15 71.87 0.413 7.82 19.3 6.92
7/1/2021 11:00:00 PM 22.16 71.888 0.411 7.82 23.48 6.93
7/1/2021 11:15:00 PM 22.2 71.96 0.41 7.83 24.63 6.94
7/1/2021 11:30:00 PM 22.26 72.068 0.406 7.83 22.84 6.95
7/1/2021 11:45:00 PM 22.37 72.266 0.402 7.85 26.08 6.98
7/2/2021 12:00:00 AM 22.48 72.464 0.397 7.86 34.55 7.02
7/2/2021 12:15:00 AM 22.58 72.644 0.392 7.88 32.71 7.05
7/2/2021 12:30:00 AM 22.66 72.788 0.387 7.89 38.03 7.07
7/2/2021 12:45:00 AM 22.7 72.86 0.384 7.9 32.41 7.1
7/2/2021 1:00:00 AM 22.72 72.896 0.381 7.9 25.51 7.13
7/2/2021 1:15:00 AM 22.73 72.914 0.379 7.9 53.22 7.15
7/2/2021 1:30:00 AM 22.72 72.896 0.377 7.9 30.26 7.17
7/2/2021 1:45:00 AM 22.71 72.878 0.376 7.9 48.96 7.18
7/2/2021 2:00:00 AM 22.68 72.824 0.374 7.91 36.08 7.19
7/2/2021 2:15:00 AM 22.64 72.752 0.374 7.91 28.04 7.2
7/2/2021 2:30:00 AM 22.6 72.68 0.373 7.91 26.83 7.18
7/2/2021 2:45:00 AM 22.55 72.59 0.373 7.9 26.91 7.19
7/2/2021 3:00:00 AM 22.5 72.5 0.373 7.9 23.55 7.2
7/2/2021 3:15:00 AM 22.45 72.41 0.372 7.9 24.18 7.2
7/2/2021 3:30:00 AM 22.4 72.32 0.371 7.89 34.46 7.19
7/2/2021 3:45:00 AM 22.35 72.23 0.37 7.89 25.59 7.19
7/2/2021 4:00:00 AM 22.31 72.158 0.368 7.88 26.25 7.18
7/2/2021 4:15:00 AM 22.26 72.068 0.367 7.87 31.05 7.17
7/2/2021 4:30:00 AM 22.21 71.978 0.365 7.86 25.61 7.17
7/2/2021 4:45:00 AM 22.16 71.888 0.364 7.86 25.49 7.16
7/2/2021 5:00:00 AM 22.11 71.798 0.362 7.85 26.74 7.15
7/2/2021 5:15:00 AM 22.06 71.708 0.361 7.84 28.38 7.15
7/2/2021 5:30:00 AM 22.01 71.618 0.36 7.83 27.3 7.14
7/2/2021 5:45:00 AM 21.96 71.528 0.359 7.83 29.68 7.13
7/2/2021 6:00:00 AM 21.91 71.438 0.358 7.82 22.84 7.13
7/2/2021 6:15:00 AM 21.86 71.348 0.357 7.81 26.63 7.12
7/2/2021 6:30:00 AM 21.82 71.276 0.357 7.81 24.33 7.11
7/2/2021 6:45:00 AM 21.77 71.186 0.356 7.81 21.73 7.12
7/2/2021 7:00:00 AM 21.73 71.114 0.355 7.8 21.2 7.13
7/2/2021 7:15:00 AM 21.69 71.042 0.355 7.8 19.06 7.12
7/2/2021 7:30:00 AM 21.66 70.988 0.355 7.8 24.49 7.14
7/2/2021 7:45:00 AM 21.63 70.934 0.355 7.79 22.84 7.15
7/2/2021 8:00:00 AM 21.6 70.88 0.355 7.79 35.47 7.16
7/2/2021 8:15:00 AM 21.58 70.844 0.355 7.79 19.28 7.17
7/2/2021 8:30:00 AM 21.56 70.808 0.355 7.79 20.33 7.2
7/2/2021 8:45:00 AM 21.54 70.772 0.355 7.79 31.56 7.21
7/2/2021 9:00:00 AM 21.53 70.754 0.355 7.8 143.45 7.25
7/2/2021 9:15:00 AM 21.51 70.718 0.355 7.8 15.23 7.28
7/2/2021 9:30:00 AM 21.5 70.7 0.356 7.8 17.68 7.32
7/2/2021 9:45:00 AM 21.49 70.682 0.356 7.8 15.95 7.37
7/2/2021 10:00:00 AM 21.47 70.646 0.356 7.8 16.99 7.4
7/2/2021 10:15:00 AM 21.49 70.682 0.356 7.81 13.85 7.48
7/2/2021 10:30:00 AM 21.49 70.682 0.356 7.81 17.19 7.53
7/2/2021 10:45:00 AM 21.5 70.7 0.356 7.82 14.08 7.62
7/2/2021 11:00:00 AM 21.52 70.736 0.357 7.82 14.35 7.68
7/2/2021 11:15:00 AM 21.53 70.754 0.356 7.83 15.04 7.76
7/2/2021 11:30:00 AM 21.53 70.754 0.357 7.83 13.69 7.8
7/2/2021 11:45:00 AM 21.57 70.826 0.357 7.85 12.38 7.91
7/2/2021 12:00:00 PM 21.61 70.898 0.357 7.85 14.17 7.98
7/2/2021 12:15:00 PM 21.7 71.06 0.357 7.87 13.18 8.12
7/2/2021 12:30:00 PM 21.79 71.222 0.357 7.88 12.91 8.24
7/2/2021 12:45:00 PM 21.88 71.384 0.357 7.9 13 8.32
7/2/2021 1:00:00 PM 22.08 71.744 0.357 7.91 12.53 8.46
7/2/2021 1:15:00 PM 22.18 71.924 0.357 7.93 12.92 8.53
7/2/2021 1:30:00 PM 22.34 72.212 0.357 7.94 13.22 8.63
7/2/2021 1:45:00 PM 22.42 72.356 0.357 7.95 12.74 8.67
7/2/2021 2:00:00 PM 22.48 72.464 0.357 7.96 13.02 8.71
7/2/2021 2:15:00 PM 22.5 72.5 0.357 7.96 13.11 8.7
7/2/2021 2:30:00 PM 22.49 72.482 0.357 7.96 11.94 8.64
7/2/2021 2:45:00 PM 22.46 72.42799 0.357 7.96 13.55 8.61
7/2/2021 3:00:00 PM 22.42 72.356 0.358 7.95 11.17 8.56
7/2/2021 3:15:00 PM 22.38 72.284 0.358 7.94 11.67 8.51
7/2/2021 3:30:00 PM 22.51 72.518 0.358 7.95 11.86 8.53
7/2/2021 3:45:00 PM 22.52 72.536 0.358 7.94 11.21 8.49
7/2/2021 4:00:00 PM 22.42 72.356 0.358 7.93 11.49 8.38
7/2/2021 4:15:00 PM 22.14 71.852 0.348 7.94 19.55 8.3
7/2/2021 4:30:00 PM 22.13 71.834 0.351 7.92 15.19 8.24
7/2/2021 4:45:00 PM 22.11 71.798 0.35 7.92 19.85 8.2
7/2/2021 5:00:00 PM 22.12 71.816 0.351 7.91 45.78 8.14
7/2/2021 5:15:00 PM 22.12 71.816 0.352 7.9 35.56 8.09
7/2/2021 5:30:00 PM 22.08 71.744 0.354 7.89 29.06 8.01
7/2/2021 5:45:00 PM 22.05 71.69 0.355 7.88 17.64 7.96
7/2/2021 6:00:00 PM 22.02 71.636 0.356 7.87 67.74 7.91
7/2/2021 6:15:00 PM 21.99 71.582 0.357 7.86 63.3 7.84
7/2/2021 6:30:00 PM 21.97 71.546 0.358 7.85 60.55 7.79
7/2/2021 6:45:00 PM 21.93 71.474 0.359 7.85 14.63 7.73
7/2/2021 7:00:00 PM 21.88 71.384 0.36 7.84 13.77 7.67
7/2/2021 7:15:00 PM 21.83 71.294 0.36 7.83 12.06 7.62
7/2/2021 7:30:00 PM 21.78 71.204 0.361 7.83 114.4 7.57
7/2/2021 7:45:00 PM 21.74 71.132 0.361 7.82 12.03 7.5
7/2/2021 8:00:00 PM 21.69 71.042 0.361 7.81 10.78 7.45
7/2/2021 8:15:00 PM 21.64 70.952 0.361 7.8 11.41 7.39
7/2/2021 8:30:00 PM 21.59 70.862 0.362 7.79 10.91 7.33
7/2/2021 8:45:00 PM 21.53 70.754 0.363 7.79 11.87 7.29
7/2/2021 9:00:00 PM 21.48 70.664 0.363 7.78 10.74 7.24
7/2/2021 9:15:00 PM 21.41 70.538 0.363 7.78 11.94 7.19
7/2/2021 9:30:00 PM 21.35 70.43 0.363 7.77 20 7.16
7/2/2021 9:45:00 PM 21.29 70.32201 0.363 7.77 16.21 7.13
7/2/2021 10:00:00 PM 21.23 70.214 0.363 7.76 15.48 7.09
7/2/2021 10:15:00 PM 21.17 70.106 0.363 7.76 14.99 7.09
7/2/2021 10:30:00 PM 21.1 69.98 0.362 7.76 13.59 7.08
7/2/2021 10:45:00 PM 21.04 69.872 0.362 7.76 16.67 7.08
7/2/2021 11:00:00 PM 20.98 69.764 0.362 7.76 14.86 7.08
7/2/2021 11:15:00 PM 20.92 69.656 0.361 7.76 14.01 7.07
7/2/2021 11:30:00 PM 20.85 69.53 0.361 7.76 14.86 7.08
7/2/2021 11:45:00 PM 20.8 69.44 0.36 7.76 24.45 7.07
7/3/2021 12:00:00 AM 20.73 69.314 0.36 7.76 19.26 7.07
7/3/2021 12:15:00 AM 20.66 69.188 0.36 7.76 15.25 7.07
7/3/2021 12:30:00 AM 20.59 69.062 0.359 7.76 18.7 7.08
7/3/2021 12:45:00 AM 20.51 68.918 0.359 7.76 16.46 7.09
7/3/2021 1:00:00 AM 20.43 68.774 0.359 7.76 18.51 7.09
7/3/2021 1:15:00 AM 20.36 68.648 0.359 7.76 17.25 7.1
7/3/2021 1:30:00 AM 20.28 68.504 0.359 7.76 13.54 7.1
7/3/2021 1:45:00 AM 20.2 68.36 0.359 7.76 23.64 7.11
7/3/2021 2:00:00 AM 20.11 68.198 0.36 7.76 39.89 7.1
7/3/2021 2:15:00 AM 20.03 68.054 0.36 7.75 16.52 7.11
7/3/2021 2:30:00 AM 19.95 67.91 0.36 7.76 17.73 7.12
7/3/2021 2:45:00 AM 19.87 67.766 0.36 7.75 15.08 7.13
7/3/2021 3:00:00 AM 19.79 67.622 0.36 7.75 16.7 7.15
7/3/2021 3:15:00 AM 19.71 67.478 0.36 7.75 16.14 7.16
7/3/2021 3:30:00 AM 19.64 67.352 0.361 7.75 17.44 7.16
7/3/2021 3:45:00 AM 19.57 67.226 0.361 7.75 16.16 7.18
7/3/2021 4:00:00 AM 19.49 67.082 0.361 7.75 14.94 7.18
7/3/2021 4:15:00 AM 19.42 66.956 0.362 7.75 15.01 7.19
7/3/2021 4:30:00 AM 19.36 66.848 0.362 7.75 21.11 7.2
7/3/2021 4:45:00 AM 19.31 66.758 0.362 7.75 18.42 7.21
7/3/2021 5:00:00 AM 19.26 66.668 0.363 7.75 23.06 7.22
7/3/2021 5:15:00 AM 19.21 66.578 0.363 7.75 23.35 7.21
7/3/2021 5:30:00 AM 19.17 66.506 0.364 7.75 40.45 7.23
7/3/2021 5:45:00 AM 19.13 66.434 0.365 7.75 12.65 7.25
7/3/2021 6:00:00 AM 19.09 66.362 0.365 7.75 13.51 7.26
7/3/2021 6:15:00 AM 19.05 66.29 0.366 7.75 12.2 7.27
7/3/2021 6:30:00 AM 19.02 66.236 0.366 7.75 11.56 7.29
7/3/2021 6:45:00 AM 18.99 66.182 0.367 7.75 11.85 7.31
7/3/2021 7:00:00 AM 18.97 66.146 0.367 7.76 13.5 7.34
7/3/2021 7:15:00 AM 18.95 66.11 0.367 7.76 12.24 7.36
7/3/2021 7:30:00 AM 18.93 66.074 0.368 7.76 15.47 7.38
7/3/2021 7:45:00 AM 18.92 66.056 0.368 7.76 9.9 7.41
7/3/2021 8:00:00 AM 18.91 66.038 0.369 7.77 9.64 7.47
7/3/2021 8:15:00 AM 18.89 66.002 0.369 7.77 10 7.5
7/3/2021 8:30:00 AM 18.89 66.002 0.37 7.77 9.32 7.54
7/3/2021 8:45:00 AM 18.91 66.038 0.37 7.78 8.69 7.6
7/3/2021 9:00:00 AM 18.95 66.11 0.371 7.79 8.5 7.66
7/3/2021 9:15:00 AM 18.98 66.164 0.371 7.8 8.97 7.74
7/3/2021 9:30:00 AM 19 66.2 0.371 7.8 8.43 7.83
7/3/2021 9:45:00 AM 19.06 66.308 0.372 7.81 8.43 7.88
7/3/2021 10:00:00 AM 19.09 66.362 0.373 7.82 8.03 7.95
7/3/2021 10:15:00 AM 19.13 66.434 0.373 7.82 8.06 8.02
7/3/2021 10:30:00 AM 19.17 66.506 0.373 7.83 10.92 8.09
7/3/2021 10:45:00 AM 19.23 66.614 0.373 7.84 9.7 8.14
7/3/2021 11:00:00 AM 19.33 66.794 0.374 7.85 8.8 8.23
7/3/2021 11:15:00 AM 19.4 66.92 0.374 7.86 9.26 8.33
7/3/2021 11:30:00 AM 19.47 67.046 0.375 7.87 8.6 8.39
7/3/2021 11:45:00 AM 19.62 67.316 0.375 7.88 12.27 8.51
7/3/2021 12:00:00 PM 19.79 67.622 0.375 7.89 10.37 8.6
7/3/2021 12:15:00 PM 19.91 67.838 0.375 7.91 9.29 8.71
7/3/2021 12:30:00 PM 20.07 68.126 0.376 7.92 8.7 8.83
7/3/2021 12:45:00 PM 20.27 68.486 0.376 7.94 7.81 8.94
7/3/2021 1:00:00 PM 20.28 68.504 0.376 7.95 7.87 8.96
7/3/2021 1:15:00 PM 20.37 68.666 0.377 7.96 12.71 9.04
7/3/2021 1:30:00 PM 20.41 68.738 0.377 7.97 11.3 9
7/3/2021 1:45:00 PM 20.7 69.26 0.377 7.99 10.81 9.17
7/3/2021 2:00:00 PM 20.9 69.62 0.377 8 8.87 9.22
7/3/2021 2:15:00 PM 21.02 69.836 0.378 8.02 10.52 9.3
7/3/2021 2:30:00 PM 20.97 69.746 0.378 8.01 8.64 9.21
7/3/2021 2:45:00 PM 20.92 69.656 0.378 8.01 9.4 9.12
7/3/2021 3:00:00 PM 20.88 69.584 0.377 8.01 9.85 9.11
7/3/2021 3:15:00 PM 21.08 69.944 0.378 8.03 9.98 9.23
7/3/2021 3:30:00 PM 21.14 70.052 0.378 8.03 7.02 9.22
7/3/2021 3:45:00 PM 21.09 69.962 0.379 8.03 8.32 9.15
7/3/2021 4:00:00 PM 20.97 69.746 0.379 8.01 13.72 9.02
7/3/2021 4:15:00 PM 20.91 69.638 0.379 8.01 10.64 9
7/3/2021 4:30:00 PM 20.86 69.548 0.379 8.01 8.94 8.97
7/3/2021 4:45:00 PM 20.84 69.512 0.38 8.01 8.25 8.98
7/3/2021 5:00:00 PM 20.85 69.53 0.38 8.01 10.55 8.97
7/3/2021 5:15:00 PM 20.79 69.422 0.38 8 9.32 8.92
7/3/2021 5:30:00 PM 20.74 69.332 0.38 8 28.81 8.87
7/3/2021 5:45:00 PM 20.67 69.206 0.381 7.99 9.12 8.83
7/3/2021 6:00:00 PM 20.6 69.08 0.381 7.99 7.71 8.74
7/3/2021 6:15:00 PM 20.57 69.026 0.381 7.98 9.72 8.73
7/3/2021 6:30:00 PM 20.55 68.99 0.382 7.98 7.37 8.68
7/3/2021 6:45:00 PM 20.54 68.972 0.382 7.97 6.68 8.63
7/3/2021 7:00:00 PM 20.51 68.918 0.383 7.96 6.05 8.57
7/3/2021 7:15:00 PM 20.45 68.81 0.383 7.95 6.47 8.48
7/3/2021 7:30:00 PM 20.41 68.738 0.383 7.94 8.49 8.4
7/3/2021 7:45:00 PM 20.38 68.684 0.384 7.94 6.91 8.33
7/3/2021 8:00:00 PM 20.34 68.612 0.384 7.92 7.4 8.23
7/3/2021 8:15:00 PM 20.3 68.54 0.385 7.92 8.03 8.18
7/3/2021 8:30:00 PM 20.25 68.45 0.385 7.91 7.9 8.11
7/3/2021 8:45:00 PM 20.21 68.378 0.385 7.9 9.07 8.03
7/3/2021 9:00:00 PM 20.16 68.288 0.385 7.89 116.97 7.95
7/3/2021 9:15:00 PM 20.12 68.216 0.386 7.88 9.43 7.89
7/3/2021 9:30:00 PM 20.08 68.144 0.386 7.87 12.21 7.79
7/3/2021 9:45:00 PM 20.03 68.054 0.387 7.86 10.9 7.76
7/3/2021 10:00:00 PM 19.98 67.964 0.387 7.85 9.08 7.71
7/3/2021 10:15:00 PM 19.94 67.892 0.388 7.85 9.19 7.67
7/3/2021 10:30:00 PM 19.9 67.82 0.388 7.84 9.85 7.63
7/3/2021 10:45:00 PM 19.86 67.748 0.388 7.84 9.35 7.59
7/3/2021 11:00:00 PM 19.82 67.676 0.388 7.83 9.56 7.56
7/3/2021 11:15:00 PM 19.78 67.604 0.389 7.83 9.56 7.53
7/3/2021 11:30:00 PM 19.74 67.532 0.389 7.82 10.65 7.51
7/3/2021 11:45:00 PM 19.71 67.478 0.39 7.82 10.64 7.49
7/4/2021 12:00:00 AM 19.67 67.406 0.39 7.82 10.11 7.48
7/4/2021 12:15:00 AM 19.64 67.352 0.39 7.81 9.81 7.46
7/4/2021 12:30:00 AM 19.6 67.28 0.391 7.81 9.77 7.46
7/4/2021 12:45:00 AM 19.55 67.19 0.391 7.81 10.78 7.44
7/4/2021 1:00:00 AM 19.51 67.118 0.392 7.81 10.24 7.44
7/4/2021 1:15:00 AM 19.46 67.028 0.392 7.81 10.89 7.44
7/4/2021 1:30:00 AM 19.41 66.938 0.392 7.81 10.43 7.44
7/4/2021 1:45:00 AM 19.37 66.866 0.393 7.8 10.96 7.43
7/4/2021 2:00:00 AM 19.33 66.794 0.393 7.8 11.4 7.42
7/4/2021 2:15:00 AM 19.28 66.704 0.394 7.8 11.31 7.42
7/4/2021 2:30:00 AM 19.24 66.632 0.394 7.8 11.08 7.42
7/4/2021 2:45:00 AM 19.2 66.56 0.395 7.8 11.09 7.41
7/4/2021 3:00:00 AM 19.16 66.488 0.395 7.8 12.26 7.4
7/4/2021 3:15:00 AM 19.12 66.416 0.395 7.8 11.32 7.41
7/4/2021 3:30:00 AM 19.08 66.344 0.395 7.79 12.38 7.41
7/4/2021 3:45:00 AM 19.04 66.272 0.396 7.79 11.55 7.41
7/4/2021 4:00:00 AM 19 66.2 0.396 7.79 12.55 7.41
7/4/2021 4:15:00 AM 18.97 66.146 0.396 7.79 10.07 7.41
7/4/2021 4:30:00 AM 18.93 66.074 0.397 7.79 11.34 7.41
7/4/2021 4:45:00 AM 18.9 66.02 0.397 7.79 164.37 7.4
7/4/2021 5:00:00 AM 18.87 65.966 0.398 7.79 11.11 7.4
7/4/2021 5:15:00 AM 18.83 65.894 0.398 7.79 12.25 7.41
7/4/2021 5:30:00 AM 18.8 65.84 0.398 7.79 12.63 7.41
7/4/2021 5:45:00 AM 18.77 65.786 0.398 7.79 10 7.39
7/4/2021 6:00:00 AM 18.73 65.714 0.399 7.79 12.37 7.41
7/4/2021 6:15:00 AM 18.7 65.66 0.399 7.79 9.77 7.43
7/4/2021 6:30:00 AM 18.67 65.606 0.399 7.79 9.09 7.44
7/4/2021 6:45:00 AM 18.63 65.534 0.4 7.79 90.72 7.44
7/4/2021 7:00:00 AM 18.61 65.498 0.4 7.79 9.26 7.49
7/4/2021 7:15:00 AM 18.6 65.48 0.4 7.8 7.74 7.51
7/4/2021 7:30:00 AM 18.58 65.444 0.401 7.8 7.67 7.51
7/4/2021 7:45:00 AM 18.58 65.444 0.401 7.8 6.84 7.57
7/4/2021 8:00:00 AM 18.57 65.426 0.401 7.8 7.06 7.6
7/4/2021 8:15:00 AM 18.58 65.444 0.402 7.81 7.56 7.64
7/4/2021 8:30:00 AM 18.6 65.48 0.402 7.81 7.53 7.71
7/4/2021 8:45:00 AM 18.61 65.498 0.402 7.82 6.14 7.74
7/4/2021 9:00:00 AM 18.64 65.552 0.403 7.82 6.54 7.79
7/4/2021 9:15:00 AM 18.7 65.66 0.403 7.83 6.31 7.86
7/4/2021 9:30:00 AM 18.77 65.786 0.403 7.83 8.26 7.93
7/4/2021 9:45:00 AM 18.83 65.894 0.404 7.83 9.77 8
7/4/2021 10:00:00 AM 18.91 66.038 0.404 7.85 8 8.07
7/4/2021 10:15:00 AM 19 66.2 0.404 7.86 91.29 8.15
7/4/2021 10:30:00 AM 19.09 66.362 0.405 7.86 8.45 8.21
7/4/2021 10:45:00 AM 19.2 66.56 0.405 7.87 9.11 8.3
7/4/2021 11:00:00 AM 19.33 66.794 0.405 7.88 8.35 8.37
7/4/2021 11:15:00 AM 19.48 67.064 0.405 7.89 7.02 8.49
7/4/2021 11:30:00 AM 19.61 67.298 0.405 7.91 8.5 8.57
7/4/2021 11:45:00 AM 19.83 67.694 0.406 7.92 6.37 8.71
7/4/2021 12:00:00 PM 19.96 67.92799 0.406 7.94 5.75 8.82
7/4/2021 12:15:00 PM 20.13 68.234 0.406 7.95 7.67 8.94
7/4/2021 12:30:00 PM 20.39 68.702 0.406 7.98 6.53 9.15
7/4/2021 12:45:00 PM 20.52 68.936 0.406 7.99 9.74 9.2
7/4/2021 1:00:00 PM 20.6 69.08 0.406 8 10.12 9.25
7/4/2021 1:15:00 PM 20.83 69.494 0.407 8.02 17.68 9.39
7/4/2021 1:30:00 PM 21 69.8 0.406 8.04 11.32 9.46
7/4/2021 1:45:00 PM 21.01 69.818 0.407 8.05 11.64 9.45
7/4/2021 2:00:00 PM 21.23 70.214 0.407 8.07 7.96 9.61
7/4/2021 2:15:00 PM 21.46 70.628 0.407 8.08 8.27 9.69
7/4/2021 2:30:00 PM 21.67 71.006 0.407 8.1 6.67 9.84
7/4/2021 2:45:00 PM 21.85 71.33 0.407 8.11 6.7 9.9
7/4/2021 3:00:00 PM 22.01 71.618 0.407 8.12 6.79 9.87
7/4/2021 3:15:00 PM 22.18 71.924 0.407 8.13 7.16 9.89
7/4/2021 3:30:00 PM 22.34 72.212 0.408 8.13 7.24 9.86
7/4/2021 3:45:00 PM 22.48 72.464 0.408 8.14 13.31 9.81
7/4/2021 4:00:00 PM 22.55 72.59 0.408 8.14 8.8 9.76
7/4/2021 4:15:00 PM 22.59 72.662 0.408 8.14 8.73 9.71
7/4/2021 4:30:00 PM 22.59 72.662 0.409 8.13 9.22 9.61
7/4/2021 4:45:00 PM 22.52 72.536 0.409 8.12 8.18 9.45
7/4/2021 5:00:00 PM 22.46 72.42799 0.409 8.1 9.9 9.31
7/4/2021 5:15:00 PM 22.37 72.266 0.41 8.09 7.89 9.18
7/4/2021 5:30:00 PM 22.27 72.086 0.41 8.06 9.49 9
7/4/2021 5:45:00 PM 22.18 71.924 0.41 8.06 9.37 8.91
7/4/2021 6:00:00 PM 22.08 71.744 0.41 8.04 8.11 8.76
7/4/2021 6:15:00 PM 21.99 71.582 0.41 8.03 9.71 8.65
7/4/2021 6:30:00 PM 21.92 71.456 0.41 8.02 8.73 8.53
7/4/2021 6:45:00 PM 21.84 71.312 0.411 7.99 10.31 8.43
7/4/2021 7:00:00 PM 21.75 71.15 0.411 7.98 6.94 8.35
7/4/2021 7:15:00 PM 21.67 71.006 0.411 7.97 7.68 8.27
7/4/2021 7:30:00 PM 21.59 70.862 0.412 7.96 6.91 8.17
7/4/2021 7:45:00 PM 21.51 70.718 0.412 7.95 9.45 8.1
7/4/2021 8:00:00 PM 21.44 70.592 0.412 7.94 8.03 8.03
7/4/2021 8:15:00 PM 21.36 70.448 0.412 7.93 7.45 7.96
7/4/2021 8:30:00 PM 21.29 70.32201 0.413 7.92 9.75 7.88
7/4/2021 8:45:00 PM 21.22 70.196 0.413 7.91 8.26 7.82
7/4/2021 9:00:00 PM 21.16 70.088 0.413 7.91 8.2 7.78
7/4/2021 9:15:00 PM 21.09 69.962 0.413 7.9 105.67 7.72
7/4/2021 9:30:00 PM 21.02 69.836 0.414 7.9 8.84 7.68
7/4/2021 9:45:00 PM 20.96 69.728 0.414 7.89 10.24 7.63
7/4/2021 10:00:00 PM 20.89 69.602 0.414 7.88 9.86 7.6
7/4/2021 10:15:00 PM 20.83 69.494 0.415 7.88 10.26 7.55
7/4/2021 10:30:00 PM 20.77 69.386 0.415 7.87 8.88 7.52
7/4/2021 10:45:00 PM 20.71 69.278 0.415 7.87 9.1 7.48
7/4/2021 11:00:00 PM 20.66 69.188 0.416 7.86 12.06 7.45
7/4/2021 11:15:00 PM 20.6 69.08 0.416 7.86 9.51 7.43
7/4/2021 11:30:00 PM 20.55 68.99 0.416 7.85 10.26 7.42
7/4/2021 11:45:00 PM 20.49 68.882 0.417 7.85 10.62 7.41
7/5/2021 12:00:00 AM 20.44 68.792 0.417 7.85 9.67 7.4
7/5/2021 12:15:00 AM 20.38 68.684 0.417 7.85 10.47 7.38
7/5/2021 12:30:00 AM 20.33 68.594 0.418 7.84 10.39 7.37
7/5/2021 12:45:00 AM 20.28 68.504 0.418 7.84 11.44 7.36
7/5/2021 1:00:00 AM 20.22 68.396 0.418 7.84 10.65 7.36
7/5/2021 1:15:00 AM 20.16 68.288 0.419 7.83 11.41 7.34
7/5/2021 1:30:00 AM 20.11 68.198 0.419 7.83 11.42 7.34
7/5/2021 1:45:00 AM 20.05 68.09 0.419 7.83 17.13 7.34
7/5/2021 2:00:00 AM 19.99 67.982 0.42 7.83 12.45 7.34
7/5/2021 2:15:00 AM 19.93 67.874 0.42 7.83 10.72 7.33
7/5/2021 2:30:00 AM 19.87 67.766 0.42 7.83 10.47 7.34
7/5/2021 2:45:00 AM 19.8 67.64 0.421 7.82 11.98 7.34
7/5/2021 3:00:00 AM 19.74 67.532 0.421 7.82 10.83 7.34
7/5/2021 3:15:00 AM 19.67 67.406 0.421 7.82 10.52 7.35
7/5/2021 3:30:00 AM 19.6 67.28 0.422 7.82 18.42 7.36
7/5/2021 3:45:00 AM 19.53 67.154 0.422 7.82 11.99 7.36
7/5/2021 4:00:00 AM 19.46 67.028 0.422 7.82 10.79 7.37
7/5/2021 4:15:00 AM 19.39 66.902 0.422 7.81 11.78 7.38
7/5/2021 4:30:00 AM 19.32 66.776 0.423 7.81 10.82 7.37
7/5/2021 4:45:00 AM 19.24 66.632 0.423 7.81 12.57 7.38
7/5/2021 5:00:00 AM 19.17 66.506 0.423 7.81 14.97 7.4
7/5/2021 5:15:00 AM 19.1 66.38 0.424 7.8 123.1 7.39
7/5/2021 5:30:00 AM 19.03 66.254 0.423 7.8 38.8 7.4
7/5/2021 5:45:00 AM 18.95 66.11 0.424 7.8 14.06 7.42
7/5/2021 6:00:00 AM 18.89 66.002 0.424 7.8 56.64 7.42
7/5/2021 6:15:00 AM 18.82 65.876 0.424 7.8 11.39 7.46
7/5/2021 6:30:00 AM 18.76 65.768 0.424 7.8 8.8 7.48
7/5/2021 6:45:00 AM 18.7 65.66 0.424 7.8 9.57 7.48
7/5/2021 7:00:00 AM 18.66 65.588 0.425 7.81 9.2 7.52
7/5/2021 7:15:00 AM 18.62 65.516 0.425 7.81 98.57 7.54
7/5/2021 7:30:00 AM 18.61 65.498 0.425 7.81 6.78 7.57
7/5/2021 7:45:00 AM 18.6 65.48 0.425 7.81 5.9 7.63
7/5/2021 8:00:00 AM 18.6 65.48 0.425 7.81 5.64 7.66
7/5/2021 8:15:00 AM 18.61 65.498 0.425 7.82 5.82 7.71
7/5/2021 8:30:00 AM 18.65 65.57 0.425 7.82 7.03 7.75
7/5/2021 8:45:00 AM 18.69 65.642 0.425 7.83 6.18 7.84
7/5/2021 9:00:00 AM 18.75 65.75 0.425 7.83 6.15 7.88
7/5/2021 9:15:00 AM 18.83 65.894 0.426 7.84 12.61 7.99
7/5/2021 9:30:00 AM 18.92 66.056 0.426 7.85 6.62 8.1
7/5/2021 9:45:00 AM 19 66.2 0.426 7.86 5.14 8.19
7/5/2021 10:00:00 AM 19.08 66.344 0.426 7.87 5.17 8.27
7/5/2021 10:15:00 AM 19.19 66.542 0.426 7.88 14.89 8.36
7/5/2021 10:30:00 AM 19.3 66.74 0.426 7.89 11.8 8.43
7/5/2021 10:45:00 AM 19.42 66.956 0.426 7.89 11.83 8.5
7/5/2021 11:00:00 AM 19.56 67.208 0.426 7.92 7.63 8.68
7/5/2021 11:15:00 AM 19.72 67.496 0.426 7.93 7.56 8.76
7/5/2021 11:30:00 AM 19.9 67.82 0.426 7.95 11.18 8.9
7/5/2021 11:45:00 AM 20.09 68.162 0.426 7.96 63.83 9.04
7/5/2021 12:00:00 PM 20.26 68.468 0.427 7.98 5.08 9.19
7/5/2021 12:15:00 PM 20.44 68.792 0.427 8 4.95 9.3
7/5/2021 12:30:00 PM 20.71 69.278 0.427 8.02 6.41 9.46
7/5/2021 12:45:00 PM 20.95 69.71 0.426 8.04 11.24 9.58
7/5/2021 1:00:00 PM 21.2 70.16 0.426 8.06 8.13 9.7
7/5/2021 1:15:00 PM 21.44 70.592 0.426 8.08 7.78 9.81
7/5/2021 1:30:00 PM 21.67 71.006 0.426 8.1 7.35 9.92
7/5/2021 1:45:00 PM 21.89 71.402 0.426 8.12 8.33 9.99
7/5/2021 2:00:00 PM 22.09 71.762 0.426 8.14 10.67 10.1
7/5/2021 2:15:00 PM 22.32 72.176 0.426 8.16 9.6 10.18
7/5/2021 2:30:00 PM 22.49 72.482 0.426 8.17 11.26 10.19
7/5/2021 2:45:00 PM 22.65 72.77 0.426 8.19 11.91 10.22
7/5/2021 3:00:00 PM 22.79 73.022 0.426 8.2 9.35 10.24
7/5/2021 3:15:00 PM 22.89 73.202 0.426 8.21 7.41 10.24
7/5/2021 3:30:00 PM 22.98 73.364 0.426 8.21 8.57 10.19
7/5/2021 3:45:00 PM 23.05 73.49 0.426 8.21 13.13 10.13
7/5/2021 4:00:00 PM 23.1 73.58 0.426 8.22 9.3 10.13
7/5/2021 4:15:00 PM 23.04 73.472 0.426 8.21 8.08 10.02
7/5/2021 4:30:00 PM 22.99 73.382 0.426 8.2 6.71 9.92
7/5/2021 4:45:00 PM 22.97 73.346 0.426 8.19 7.46 9.83
7/5/2021 5:00:00 PM 22.9 73.22 0.427 8.18 6.62 9.77
7/5/2021 5:15:00 PM 22.83 73.094 0.427 8.17 6.87 9.63
7/5/2021 5:30:00 PM 22.74 72.932 0.427 8.15 7.03 9.53
7/5/2021 5:45:00 PM 22.68 72.824 0.427 8.14 7.33 9.43
7/5/2021 6:00:00 PM 22.6 72.68 0.427 8.13 6.59 9.3
7/5/2021 6:15:00 PM 22.53 72.554 0.427 8.11 5.75 9.16
7/5/2021 6:30:00 PM 22.47 72.446 0.427 8.1 6.22 9.04
7/5/2021 6:45:00 PM 22.41 72.338 0.427 8.08 6.58 8.92
7/5/2021 7:00:00 PM 22.35 72.23 0.428 8.06 7.74 8.8
7/5/2021 7:15:00 PM 22.29 72.122 0.428 8.06 6.54 8.72
7/5/2021 7:30:00 PM 22.23 72.014 0.428 8.04 6.26 8.6
7/5/2021 7:45:00 PM 22.17 71.906 0.429 8.02 6.86 8.49
7/5/2021 8:00:00 PM 22.11 71.798 0.429 8.01 6 8.36
7/5/2021 8:15:00 PM 22.06 71.708 0.429 7.99 5.49 8.26
7/5/2021 8:30:00 PM 22 71.6 0.429 7.98 6.05 8.16
7/5/2021 8:45:00 PM 21.95 71.51 0.43 7.97 5.6 8.06
7/5/2021 9:00:00 PM 21.9 71.42 0.43 7.95 8.56 7.92
7/5/2021 9:15:00 PM 21.85 71.33 0.43 7.94 7.81 7.87
7/5/2021 9:30:00 PM 21.81 71.258 0.43 7.93 7.2 7.79
7/5/2021 9:45:00 PM 21.77 71.186 0.43 7.92 8.25 7.71
7/5/2021 10:00:00 PM 21.73 71.114 0.43 7.91 8.06 7.65
7/5/2021 10:15:00 PM 21.7 71.06 0.431 7.9 8.98 7.58
7/5/2021 10:30:00 PM 21.66 70.988 0.431 7.9 10.1 7.53
7/5/2021 10:45:00 PM 21.63 70.934 0.431 7.89 8.84 7.47
7/5/2021 11:00:00 PM 21.6 70.88 0.431 7.89 9.1 7.44
7/5/2021 11:15:00 PM 21.56 70.808 0.431 7.88 8.89 7.4
7/5/2021 11:30:00 PM 21.53 70.754 0.431 7.87 9.94 7.36
7/5/2021 11:45:00 PM 21.49 70.682 0.432 7.87 9.53 7.33
7/6/2021 12:00:00 AM 21.45 70.61 0.432 7.87 11.73 7.3
7/6/2021 12:15:00 AM 21.42 70.556 0.432 7.86 12.76 7.28
7/6/2021 12:30:00 AM 21.38 70.484 0.433 7.86 10.22 7.27
7/6/2021 12:45:00 AM 21.33 70.394 0.433 7.86 9.55 7.25
7/6/2021 1:00:00 AM 21.3 70.34 0.433 7.85 9.6 7.23
7/6/2021 1:15:00 AM 21.26 70.268 0.433 7.85 10.43 7.22
7/6/2021 1:30:00 AM 21.21 70.17799 0.434 7.85 11.63 7.21
7/6/2021 1:45:00 AM 21.17 70.106 0.434 7.85 10.84 7.2
7/6/2021 2:00:00 AM 21.12 70.016 0.435 7.84 9.84 7.19
7/6/2021 2:15:00 AM 21.08 69.944 0.435 7.84 10.89 7.18
7/6/2021 2:30:00 AM 21.03 69.854 0.435 7.84 10.18 7.18
7/6/2021 2:45:00 AM 20.98 69.764 0.435 7.84 10.54 7.17
7/6/2021 3:00:00 AM 20.93 69.674 0.436 7.83 12.66 7.18
7/6/2021 3:15:00 AM 20.89 69.602 0.436 7.83 11.63 7.17
7/6/2021 3:30:00 AM 20.84 69.512 0.436 7.83 12.49 7.16
7/6/2021 3:45:00 AM 20.78 69.404 0.436 7.82 21.12 7.14
7/6/2021 4:00:00 AM 20.73 69.314 0.437 7.82 13.49 7.14
7/6/2021 4:15:00 AM 20.67 69.206 0.437 7.82 17.84 7.14
7/6/2021 4:30:00 AM 20.62 69.116 0.437 7.82 11.5 7.14
7/6/2021 4:45:00 AM 20.56 69.008 0.438 7.82 9.37 7.15
7/6/2021 5:00:00 AM 20.51 68.918 0.438 7.81 11.98 7.13
7/6/2021 5:15:00 AM 20.45 68.81 0.438 7.81 44.36 7.13
7/6/2021 5:30:00 AM 20.4 68.72 0.438 7.81 9.85 7.15
7/6/2021 5:45:00 AM 20.34 68.612 0.438 7.81 8.95 7.19
7/6/2021 6:00:00 AM 20.29 68.522 0.439 7.81 98.51 7.18
7/6/2021 6:15:00 AM 20.25 68.45 0.439 7.81 11.28 7.18
7/6/2021 6:30:00 AM 20.2 68.36 0.439 7.81 8.84 7.21
7/6/2021 6:45:00 AM 20.15 68.27 0.439 7.8 14.13 7.22
7/6/2021 7:00:00 AM 20.12 68.216 0.439 7.8 5.93 7.25
7/6/2021 7:15:00 AM 20.1 68.18 0.44 7.81 5.4 7.31
7/6/2021 7:30:00 AM 20.08 68.144 0.44 7.81 4.9 7.36
7/6/2021 7:45:00 AM 20.08 68.144 0.44 7.81 5.31 7.4
7/6/2021 8:00:00 AM 20.08 68.144 0.44 7.82 4.39 7.47
7/6/2021 8:15:00 AM 20.11 68.198 0.44 7.83 4.68 7.53
7/6/2021 8:30:00 AM 20.14 68.252 0.44 7.83 4.68 7.62
7/6/2021 8:45:00 AM 20.18 68.324 0.44 7.84 5.96 7.7
7/6/2021 9:00:00 AM 20.23 68.414 0.44 7.85 5.57 7.77
7/6/2021 9:15:00 AM 20.3 68.54 0.44 7.86 24.76 7.89
7/6/2021 9:30:00 AM 20.37 68.666 0.44 7.87 27.14 7.99
7/6/2021 9:45:00 AM 20.46 68.828 0.44 7.88 12.99 8.08
7/6/2021 10:00:00 AM 20.55 68.99 0.44 7.89 21.59 8.2
7/6/2021 10:15:00 AM 20.64 69.152 0.44 7.91 6.35 8.35
7/6/2021 10:30:00 AM 20.75 69.35 0.441 7.92 6.89 8.49
7/6/2021 10:45:00 AM 20.87 69.566 0.44 7.94 19.29 8.59
7/6/2021 11:00:00 AM 21 69.8 0.44 7.96 11.64 8.74
7/6/2021 11:15:00 AM 21.16 70.088 0.44 7.95 30.7 8.76
7/6/2021 11:30:00 AM 21.33 70.394 0.439 7.98 66.69 8.93
7/6/2021 11:45:00 AM 21.51 70.718 0.44 8 19.29 9.05
7/6/2021 12:00:00 PM 21.72 71.096 0.44 8.02 10.11 9.21
7/6/2021 12:15:00 PM 21.96 71.528 0.44 8.05 7.08 9.36
7/6/2021 12:30:00 PM 22.21 71.978 0.439 8.07 8.2 9.52
7/6/2021 12:45:00 PM 22.46 72.42799 0.439 8.09 8.29 9.66
7/6/2021 1:00:00 PM 22.71 72.878 0.439 8.11 7.04 9.76
7/6/2021 1:15:00 PM 22.96 73.328 0.439 8.13 8.79 9.87
7/6/2021 1:30:00 PM 23.18 73.724 0.438 8.15 9.79 9.96
7/6/2021 1:45:00 PM 23.41 74.138 0.438 8.17 6.15 10.09
7/6/2021 2:00:00 PM 23.58 74.444 0.438 8.19 5.98 10.13
7/6/2021 2:15:00 PM 23.8 74.84 0.438 8.21 7.54 10.21
7/6/2021 2:30:00 PM 24 75.2 0.438 8.22 7.08 10.25
7/6/2021 2:45:00 PM 24.16 75.488 0.438 8.24 5.89 10.3
7/6/2021 3:00:00 PM 24.33 75.794 0.437 8.25 4.83 10.3
7/6/2021 3:15:00 PM 24.45 76.01 0.437 8.26 4.8 10.29
7/6/2021 3:30:00 PM 24.57 76.226 0.437 8.27 4.5 10.28
7/6/2021 3:45:00 PM 24.67 76.406 0.437 8.27 4.25 10.24
7/6/2021 4:00:00 PM 24.7 76.46 0.437 8.27 3.95 10.17
7/6/2021 4:15:00 PM 24.74 76.532 0.437 8.27 3.87 10.11
7/6/2021 4:30:00 PM 24.76 76.568 0.437 8.26 4.81 10.05
7/6/2021 4:45:00 PM 24.7 76.46 0.438 8.25 4.32 9.92
7/6/2021 5:00:00 PM 24.55 76.19 0.438 8.22 5.03 9.66
7/6/2021 5:15:00 PM 24.44 75.992 0.438 8.2 5.22 9.46
7/6/2021 5:30:00 PM 24.31 75.758 0.438 8.18 8.52 9.31
7/6/2021 5:45:00 PM 24.2 75.56 0.438 8.16 4.6 9.13
7/6/2021 6:00:00 PM 24.11 75.398 0.439 8.14 7.18 9.01
7/6/2021 6:15:00 PM 24.03 75.254 0.439 8.12 10.03 8.88
7/6/2021 6:30:00 PM 23.93 75.074 0.439 8.1 10.21 8.75
7/6/2021 6:45:00 PM 23.82 74.876 0.439 8.09 4.33 8.64
7/6/2021 7:00:00 PM 23.73 74.714 0.439 8.07 4.05 8.53
7/6/2021 7:15:00 PM 23.67 74.606 0.44 8.06 3.75 8.42
7/6/2021 7:30:00 PM 23.6 74.48 0.44 8.05 3.81 8.37
7/6/2021 7:45:00 PM 23.54 74.372 0.44 8.03 4.16 8.29
7/6/2021 8:00:00 PM 23.49 74.282 0.44 8.02 6.6 8.19
7/6/2021 8:15:00 PM 23.44 74.192 0.44 8.01 4.84 8.11
7/6/2021 8:30:00 PM 23.4 74.12 0.44 7.99 3.99 8
7/6/2021 8:45:00 PM 23.36 74.048 0.44 7.98 4.21 7.89
7/6/2021 9:00:00 PM 23.31 73.958 0.44 7.96 5.21 7.78
7/6/2021 9:15:00 PM 23.27 73.886 0.441 7.95 7.68 7.67
7/6/2021 9:30:00 PM 23.23 73.814 0.441 7.93 5.27 7.57
7/6/2021 9:45:00 PM 23.2 73.76 0.441 7.92 5.71 7.49
7/6/2021 10:00:00 PM 23.17 73.706 0.441 7.91 6.74 7.41
7/6/2021 10:15:00 PM 23.13 73.634 0.441 7.9 8.94 7.33
7/6/2021 10:30:00 PM 23.11 73.598 0.441 7.89 6.22 7.26
7/6/2021 10:45:00 PM 23.07 73.526 0.441 7.88 6.36 7.2
7/6/2021 11:00:00 PM 23.04 73.472 0.441 7.88 7.52 7.14
7/6/2021 11:15:00 PM 23.01 73.418 0.441 7.87 6.15 7.09
7/6/2021 11:30:00 PM 22.97 73.346 0.441 7.87 5.91 7.06
7/6/2021 11:45:00 PM 22.93 73.274 0.442 7.86 6.23 7.02
7/7/2021 12:00:00 AM 22.89 73.202 0.442 7.86 6.59 6.98
7/7/2021 12:15:00 AM 22.85 73.13 0.442 7.85 6.21 6.96
7/7/2021 12:30:00 AM 22.81 73.058 0.442 7.85 6.84 6.93
7/7/2021 12:45:00 AM 22.76 72.968 0.442 7.84 6.75 6.92
7/7/2021 1:00:00 AM 22.72 72.896 0.442 7.84 6.63 6.9
7/7/2021 1:15:00 AM 22.68 72.824 0.442 7.84 7.12 6.88
7/7/2021 1:30:00 AM 22.64 72.752 0.442 7.83 6.57 6.87
7/7/2021 1:45:00 AM 22.6 72.68 0.443 7.83 8.88 6.85
7/7/2021 2:00:00 AM 22.56 72.608 0.443 7.83 7.16 6.84
7/7/2021 2:15:00 AM 22.52 72.536 0.443 7.83 7.19 6.84
7/7/2021 2:30:00 AM 22.48 72.464 0.443 7.82 8.02 6.83
7/7/2021 2:45:00 AM 22.43 72.374 0.443 7.82 6.98 6.82
7/7/2021 3:00:00 AM 22.38 72.284 0.444 7.82 12.19 6.82
7/7/2021 3:15:00 AM 22.33 72.194 0.444 7.82 8.1 6.82
7/7/2021 3:30:00 AM 22.28 72.104 0.444 7.81 9.04 6.81
7/7/2021 3:45:00 AM 22.23 72.014 0.444 7.81 8.86 6.81
7/7/2021 4:00:00 AM 22.18 71.924 0.445 7.81 7.8 6.82
7/7/2021 4:15:00 AM 22.12 71.816 0.445 7.81 6.9 6.81
7/7/2021 4:30:00 AM 22.07 71.726 0.445 7.81 6.33 6.8
7/7/2021 4:45:00 AM 22.02 71.636 0.445 7.81 6.65 6.8
7/7/2021 5:00:00 AM 21.96 71.528 0.445 7.8 14.31 6.79
7/7/2021 5:15:00 AM 21.91 71.438 0.446 7.8 35.9 6.77
7/7/2021 5:30:00 AM 21.85 71.33 0.446 7.8 12.77 6.8
7/7/2021 5:45:00 AM 21.79 71.222 0.446 7.8 42.67 6.79
7/7/2021 6:00:00 AM 21.72 71.096 0.446 7.72 7.41 6.8
7/7/2021 6:15:00 AM 21.66 70.988 0.446 7.75 7.12 6.81
7/7/2021 6:30:00 AM 21.6 70.88 0.446 7.76 6.63 6.84
7/7/2021 6:45:00 AM 21.55 70.79 0.446 7.76 6.1 6.85
7/7/2021 7:00:00 AM 21.51 70.718 0.446 7.79 4.81 6.88
7/7/2021 7:15:00 AM 21.47 70.646 0.446 7.75 5.69 6.93
7/7/2021 7:30:00 AM 21.45 70.61 0.446 7.79 6.79 6.97
7/7/2021 7:45:00 AM 21.44 70.592 0.446 7.8 5.02 7.02
7/7/2021 8:00:00 AM 21.45 70.61 0.446 7.8 4.04 7.09
7/7/2021 8:15:00 AM 21.46 70.628 0.446 7.81 4.85 7.17
7/7/2021 8:30:00 AM 21.48 70.664 0.446 7.79 8.23 7.24
7/7/2021 8:45:00 AM 21.52 70.736 0.446 7.76 9.36 7.31
7/7/2021 9:00:00 AM 21.56 70.808 0.446 7.77 9.29 7.43
7/7/2021 9:15:00 AM 21.62 70.916 0.446 7.81 3.53 7.53
7/7/2021 9:30:00 AM 21.7 71.06 0.449 7.86 44.91 7.64
7/7/2021 9:45:00 AM 21.78 71.204 0.447 7.75 31.28 7.78
7/7/2021 10:00:00 AM 21.85 71.33 0.446 7.87 5.23 7.91
7/7/2021 10:15:00 AM 21.95 71.51 0.446 7.89 4.18 8.05
7/7/2021 10:30:00 AM 22.05 71.69 0.446 7.91 4.32 8.17
7/7/2021 10:45:00 AM 22.15 71.87 0.446 7.92 4.92 8.31
7/7/2021 11:00:00 AM 22.27 72.086 0.446 7.94 5.31 8.45
7/7/2021 11:15:00 AM 22.42 72.356 0.446 7.96 4.81 8.6
7/7/2021 11:30:00 AM 22.59 72.662 0.446 7.98 4.2 8.75
7/7/2021 11:45:00 AM 22.77 72.986 0.445 8 4.17 8.92
7/7/2021 12:00:00 PM 22.96 73.328 0.445 8.02 5.54 9.1
7/7/2021 12:15:00 PM 23.18 73.724 0.445 8.05 5.81 9.28
7/7/2021 12:30:00 PM 23.41 74.138 0.445 8.08 7.83 9.45
7/7/2021 12:45:00 PM 23.67 74.606 0.444 8.11 4.23 9.64
7/7/2021 1:00:00 PM 23.91 75.038 0.444 8.13 3.82 9.8
7/7/2021 1:15:00 PM 24.1 75.38 0.444 8.16 4.51 9.95
7/7/2021 1:30:00 PM 24.26 75.668 0.443 8.18 4.03 10.05
7/7/2021 1:45:00 PM 24.51 76.118 0.443 8.21 4.03 10.19
7/7/2021 2:00:00 PM 24.69 76.442 0.442 8.23 4.69 10.26
7/7/2021 2:15:00 PM 24.67 76.406 0.442 8.24 7.49 10.2
7/7/2021 2:30:00 PM 24.79 76.622 0.442 8.25 6.98 10.24
7/7/2021 2:45:00 PM 24.8 76.64 0.442 8.25 6.75 10.17
7/7/2021 3:00:00 PM 24.95 76.91 0.441 8.26 7 10.21
7/7/2021 3:15:00 PM 25.06 77.108 0.441 8.27 7.14 10.2
7/7/2021 3:30:00 PM 25.02 77.036 0.441 8.26 7.27 10.09
7/7/2021 3:45:00 PM 24.99 76.982 0.441 8.25 7.19 9.95
7/7/2021 4:00:00 PM 25.1 77.18 0.441 8.26 6.69 10.01
7/7/2021 4:15:00 PM 25.12 77.216 0.441 8.25 8.88 9.93
7/7/2021 4:30:00 PM 25.14 77.252 0.441 8.25 8.87 9.86
7/7/2021 4:45:00 PM 25.08 77.144 0.441 8.24 10.02 9.74
7/7/2021 5:00:00 PM 25.12 77.216 0.441 8.23 10.37 9.67
7/7/2021 5:15:00 PM 25.08 77.144 0.441 8.21 10.9 9.52
7/7/2021 5:30:00 PM 25.05 77.09 0.441 8.2 21.66 9.39
7/7/2021 5:45:00 PM 25.01 77.018 0.442 8.18 15.96 9.27
7/7/2021 6:00:00 PM 24.94 76.892 0.442 8.17 30.59 9.12
7/7/2021 6:15:00 PM 24.87 76.766 0.438 8.15 11.05 8.98
7/7/2021 6:30:00 PM 24.8 76.64 0.442 8.14 9.59 8.86
7/7/2021 6:45:00 PM 24.73 76.514 0.442 8.12 9.52 8.7
7/7/2021 7:00:00 PM 24.66 76.388 0.442 8.1 10.49 8.56
7/7/2021 7:15:00 PM 24.58 76.244 0.443 8.08 8.34 8.4
7/7/2021 7:30:00 PM 24.51 76.118 0.442 8.06 8.18 8.29
7/7/2021 7:45:00 PM 24.44 75.992 0.443 8.05 10.48 8.17
7/7/2021 8:00:00 PM 24.36 75.848 0.443 8.03 11.97 8.03
7/7/2021 8:15:00 PM 24.27 75.686 0.443 8.01 9.64 7.89
7/7/2021 8:30:00 PM 24.19 75.542 0.444 7.99 8.3 7.77
7/7/2021 8:45:00 PM 24.11 75.398 0.444 7.98 8.25 7.64
7/7/2021 9:00:00 PM 24.04 75.272 0.444 7.96 8.35 7.53
7/7/2021 9:15:00 PM 23.97 75.146 0.444 7.95 7.55 7.42
7/7/2021 9:30:00 PM 23.91 75.038 0.444 7.94 7.71 7.32
7/7/2021 9:45:00 PM 23.84 74.912 0.444 7.92 11.02 7.25
7/7/2021 10:00:00 PM 23.78 74.804 0.445 7.91 5.41 7.17
7/7/2021 10:15:00 PM 23.73 74.714 0.445 7.9 5.31 7.11
7/7/2021 10:30:00 PM 23.67 74.606 0.445 7.9 5.54 7.06
7/7/2021 10:45:00 PM 23.63 74.534 0.445 7.89 6.16 7
7/7/2021 11:00:00 PM 23.58 74.444 0.445 7.88 5.28 6.95
7/7/2021 11:15:00 PM 23.53 74.354 0.445 7.88 5.4 6.93
7/7/2021 11:30:00 PM 23.48 74.264 0.445 7.87 5.43 6.9
7/7/2021 11:45:00 PM 23.44 74.192 0.445 7.87 5.03 6.86
7/8/2021 12:00:00 AM 23.4 74.12 0.445 7.86 5.82 6.84
7/8/2021 12:15:00 AM 23.36 74.048 0.445 7.86 5.22 6.81
7/8/2021 12:30:00 AM 23.31 73.958 0.445 7.85 5.81 6.79
7/8/2021 12:45:00 AM 23.28 73.904 0.445 7.85 5.5 6.78
7/8/2021 1:00:00 AM 23.23 73.814 0.445 7.85 5.65 6.77
7/8/2021 1:15:00 AM 23.19 73.742 0.445 7.85 5.67 6.76
7/8/2021 1:30:00 AM 23.16 73.688 0.445 7.84 5.24 6.74
7/8/2021 1:45:00 AM 23.12 73.616 0.445 7.84 6.37 6.73
7/8/2021 2:00:00 AM 23.08 73.544 0.445 7.84 5.93 6.72
7/8/2021 2:15:00 AM 23.04 73.472 0.445 7.84 6.99 6.72
7/8/2021 2:30:00 AM 23 73.4 0.445 7.83 5.21 6.7
7/8/2021 2:45:00 AM 22.95 73.31 0.445 7.83 5.48 6.7
7/8/2021 3:00:00 AM 22.9 73.22 0.445 7.83 5.3 6.7
7/8/2021 3:15:00 AM 22.85 73.13 0.445 7.83 5.81 6.69
7/8/2021 3:30:00 AM 22.8 73.04 0.445 7.83 7.67 6.69
7/8/2021 3:45:00 AM 22.75 72.95 0.446 7.83 9.82 6.66
7/8/2021 4:00:00 AM 22.69 72.842 0.446 7.83 10.52 6.68
7/8/2021 4:15:00 AM 22.63 72.734 0.446 7.83 6.89 6.68
7/8/2021 4:30:00 AM 22.58 72.644 0.446 7.83 8.92 6.69
7/8/2021 4:45:00 AM 22.53 72.554 0.446 7.82 7.07 6.68
7/8/2021 5:00:00 AM 22.47 72.446 0.446 7.82 6.35 6.69
7/8/2021 5:15:00 AM 22.42 72.356 0.446 7.82 6.9 6.69
7/8/2021 5:30:00 AM 22.36 72.248 0.447 7.82 10.34 6.69
7/8/2021 5:45:00 AM 22.31 72.158 0.447 7.82 10.28 6.7
7/8/2021 6:00:00 AM 22.27 72.086 0.447 7.82 5.31 6.7
7/8/2021 6:15:00 AM 22.22 71.996 0.447 7.82 6.82 6.68
7/8/2021 6:30:00 AM 22.18 71.924 0.447 7.81 6.1 6.7
7/8/2021 6:45:00 AM 22.13 71.834 0.447 7.81 5.16 6.71
7/8/2021 7:00:00 AM 22.1 71.78 0.447 7.81 7.48 6.66
7/8/2021 7:15:00 AM 22.06 71.708 0.447 7.81 6.33 6.74
7/8/2021 7:30:00 AM 22.03 71.654 0.447 7.82 5.76 6.78
7/8/2021 7:45:00 AM 22.01 71.618 0.447 7.82 5.8 6.82
7/8/2021 8:00:00 AM 21.99 71.582 0.447 7.83 4.48 6.91
7/8/2021 8:15:00 AM 21.98 71.564 0.447 7.83 5.21 6.96
7/8/2021 8:30:00 AM 21.98 71.564 0.447 7.83 5.85 7.02
7/8/2021 8:45:00 AM 22.02 71.636 0.447 7.85 5.23 7.21
7/8/2021 9:00:00 AM 22.03 71.654 0.447 7.85 4.85 7.26
7/8/2021 9:15:00 AM 22.04 71.672 0.447 7.86 5.23 7.33
7/8/2021 9:30:00 AM 22.09 71.762 0.447 7.87 6.3 7.52
7/8/2021 9:45:00 AM 22.12 71.816 0.447 7.88 6.72 7.63
7/8/2021 10:00:00 AM 22.13 71.834 0.447 7.89 5.31 7.74
7/8/2021 10:15:00 AM 22.14 71.852 0.447 7.91 4.62 7.84
7/8/2021 10:30:00 AM 22.14 71.852 0.447 7.91 6.14 7.9
7/8/2021 10:45:00 AM 22.15 71.87 0.447 7.92 6.21 7.98
7/8/2021 11:00:00 AM 22.15 71.87 0.447 7.93 6.1 8.05
7/8/2021 11:15:00 AM 22.17 71.906 0.447 7.94 6.77 8.19
7/8/2021 11:30:00 AM 22.21 71.978 0.447 7.96 5.12 8.31
7/8/2021 11:45:00 AM 22.29 72.122 0.447 7.97 4.6 8.55
7/8/2021 12:00:00 PM 22.33 72.194 0.446 7.98 4.55 8.63
7/8/2021 12:15:00 PM 22.37 72.266 0.447 8.01 4.17 8.79
7/8/2021 12:30:00 PM 22.44 72.392 0.446 8.03 4.34 8.97
7/8/2021 12:45:00 PM 22.51 72.518 0.446 8.05 4.32 9.11
7/8/2021 1:00:00 PM 22.6 72.68 0.446 8.07 4.42 9.31
7/8/2021 1:15:00 PM 22.76 72.968 0.445 8.1 3.71 9.6
7/8/2021 1:30:00 PM 22.82 73.076 0.445 8.12 4.07 9.67
7/8/2021 1:45:00 PM 23 73.4 0.445 8.15 4.45 9.87
7/8/2021 2:00:00 PM 23.11 73.598 0.444 8.17 4.73 9.99
7/8/2021 2:15:00 PM 23.2 73.76 0.444 8.19 4.99 10.11
7/8/2021 2:30:00 PM 23.3 73.94 0.443 8.23 5.45 10.24
7/8/2021 2:45:00 PM 23.29 73.922 0.443 8.22 4.7 10.06
7/8/2021 3:00:00 PM 23.23 73.814 0.437 8.21 7.2 9.76
7/8/2021 3:15:00 PM 23.04 73.472 0.399 8.22 48.29 9.35
7/8/2021 3:30:00 PM 22.95 73.31 0.404 8.19 36.36 9.19
7/8/2021 3:45:00 PM 22.88 73.184 0.407 8.16 21.68 8.95
7/8/2021 4:00:00 PM 22.77 72.986 0.397 8.11 16.84 8.64
7/8/2021 4:15:00 PM 22.67 72.806 0.395 8.07 20.45 8.38
7/8/2021 4:30:00 PM 22.56 72.608 0.396 8.04 22.03 8.17
7/8/2021 4:45:00 PM 22.48 72.464 0.403 8 17.19 8.01
7/8/2021 5:00:00 PM 22.37 72.266 0.401 7.98 17.83 7.93
7/8/2021 5:15:00 PM 22.31 72.158 0.405 7.96 14.82 7.79
7/8/2021 5:30:00 PM 22.26 72.068 0.406 7.94 13.23 7.66
7/8/2021 5:45:00 PM 22.21 71.978 0.402 7.92 14.16 7.57
7/8/2021 6:00:00 PM 22.17 71.906 0.4 7.9 12.28 7.5
7/8/2021 6:15:00 PM 22.14 71.852 0.399 7.89 13.53 7.45
7/8/2021 6:30:00 PM 22.12 71.816 0.4 7.88 13.42 7.39
7/8/2021 6:45:00 PM 22.13 71.834 0.4 7.87 11.32 7.35
7/8/2021 7:00:00 PM 22.17 71.906 0.399 7.86 11.69 7.33
7/8/2021 7:15:00 PM 22.21 71.978 0.398 7.86 13.98 7.31
7/8/2021 7:30:00 PM 22.26 72.068 0.397 7.86 13.78 7.3
7/8/2021 7:45:00 PM 22.3 72.14 0.394 7.85 16.08 7.27
7/8/2021 8:00:00 PM 22.34 72.212 0.388 7.85 18.51 7.25
7/8/2021 8:15:00 PM 22.38 72.284 0.383 7.83 21.05 7.16
7/8/2021 8:30:00 PM 22.41 72.338 0.375 7.83 24.24 7.11
7/8/2021 8:45:00 PM 22.45 72.41 0.369 7.82 27.63 7.03
7/8/2021 9:00:00 PM 22.48 72.464 0.366 7.82 30.44 7
7/8/2021 9:15:00 PM 22.51 72.518 0.365 7.81 26.81 6.95
7/8/2021 9:30:00 PM 22.53 72.554 0.365 7.81 26.11 6.92
7/8/2021 9:45:00 PM 22.55 72.59 0.365 7.81 29.92 6.9
7/8/2021 10:00:00 PM 22.59 72.662 0.365 7.81 32.71 6.89
7/8/2021 10:15:00 PM 22.64 72.752 0.363 7.81 50.66 6.89
7/8/2021 10:30:00 PM 22.69 72.842 0.359 7.81 49.15 6.89
7/8/2021 10:45:00 PM 22.75 72.95 0.355 7.82 56.43 6.9
7/8/2021 11:00:00 PM 22.78 73.004 0.351 7.82 64.83 6.94
7/8/2021 11:15:00 PM 22.8 73.04 0.35 7.82 80.68 6.97
7/8/2021 11:30:00 PM 22.81 73.058 0.349 7.82 80.54 6.99
7/8/2021 11:45:00 PM 22.8 73.04 0.349 7.82 95.74 7
7/9/2021 12:00:00 AM 22.79 73.022 0.346 7.82 101.27 7.02
7/9/2021 12:15:00 AM 22.77 72.986 0.341 7.81 94.56 7.06
7/9/2021 12:30:00 AM 22.74 72.932 0.337 7.82 86.56 7.1
7/9/2021 12:45:00 AM 22.7 72.86 0.333 7.82 67.85 7.13
7/9/2021 1:00:00 AM 22.66 72.788 0.332 7.82 82.53 7.15
7/9/2021 1:15:00 AM 22.6 72.68 0.331 7.81 64.45 7.15
7/9/2021 1:30:00 AM 22.55 72.59 0.331 7.81 68.7 7.15
7/9/2021 1:45:00 AM 22.51 72.518 0.329 7.81 56.7 7.15
7/9/2021 2:00:00 AM 22.48 72.464 0.326 7.8 53.98 7.14
7/9/2021 2:15:00 AM 22.46 72.42799 0.322 7.79 89.56 7.12
7/9/2021 2:30:00 AM 22.44 72.392 0.317 7.79 82.36 7.1
7/9/2021 2:45:00 AM 22.43 72.374 0.31 7.78 74.03 7.09
7/9/2021 3:00:00 AM 22.41 72.338 0.305 7.77 77.52 7.08
7/9/2021 3:15:00 AM 22.39 72.302 0.302 7.77 82.43 7.08
7/9/2021 3:30:00 AM 22.36 72.248 0.299 7.76 119.59 7.08
7/9/2021 3:45:00 AM 22.33 72.194 0.298 7.76 74.42 7.07
7/9/2021 4:00:00 AM 22.29 72.122 0.298 7.76 142.68 7.07
7/9/2021 4:15:00 AM 22.26 72.068 0.298 7.76 74.17 7.07
7/9/2021 4:30:00 AM 22.22 71.996 0.298 7.76 134.3 7.06
7/9/2021 4:45:00 AM 22.19 71.942 0.299 7.76 81.98 7.07
7/9/2021 5:00:00 AM 22.15 71.87 0.299 7.75 83.77 7.08
7/9/2021 5:15:00 AM 22.11 71.798 0.3 7.75 90.38 7.07
7/9/2021 5:30:00 AM 22.07 71.726 0.3 7.75 77.31 7.06
7/9/2021 5:45:00 AM 22.03 71.654 0.301 7.74 85.21 7.06
7/9/2021 6:00:00 AM 21.99 71.582 0.301 7.74 67.11 7.06
7/9/2021 6:15:00 AM 21.94 71.492 0.301 7.74 81.91 7.05
7/9/2021 6:30:00 AM 21.9 71.42 0.301 7.73 71.9 7.04
7/9/2021 6:45:00 AM 21.85 71.33 0.301 7.73 49.18 7.04
7/9/2021 7:00:00 AM 21.81 71.258 0.301 7.73 49.6 7.04
7/9/2021 7:15:00 AM 21.78 71.204 0.3 7.72 48.12 7.04
7/9/2021 7:30:00 AM 21.75 71.15 0.3 7.72 61.8 7.04
7/9/2021 7:45:00 AM 21.72 71.096 0.299 7.72 76.14 7.05
7/9/2021 8:00:00 AM 21.68 71.024 0.299 7.72 66.39 7.05
7/9/2021 8:15:00 AM 21.66 70.988 0.298 7.71 38.94 7.05
7/9/2021 8:30:00 AM 21.65 70.97 0.298 7.71 43.55 7.06
7/9/2021 8:45:00 AM 21.64 70.952 0.298 7.71 44.95 7.08
7/9/2021 9:00:00 AM 21.64 70.952 0.297 7.71 46.43 7.1
7/9/2021 9:15:00 AM 21.65 70.97 0.298 7.71 44.14 7.13
7/9/2021 9:30:00 AM 21.66 70.988 0.298 7.71 56.58 7.16
7/9/2021 9:45:00 AM 21.69 71.042 0.298 7.71 38.16 7.17
7/9/2021 10:00:00 AM 21.72 71.096 0.299 7.72 40.35 7.22
7/9/2021 10:15:00 AM 21.77 71.186 0.3 7.72 35.97 7.26
7/9/2021 10:30:00 AM 21.82 71.276 0.301 7.72 42.22 7.31
7/9/2021 10:45:00 AM 21.87 71.366 0.301 7.73 40.98 7.36
7/9/2021 11:00:00 AM 21.93 71.474 0.302 7.74 34.84 7.43
7/9/2021 11:15:00 AM 22.01 71.618 0.303 7.75 36.87 7.5
7/9/2021 11:30:00 AM 22.08 71.744 0.305 7.76 37.56 7.56
7/9/2021 11:45:00 AM 22.19 71.942 0.306 7.77 38.28 7.64
7/9/2021 12:00:00 PM 22.27 72.086 0.307 7.78 34.83 7.7
7/9/2021 12:15:00 PM 22.32 72.176 0.308 7.78 29.02 7.75
7/9/2021 12:30:00 PM 22.4 72.32 0.309 7.8 31.23 7.81
7/9/2021 12:45:00 PM 22.48 72.464 0.31 7.8 29.23 7.85
7/9/2021 1:00:00 PM 22.56 72.608 0.333 7.81 33.04 7.9
7/9/2021 1:15:00 PM 22.69 72.842 0.315 7.82 25.84 7.98
7/9/2021 1:30:00 PM 22.79 73.022 0.316 7.83 28.87 8.04
7/9/2021 1:45:00 PM 22.94 73.292 0.317 7.84 24.74 8.11
7/9/2021 2:00:00 PM 23.18 73.724 0.318 7.86 26.35 8.2
7/9/2021 2:15:00 PM 23.3 73.94 0.319 7.87 25.01 8.21
7/9/2021 2:30:00 PM 23.49 74.282 0.32 7.88 28.8 8.28
7/9/2021 2:45:00 PM 23.53 74.354 0.321 7.88 24.9 8.23
7/9/2021 3:00:00 PM 23.57 74.426 0.323 7.88 26.64 8.21
7/9/2021 3:15:00 PM 23.64 74.552 0.324 7.88 24.11 8.23
7/9/2021 3:30:00 PM 23.61 74.498 0.325 7.88 27.59 8.16
7/9/2021 3:45:00 PM 23.55 74.39 0.326 7.87 21.35 8.1
7/9/2021 4:00:00 PM 23.51 74.318 0.327 7.86 18.83 8.05
7/9/2021 4:15:00 PM 23.42 74.156 0.328 7.86 22.7 7.97
7/9/2021 4:30:00 PM 23.41 74.138 0.329 7.85 21.66 7.94
7/9/2021 4:45:00 PM 23.42 74.156 0.33 7.85 21.33 7.92
7/9/2021 5:00:00 PM 23.44 74.192 0.331 7.84 22.26 7.87
7/9/2021 5:15:00 PM 23.43 74.174 0.332 7.84 21.14 7.83
7/9/2021 5:30:00 PM 23.42 74.156 0.333 7.83 21.35 7.75
7/9/2021 5:45:00 PM 23.21 73.778 0.319 7.85 40.72 7.79
7/9/2021 6:00:00 PM 23.1 73.58 0.316 7.85 43.53 7.74
7/9/2021 6:15:00 PM 22.99 73.382 0.33 7.84 38.95 7.69
7/9/2021 6:30:00 PM 22.89 73.202 0.308 7.83 35.55 7.6
7/9/2021 6:45:00 PM 22.84 73.112 0.319 7.81 38.67 7.51
7/9/2021 7:00:00 PM 22.83 73.094 0.315 7.79 38.21 7.39
7/9/2021 7:15:00 PM 22.83 73.094 0.315 7.78 31.37 7.31
7/9/2021 7:30:00 PM 22.82 73.076 0.315 7.76 34.61 7.24
7/9/2021 7:45:00 PM 22.81 73.058 0.315 7.75 30.34 7.19
7/9/2021 8:00:00 PM 22.83 73.094 0.316 7.74 45.25 7.14
7/9/2021 8:15:00 PM 22.84 73.112 0.316 7.73 34.75 7.1
7/9/2021 8:30:00 PM 22.82 73.076 0.314 7.72 60.29 7.09
7/9/2021 8:45:00 PM 22.87 73.166 0.3 7.72 82.21 7.12
7/9/2021 9:00:00 PM 23.05 73.49 0.287 7.74 112.75 7.19
7/9/2021 9:15:00 PM 23.07 73.526 0.279 7.73 176.55 7.19
7/9/2021 9:30:00 PM 22.99 73.382 0.27 7.71 272.53 7.15
7/9/2021 9:45:00 PM 22.86 73.148 0.26 7.68 303.7 7.16
7/9/2021 10:00:00 PM 22.84 73.112 0.258 7.68 317.8 7.14
7/9/2021 10:15:00 PM 22.98 73.364 0.255 7.66 355.91 7.07
7/9/2021 10:30:00 PM 23.09 73.562 0.256 7.69 374.26 7.02
7/9/2021 10:45:00 PM 23.13 73.634 0.261 7.67 822.2 6.9
7/9/2021 11:00:00 PM 23.12 73.616 0.252 7.67 436.35 6.8
7/9/2021 11:15:00 PM 23.06 73.508 0.151 7.65 434.9 6.73
7/9/2021 11:30:00 PM 22.98 73.364 0.226 7.67 439.57 6.72
7/9/2021 11:45:00 PM 22.88 73.184 0.226 7.71 463.22 6.74
7/10/2021 12:00:00 AM 22.79 73.022 0.218 7.73 473.6 6.78
7/10/2021 12:15:00 AM 22.71 72.878 0.196 7.71 436.35 6.82
7/10/2021 12:30:00 AM 22.62 72.716 0.185 7.57 414.31 6.84
7/10/2021 12:45:00 AM 22.51 72.518 0.181 7.66 385.1 6.85
7/10/2021 1:00:00 AM 22.39 72.302 0.17 7.62 374.87 6.87
7/10/2021 1:15:00 AM 22.28 72.104 0.168 7.61 348.66 6.89
7/10/2021 1:30:00 AM 22.18 71.924 0.168 7.58 337.76 6.93
7/10/2021 1:45:00 AM 22.09 71.762 0.166 7.58 331.59 6.99
7/10/2021 2:00:00 AM 22.01 71.618 0.16 7.58 318.74 7.02
7/10/2021 2:15:00 AM 21.94 71.492 0.153 7.57 292.68 7.05
7/10/2021 2:30:00 AM 21.88 71.384 0.149 7.58 275.67 7.09
7/10/2021 2:45:00 AM 21.82 71.276 0.151 7.56 268.71 7.11
7/10/2021 3:00:00 AM 21.78 71.204 0.147 7.57 253.69 7.14
7/10/2021 3:15:00 AM 21.73 71.114 0.143 7.57 239.79 7.16
7/10/2021 3:30:00 AM 21.69 71.042 0.135 7.59 228.7 7.18
7/10/2021 3:45:00 AM 21.65 70.97 0.13 7.58 225.82 7.19
7/10/2021 4:00:00 AM 21.61 70.898 0.123 7.59 214.34 7.21
7/10/2021 4:15:00 AM 21.56 70.808 0.121 7.6 211.44 7.23
7/10/2021 4:30:00 AM 21.51 70.718 0.119 7.59 206.97 7.24
7/10/2021 4:45:00 AM 21.45 70.61 0.111 7.6 220.83 7.25
7/10/2021 5:00:00 AM 21.39 70.502 0.109 7.6 221.98 7.26
7/10/2021 5:15:00 AM 21.32 70.376 0.104 7.6 230.17 7.26
7/10/2021 5:30:00 AM 21.26 70.268 0.105 7.6 217.76 7.27
7/10/2021 5:45:00 AM 21.2 70.16 0.106 7.6 212.41 7.28
7/10/2021 6:00:00 AM 21.14 70.052 0.114 7.6 213.03 7.27
7/10/2021 6:15:00 AM 21.08 69.944 0.15 7.6 206.42 7.28
7/10/2021 6:30:00 AM 21.02 69.836 0.201 7.59 204.3 7.28
7/10/2021 6:45:00 AM 20.97 69.746 0.232 7.6 202.6 7.29
7/10/2021 7:00:00 AM 20.91 69.638 0.244 7.59 196.25 7.29
7/10/2021 7:15:00 AM 20.86 69.548 0.25 7.6 197.3 7.3
7/10/2021 7:30:00 AM 20.82 69.476 0.252 7.59 196.64 7.3
7/10/2021 7:45:00 AM 20.78 69.404 0.254 7.6 191.2 7.31
7/10/2021 8:00:00 AM 20.74 69.332 0.257 7.59 193.08 7.32
7/10/2021 8:15:00 AM 20.71 69.278 0.258 7.61 189.79 7.33
7/10/2021 8:30:00 AM 20.68 69.224 0.261 7.61 183.6 7.35
7/10/2021 8:45:00 AM 20.66 69.188 0.263 7.6 181.84 7.35
7/10/2021 9:00:00 AM 20.66 69.188 0.265 7.61 173.33 7.37
7/10/2021 9:15:00 AM 20.65 69.17 0.267 7.61 176.87 7.39
7/10/2021 9:30:00 AM 20.65 69.17 0.27 7.6 177.06 7.41
7/10/2021 9:45:00 AM 20.65 69.17 0.272 7.61 177.41 7.43
7/10/2021 10:00:00 AM 20.67 69.206 0.274 7.61 175.55 7.46
7/10/2021 10:15:00 AM 20.68 69.224 0.277 7.61 176.29 7.48
7/10/2021 10:30:00 AM 20.7 69.26 0.279 7.62 175.62 7.49
7/10/2021 10:45:00 AM 20.73 69.314 0.281 7.62 177.11 7.52
7/10/2021 11:00:00 AM 20.76 69.368 0.283 7.64 178.62 7.53
7/10/2021 11:15:00 AM 20.78 69.404 0.284 7.65 176.06 7.56
7/10/2021 11:30:00 AM 20.82 69.476 0.286 7.66 181.15 7.61
7/10/2021 11:45:00 AM 20.87 69.566 0.288 7.66 201.91 7.64
7/10/2021 12:00:00 PM 20.9 69.62 0.285 7.59 615.63 7.59
7/10/2021 12:15:00 PM 20.93 69.674 0.288 7.65 470.37 7.58
7/10/2021 12:30:00 PM 20.95 69.71 0.285 7.66 159.57 7.59
7/10/2021 12:45:00 PM 21.04 69.872 0.277 7.67 121.72 7.68
7/10/2021 1:00:00 PM 21.13 70.034 0.269 7.67 117.87 7.69
7/10/2021 1:15:00 PM 21.29 70.32201 0.25 7.68 115.93 7.74
7/10/2021 1:30:00 PM 21.34 70.412 0.236 7.69 114.97 7.75
7/10/2021 1:45:00 PM 21.38 70.484 0.201 7.69 115.45 7.77
7/10/2021 2:00:00 PM 21.49 70.682 0.162 7.69 115.78 7.84
7/10/2021 2:15:00 PM 21.65 70.97 0.297 7.63 512.91 7.85
7/10/2021 2:30:00 PM 21.8 71.24 0.178 7.71 440.31 7.89
7/10/2021 2:45:00 PM 21.96 71.528 0.169 7.72 562.18 7.91
7/10/2021 3:00:00 PM 22.11 71.798 0.171 7.72 629.26 7.92
7/10/2021 3:15:00 PM 22.2 71.96 0.136 7.72 625.56 7.9
7/10/2021 3:30:00 PM 22.26 72.068 0.31 7.72 684.02 7.9
7/10/2021 3:45:00 PM 22.31 72.158 0.311 7.68 573.31 7.79
7/10/2021 4:00:00 PM 22.3 72.14 0.314 7.72 806.85 7.84
7/10/2021 4:15:00 PM 22.27 72.086 0.314 7.73 735.54 7.82
7/10/2021 4:30:00 PM 22.21 71.978 0.316 7.72 787.2 7.77
7/10/2021 4:45:00 PM 22.16 71.888 0.317 7.72 630.17 7.72
7/10/2021 5:00:00 PM 22.12 71.816 0.318 7.72 518.38 7.71
7/10/2021 5:15:00 PM 22.09 71.762 0.179 7.73 218.7 7.66
7/10/2021 5:30:00 PM 22.06 71.708 0.175 7.72 173.76 7.58
7/10/2021 5:45:00 PM 22.05 71.69 0.173 7.73 131.46 7.53
7/10/2021 6:00:00 PM 22.05 71.69 0.165 7.72 122.18 7.57
7/10/2021 6:15:00 PM 22.04 71.672 0.118 7.72 109.15 7.49
7/10/2021 6:30:00 PM 22.03 71.654 0.174 7.72 101.7 7.51
7/10/2021 6:45:00 PM 22.04 71.672 0.119 7.72 98.87 7.53
7/10/2021 7:00:00 PM 22.03 71.654 0.328 7.55 884.73 7.46
7/10/2021 7:15:00 PM 22.03 71.654 0.327 7.66 243.75 7.47
7/10/2021 7:30:00 PM 22.03 71.654 0.328 7.7 154.98 7.46
7/10/2021 7:45:00 PM 22.02 71.636 0.329 7.7 165.71 7.44
7/10/2021 8:00:00 PM 22.01 71.618 0.33 7.7 177.99 7.36
7/10/2021 8:15:00 PM 22 71.6 0.33 7.7 191.8 7.26
7/10/2021 8:30:00 PM 21.97 71.546 0.331 7.69 198.73 7.18
7/10/2021 8:45:00 PM 21.94 71.492 0.332 7.69 214.44 7.16
7/10/2021 9:00:00 PM 21.89 71.402 0.331 7.69 228.03 7.19
7/10/2021 9:15:00 PM 21.84 71.312 0.306 7.69 237.73 7.18
7/10/2021 9:30:00 PM 21.79 71.222 0.326 7.69 239.84 7.2
7/10/2021 9:45:00 PM 21.74 71.132 0.333 7.68 245.86 7.21
7/10/2021 10:00:00 PM 21.69 71.042 0.334 7.68 262.95 7.2
7/10/2021 10:15:00 PM 21.64 70.952 0.202 7.68 240.67 7.24
7/10/2021 10:30:00 PM 21.58 70.844 0.34 7.61 4162.06 7.19
7/10/2021 10:45:00 PM 21.53 70.754 0.338 7.69 2584.5 7.24
7/10/2021 11:00:00 PM 21.49 70.682 0.339 7.67 1632.77 7.22
7/10/2021 11:15:00 PM 21.44 70.592 0.34 7.67 1401.57 7.21
7/10/2021 11:30:00 PM 21.39 70.502 0.341 7.67 1528.99 7.21
7/10/2021 11:45:00 PM 21.35 70.43 0.342 7.67 1660.53 7.22
7/11/2021 12:00:00 AM 21.31 70.358 0.342 7.67 2228.48 7.21
7/11/2021 12:15:00 AM 21.28 70.304 0.343 7.67 2294.03 7.21
7/11/2021 12:30:00 AM 21.24 70.232 0.344 7.67 2337.89 7.21
7/11/2021 12:45:00 AM 21.2 70.16 0.345 7.67 2487.84 7.18
7/11/2021 1:00:00 AM 21.16 70.088 0.346 7.67 2753.42 7.19
7/11/2021 1:15:00 AM 21.12 70.016 0.347 7.67 3098.56 7.18
7/11/2021 1:30:00 AM 21.08 69.944 0.347 7.67 2723.41 7.18
7/11/2021 1:45:00 AM 21.03 69.854 0.323 7.63 1580.78 7.18
7/11/2021 2:00:00 AM 20.98 69.764 0.258 7.67 1372.95 7.2
7/11/2021 2:15:00 AM 20.94 69.692 0.239 7.66 1334.48 7.17
7/11/2021 2:30:00 AM 20.89 69.602 0.207 7.67 1315.17 7.19
7/11/2021 2:45:00 AM 20.84 69.512 0.352 7.61 2357.33 7.19
7/11/2021 3:00:00 AM 20.8 69.44 0.352 7.67 6416.23 7.26
7/11/2021 3:15:00 AM 20.77 69.386 0.354 7.65 1220.65 7.24
7/11/2021 3:30:00 AM 20.73 69.314 0.354 7.66 1013.78 7.24
7/11/2021 3:45:00 AM 20.7 69.26 0.355 7.68 1332.74 7.19
7/11/2021 4:00:00 AM 20.68 69.224 0.356 7.68 742.91 7.25
7/11/2021 4:15:00 AM 20.65 69.17 0.356 7.68 834.96 7.2
7/11/2021 4:30:00 AM 20.63 69.134 0.357 7.68 1040.45 7.19
7/11/2021 4:45:00 AM 20.6 69.08 0.353 7.67 980.32 7.25
7/11/2021 5:00:00 AM 20.58 69.044 0.348 7.7 1166.97 7.29
7/11/2021 5:15:00 AM 20.55 68.99 0.344 7.7 1251.86 7.29
7/11/2021 5:30:00 AM 20.53 68.954 0.345 7.7 1162.16 7.3
7/11/2021 5:45:00 AM 20.5 68.9 0.348 7.7 1241.87 7.31
7/11/2021 6:00:00 AM 20.47 68.846 0.353 7.71 1402.4 7.33
7/11/2021 6:15:00 AM 20.45 68.81 0.355 7.71 1456.94 7.33
7/11/2021 6:30:00 AM 20.43 68.774 0.352 7.71 1421.09 7.34
7/11/2021 6:45:00 AM 20.41 68.738 0.353 7.71 1396.12 7.31
7/11/2021 7:00:00 AM 20.39 68.702 0.354 7.72 1443.79 7.33
7/11/2021 7:15:00 AM 20.38 68.684 0.225 7.68 3043.38 7.33
7/11/2021 7:30:00 AM 20.37 68.666 0.228 7.71 4315.15 4.84
7/11/2021 7:45:00 AM 20.37 68.666 0.276 7.72 4697.96 4.72
7/11/2021 8:00:00 AM 20.38 68.684 0.256 7.73 4644.13 6.12
7/11/2021 8:15:00 AM 20.37 68.666 0.248 7.72 3936.42 6.97
7/11/2021 8:30:00 AM 20.36 68.648 0.241 7.74 2314.29 7.36
7/11/2021 8:45:00 AM 20.36 68.648 0.242 7.74 2448.78 7.49
7/11/2021 9:00:00 AM 20.37 68.666 0.232 7.75 2655.51 7.49
7/11/2021 9:15:00 AM 20.36 68.648 0.232 7.76 2666.43 7.59
7/11/2021 9:30:00 AM 20.36 68.648 0.224 7.76 2663.91 7.55
7/11/2021 9:45:00 AM 20.37 68.666 0.222 7.76 2578.87 7.61
7/11/2021 10:00:00 AM 20.39 68.702 0.218 7.77 2561.57 7.67
7/11/2021 10:15:00 AM 20.39 68.702 0.211 7.77 2698.9 7.54
7/11/2021 10:30:00 AM 20.41 68.738 0.2 7.78 2686.03 7.6
7/11/2021 10:45:00 AM 20.46 68.828 0.19 7.79 2618.95 7.77
7/11/2021 11:00:00 AM 20.48 68.864 0.191 7.79 2483.3 7.77
7/11/2021 11:15:00 AM 20.53 68.954 0.189 7.8 2285.54 7.77
7/11/2021 11:30:00 AM 20.57 69.026 0.195 7.8 2342.98 7.72
7/11/2021 11:45:00 AM 20.6 69.08 0.207 7.81 2465.26 7.77
7/11/2021 12:00:00 PM 20.65 69.17 0.22 7.81 2389.7 7.85
7/11/2021 12:15:00 PM 20.69 69.242 0.237 7.81 2556.88 7.88
7/11/2021 12:30:00 PM 20.79 69.422 0.237 7.83 2477.41 7.96
7/11/2021 12:45:00 PM 20.9 69.62 0.235 7.83 2618.3 8.08
7/11/2021 1:00:00 PM 21.02 69.836 0.23 7.85 2636.12 8.13
7/11/2021 1:15:00 PM 21.11 69.998 0.231 7.86 3154.62 8.24
7/11/2021 1:30:00 PM 21.29 70.32201 0.226 7.87 3252.15 8.33
7/11/2021 1:45:00 PM 21.36 70.448 0.224 7.87 3194.91 8.33
7/11/2021 2:00:00 PM 21.52 70.736 0.203 7.88 3560.19 8.43
7/11/2021 2:15:00 PM 21.66 70.988 0.281 7.84 2795.62 8.38
7/11/2021 2:30:00 PM 21.71 71.078 0.261 7.89 3015.61 8.43
7/11/2021 2:45:00 PM 21.74 71.132 0.246 7.89 2262.46 8.4
7/11/2021 3:00:00 PM 21.77 71.186 0.228 7.9 2098.68 8.31
7/11/2021 3:15:00 PM 21.83 71.294 0.213 7.9 2229.79 8.41
7/11/2021 3:30:00 PM 21.91 71.438 0.17 7.92 2395.81 8.41
7/11/2021 3:45:00 PM 21.97 71.546 0.121 7.92 2345.24 8.38
7/11/2021 4:00:00 PM 22.04 71.672 0.307 7.8 4854.58 8.44
7/11/2021 4:15:00 PM 22.06 71.708 0.308 7.91 674.42 8.39
7/11/2021 4:30:00 PM 22.06 71.708 0.308 7.91 1008.43 8.36
7/11/2021 4:45:00 PM 22.06 71.708 0.309 7.91 1582.47 8.33
7/11/2021 5:00:00 PM 22.05 71.69 0.309 7.91 1362.02 8.32
7/11/2021 5:15:00 PM 22.06 71.708 0.31 7.91 110.67 8.32
7/11/2021 5:30:00 PM 22.04 71.672 0.31 7.91 102.47 8.27
7/11/2021 5:45:00 PM 22.08 71.744 0.31 7.92 95.96 8.25
7/11/2021 6:00:00 PM 22.07 71.726 0.311 7.91 89.85 8.16
7/11/2021 6:15:00 PM 22.07 71.726 0.311 7.91 88.53 8.12
7/11/2021 6:30:00 PM 22.07 71.726 0.31 7.9 87.18 8.07
7/11/2021 6:45:00 PM 22.09 71.762 0.309 7.9 84.3 8.05
7/11/2021 7:00:00 PM 22.11 71.798 0.307 7.9 88.87 8.02
7/11/2021 7:15:00 PM 22.12 71.816 0.29 7.9 85.85 7.97
7/11/2021 7:30:00 PM 22.12 71.816 0.28 7.87 11532.97 7.9
7/11/2021 7:45:00 PM 22.11 71.798 0.262 7.88 3822.3 7.85
7/11/2021 8:00:00 PM 22.1 71.78 0.219 7.88 72.3 7.53
7/11/2021 8:15:00 PM 22.07 71.726 0.194 7.88 58.18 7.56
7/11/2021 8:30:00 PM 22.05 71.69 0.137 7.87 59.12 7.65
7/11/2021 8:45:00 PM 22.02 71.636 0.322 7.69 871.4 7.6
7/11/2021 9:00:00 PM 22 71.6 0.318 7.58 1319.7 7.56
7/11/2021 9:15:00 PM 21.97 71.546 0.122 7.83 45.37 7.59
7/11/2021 9:30:00 PM 21.95 71.51 0.147 7.77 98.64 7.53
7/11/2021 9:45:00 PM 21.92 71.456 0.308 7.77 65.48 7.49
7/11/2021 10:00:00 PM 21.9 71.42 0.294 7.82 45.5 7.47
7/11/2021 10:15:00 PM 21.88 71.384 0.285 7.82 46.31 7.46
7/11/2021 10:30:00 PM 21.86 71.348 0.284 7.82 44.92 7.44
7/11/2021 10:45:00 PM 21.83 71.294 0.281 7.82 45.47 7.43
7/11/2021 11:00:00 PM 21.78 71.204 0.273 7.83 51.54 7.52
7/11/2021 11:15:00 PM 21.74 71.132 0.268 7.83 50.09 7.48
7/11/2021 11:30:00 PM 21.7 71.06 0.259 7.84 50.49 7.5
7/11/2021 11:45:00 PM 21.65 70.97 0.248 7.83 47.26 7.46
7/12/2021 12:00:00 AM 21.61 70.898 0.233 7.83 47 7.42
7/12/2021 12:15:00 AM 21.58 70.844 0.219 7.82 46.99 7.4
7/12/2021 12:30:00 AM 21.54 70.772 0.215 7.82 46.27 7.39
7/12/2021 12:45:00 AM 21.51 70.718 0.21 7.81 47.48 7.37
7/12/2021 1:00:00 AM 21.48 70.664 0.193 7.82 45.57 7.37
7/12/2021 1:15:00 AM 21.44 70.592 0.319 7.73 848.85 7.34
7/12/2021 1:30:00 AM 21.41 70.538 0.322 7.55 512.17 7.33
7/12/2021 1:45:00 AM 21.38 70.484 0.319 7.81 42.47 7.13
7/12/2021 2:00:00 AM 21.34 70.412 0.32 7.81 41.56 7.14
7/12/2021 2:15:00 AM 21.31 70.358 0.32 7.81 43.66 7.11
7/12/2021 2:30:00 AM 21.27 70.286 0.32 7.8 42.31 7.14
7/12/2021 2:45:00 AM 21.24 70.232 0.32 7.8 42.93 7.02
7/12/2021 3:00:00 AM 21.2 70.16 0.32 7.8 42.29 7.04
7/12/2021 3:15:00 AM 21.17 70.106 0.32 7.8 42.17 7
7/12/2021 3:30:00 AM 21.14 70.052 0.32 7.8 42.68 6.91
7/12/2021 3:45:00 AM 21.11 69.998 0.32 7.8 41.97 6.91
7/12/2021 4:00:00 AM 21.08 69.944 0.321 7.8 43.07 7.1
7/12/2021 4:15:00 AM 21.06 69.908 0.321 7.8 42.84 7.24
7/12/2021 4:30:00 AM 21.04 69.872 0.321 7.81 42.3 7.21
7/12/2021 4:45:00 AM 21.02 69.836 0.321 7.81 42.71 7.07
7/12/2021 5:00:00 AM 21 69.8 0.322 7.8 42.78 7.01
7/12/2021 5:15:00 AM 20.97 69.746 0.322 7.8 41.15 7.25
7/12/2021 5:30:00 AM 20.96 69.728 0.322 7.79 40.41 7.33
7/12/2021 5:45:00 AM 20.93 69.674 0.322 7.81 50.45 7.36
7/12/2021 6:00:00 AM 20.91 69.638 0.322 7.8 51.13 7.36
7/12/2021 6:15:00 AM 20.89 69.602 0.322 7.8 49.77 7.35
7/12/2021 6:30:00 AM 20.88 69.584 0.322 7.8 47.87 7.39
7/12/2021 6:45:00 AM 20.86 69.548 0.322 7.8 48.11 7.41
7/12/2021 7:00:00 AM 20.85 69.53 0.322 7.8 48.63 7.41
7/12/2021 7:15:00 AM 20.85 69.53 0.322 7.81 49.04 7.46
7/12/2021 7:30:00 AM 20.85 69.53 0.322 7.81 51.56 7.46
7/12/2021 7:45:00 AM 20.86 69.548 0.322 7.82 53.69 7.5
7/12/2021 8:00:00 AM 20.88 69.584 0.322 7.82 56.16 7.53
7/12/2021 8:15:00 AM 20.9 69.62 0.321 7.82 55.51 7.56
7/12/2021 8:30:00 AM 20.93 69.674 0.321 7.83 55.54 7.54
7/12/2021 8:45:00 AM 20.97 69.746 0.321 7.83 60.54 7.65
7/12/2021 9:00:00 AM 21.01 69.818 0.321 7.84 63.07 7.68
7/12/2021 9:15:00 AM 21.06 69.908 0.321 7.84 63.13 7.73
7/12/2021 9:30:00 AM 21.13 70.034 0.32 7.85 64.65 7.8
7/12/2021 9:45:00 AM 21.2 70.16 0.319 7.86 65.75 7.85
7/12/2021 10:00:00 AM 21.28 70.304 0.318 7.87 70.2 7.91
7/12/2021 10:15:00 AM 21.39 70.502 0.316 7.88 72.47 7.95
7/12/2021 10:30:00 AM 21.51 70.718 0.314 7.89 73.79 8
7/12/2021 10:45:00 AM 21.64 70.952 0.312 7.9 72.51 8.04
7/12/2021 11:00:00 AM 21.78 71.204 0.31 7.91 73.11 8.09
7/12/2021 11:15:00 AM 21.91 71.438 0.309 7.92 77.03 8.13
7/12/2021 11:30:00 AM 22.05 71.69 0.309 7.93 83.41 8.18
7/12/2021 11:45:00 AM 22.22 71.996 0.308 7.94 82.28 8.23
7/12/2021 12:00:00 PM 22.39 72.302 0.308 7.95 86.84 8.3
7/12/2021 12:15:00 PM 22.58 72.644 0.308 7.95 121.48 8.34
7/12/2021 12:30:00 PM 22.77 72.986 0.308 7.96 92.68 8.4
7/12/2021 12:45:00 PM 22.98 73.364 0.308 7.97 131.01 8.47
7/12/2021 1:00:00 PM 23.17 73.706 0.308 7.98 83.45 8.52
7/12/2021 1:15:00 PM 23.37 74.066 0.309 7.99 44.3 8.55
7/12/2021 1:30:00 PM 23.57 74.426 0.309 8 46.91 8.61
7/12/2021 1:45:00 PM 23.76 74.768 0.309 8.01 236.72 8.63
7/12/2021 2:00:00 PM 23.95 75.11 0.309 8.02 361.51 8.69
7/12/2021 2:15:00 PM 24 75.2 0.31 8.02 342.96 8.62
7/12/2021 2:30:00 PM 24.15 75.47 0.31 8.02 338.38 8.67
7/12/2021 2:45:00 PM 24.23 75.614 0.31 8.03 338.6 8.49
7/12/2021 3:00:00 PM 24.3 75.74 0.31 8.02 335.53 8.34
7/12/2021 3:15:00 PM 24.4 75.92 0.31 8.03 117 8.59
7/12/2021 3:30:00 PM 24.33 75.794 0.31 8.02 25.4 8.55
7/12/2021 3:45:00 PM 24.36 75.848 0.31 8.03 26.6 8.54
7/12/2021 4:00:00 PM 24.36 75.848 0.309 8.03 23.51 8.47
7/12/2021 4:15:00 PM 24.23 75.614 0.307 8.01 22.78 8.31
7/12/2021 4:30:00 PM 23.95 75.11 0.286 8.01 58.6 8.05
7/12/2021 4:45:00 PM 23.81 74.858 0.282 8 40.7 8.16
7/12/2021 5:00:00 PM 23.7 74.66 0.283 7.99 39.94 8.05
7/12/2021 5:15:00 PM 23.59 74.462 0.282 7.98 47.05 7.97
7/12/2021 5:30:00 PM 23.57 74.426 0.284 7.96 35.84 7.85
7/12/2021 5:45:00 PM 23.58 74.444 0.284 7.93 36.2 7.72
7/12/2021 6:00:00 PM 23.59 74.462 0.286 7.91 49.17 7.66
7/12/2021 6:15:00 PM 23.62 74.516 0.285 7.89 41.22 7.57
7/12/2021 6:30:00 PM 23.63 74.534 0.281 7.89 43.81 7.49
7/12/2021 6:45:00 PM 23.6 74.48 0.28 7.87 44.28 7.48
7/12/2021 7:00:00 PM 23.55 74.39 0.28 7.86 47.45 7.43
7/12/2021 7:15:00 PM 23.53 74.354 0.278 7.86 49.02 7.42
7/12/2021 7:30:00 PM 23.52 74.336 0.275 7.84 48.4 7.4
7/12/2021 7:45:00 PM 23.5 74.3 0.273 7.83 45.77 7.35
7/12/2021 8:00:00 PM 23.47 74.246 0.273 7.82 42.86 7.33
7/12/2021 8:15:00 PM 23.43 74.174 0.272 7.82 50.12 7.29
7/12/2021 8:30:00 PM 23.37 74.066 0.27 7.81 65.63 7.31
7/12/2021 8:45:00 PM 23.31 73.958 0.268 7.8 50.18 7.28
7/12/2021 9:00:00 PM 23.28 73.904 0.269 7.79 61.99 7.23
7/12/2021 9:15:00 PM 23.27 73.886 0.27 7.79 61.12 7.19
7/12/2021 9:30:00 PM 23.28 73.904 0.271 7.79 68.17 7.16
7/12/2021 9:45:00 PM 23.28 73.904 0.27 7.78 59.87 7.15
7/12/2021 10:00:00 PM 23.26 73.868 0.268 7.78 58.66 7.16
7/12/2021 10:15:00 PM 23.23 73.814 0.267 7.78 76.11 7.15
7/12/2021 10:30:00 PM 23.19 73.742 0.267 7.77 71.15 7.16
7/12/2021 10:45:00 PM 23.15 73.67 0.268 7.77 92.15 7.15
7/12/2021 11:00:00 PM 23.12 73.616 0.269 7.76 90.88 7.13
7/12/2021 11:15:00 PM 23.07 73.526 0.27 7.76 82.15 7.12
7/12/2021 11:30:00 PM 23.02 73.436 0.271 7.76 87.98 7.12
7/12/2021 11:45:00 PM 22.98 73.364 0.271 7.75 88.88 7.12
7/13/2021 12:00:00 AM 22.95 73.31 0.272 7.75 81.18 7.13
7/13/2021 12:15:00 AM 22.91 73.238 0.272 7.75 77.28 7.12
7/13/2021 12:30:00 AM 22.86 73.148 0.269 7.75 87.83 7.18
7/13/2021 12:45:00 AM 22.8 73.04 0.256 7.78 78.39 7.44
7/13/2021 1:00:00 AM 22.76 72.968 0.256 7.78 75.7 7.43
7/13/2021 1:15:00 AM 22.73 72.914 0.257 7.78 82.36 7.41
7/13/2021 1:30:00 AM 22.71 72.878 0.257 7.77 86.87 7.37
7/13/2021 1:45:00 AM 22.7 72.86 0.252 7.75 79.91 7.3
7/13/2021 2:00:00 AM 22.72 72.896 0.251 7.73 89.3 7.28
7/13/2021 2:15:00 AM 22.72 72.896 0.252 7.73 89.81 7.27
7/13/2021 2:30:00 AM 22.7 72.86 0.255 7.74 75.1 7.28
7/13/2021 2:45:00 AM 22.68 72.824 0.253 7.74 101.3 7.32
7/13/2021 3:00:00 AM 22.64 72.752 0.248 7.74 97.5 7.34
7/13/2021 3:15:00 AM 22.59 72.662 0.246 7.73 104.23 7.37
7/13/2021 3:30:00 AM 22.56 72.608 0.244 7.73 110.68 7.36
7/13/2021 3:45:00 AM 22.52 72.536 0.242 7.7 121.26 7.37
7/13/2021 4:00:00 AM 22.47 72.446 0.246 7.71 107.07 7.37
7/13/2021 4:15:00 AM 22.44 72.392 0.252 7.7 166.09 7.37
7/13/2021 4:30:00 AM 22.49 72.482 0.23 7.71 332.64 7.36
7/13/2021 4:45:00 AM 22.68 72.824 0.23 7.7 439.14 7.25
7/13/2021 5:00:00 AM 22.71 72.878 0.228 7.68 527.85 7.15
7/13/2021 5:15:00 AM 22.59 72.662 0.205 7.58 788.12 7.07
7/13/2021 5:30:00 AM 22.5 72.5 0.176 7.54 695.86 6.97
7/13/2021 5:45:00 AM 22.48 72.464 0.152 7.46 801.9 6.87
7/13/2021 6:00:00 AM 22.48 72.464 0.137 7.41 631.26 6.78
7/13/2021 6:15:00 AM 22.48 72.464 0.13 7.4 524.85 6.77
7/13/2021 6:30:00 AM 22.47 72.446 0.129 7.42 450.75 6.8
7/13/2021 6:45:00 AM 22.44 72.392 0.131 7.42 421.55 6.84
7/13/2021 7:00:00 AM 22.41 72.338 0.136 7.42 354.16 6.87
7/13/2021 7:15:00 AM 22.37 72.266 0.141 7.31 307.07 6.89
7/13/2021 7:30:00 AM 22.33 72.194 0.146 7.37 283.08 6.92
7/13/2021 7:45:00 AM 22.28 72.104 0.152 7.43 286.67 6.95
7/13/2021 8:00:00 AM 22.23 72.014 0.157 7.43 245.32 6.98
7/13/2021 8:15:00 AM 22.18 71.924 0.162 7.43 200.84 7.01
7/13/2021 8:30:00 AM 22.14 71.852 0.167 7.44 202.77 7.04
7/13/2021 8:45:00 AM 22.09 71.762 0.171 7.45 186.67 7.06
7/13/2021 9:00:00 AM 22.04 71.672 0.175 7.46 176.42 7.09
7/13/2021 9:15:00 AM 22 71.6 0.178 7.46 178.19 7.13
7/13/2021 9:30:00 AM 21.96 71.528 0.181 7.47 161.9 7.16
7/13/2021 9:45:00 AM 21.94 71.492 0.184 7.48 171.79 7.18
7/13/2021 10:00:00 AM 21.92 71.456 0.186 7.48 150.58 7.21
7/13/2021 10:15:00 AM 21.9 71.42 0.189 7.49 147.73 7.24
7/13/2021 10:30:00 AM 21.88 71.384 0.191 7.49 131.45 7.28
7/13/2021 10:45:00 AM 21.88 71.384 0.193 7.5 133.95 7.31
7/13/2021 11:00:00 AM 21.88 71.384 0.195 7.51 133.11 7.33
7/13/2021 11:15:00 AM 21.88 71.384 0.197 7.52 123.25 7.34
7/13/2021 11:30:00 AM 21.89 71.402 0.199 7.52 120.63 7.37
7/13/2021 11:45:00 AM 21.9 71.42 0.201 7.53 111 7.38
7/13/2021 12:00:00 PM 21.92 71.456 0.203 7.54 107.04 7.41
7/13/2021 12:15:00 PM 21.95 71.51 0.205 7.55 103.15 7.42
7/13/2021 12:30:00 PM 22.01 71.618 0.207 7.56 99.75 7.45
7/13/2021 12:45:00 PM 22.06 71.708 0.209 7.56 85.57 7.46
7/13/2021 1:00:00 PM 22.1 71.78 0.211 7.57 91.82 7.48
7/13/2021 1:15:00 PM 22.15 71.87 0.213 7.58 96.28 7.49
7/13/2021 1:30:00 PM 22.32 72.176 0.215 7.59 93.13 7.51
7/13/2021 1:45:00 PM 22.46 72.42799 0.218 7.59 67.2 7.52
7/13/2021 2:00:00 PM 22.52 72.536 0.22 7.6 67.75 7.52
7/13/2021 2:15:00 PM 22.57 72.626 0.222 7.6 77.5 7.52
7/13/2021 2:30:00 PM 22.62 72.716 0.224 7.61 66.55 7.52
7/13/2021 2:45:00 PM 22.73 72.914 0.226 7.61 70.37 7.53
7/13/2021 3:00:00 PM 22.73 72.914 0.227 7.61 57.47 7.52
7/13/2021 3:15:00 PM 22.74 72.932 0.229 7.62 59.11 7.52
7/13/2021 3:30:00 PM 22.78 73.004 0.23 7.62 59.61 7.53
7/13/2021 3:45:00 PM 22.81 73.058 0.231 7.62 55.02 7.51
7/13/2021 4:00:00 PM 22.92 73.256 0.233 7.63 53.8 7.52
7/13/2021 4:15:00 PM 22.99 73.382 0.234 7.63 52.59 7.5
7/13/2021 4:30:00 PM 23 73.4 0.236 7.64 54.52 7.49
7/13/2021 4:45:00 PM 22.99 73.382 0.231 7.64 53.19 7.47
7/13/2021 5:00:00 PM 22.99 73.382 0.238 7.64 46.19 7.47
7/13/2021 5:15:00 PM 22.97 73.346 0.24 7.64 49.39 7.46
7/13/2021 5:30:00 PM 22.97 73.346 0.241 7.65 57.52 7.44
7/13/2021 5:45:00 PM 22.99 73.382 0.243 7.65 42.85 7.44
7/13/2021 6:00:00 PM 23.02 73.436 0.244 7.65 49.1 7.43
7/13/2021 6:15:00 PM 23.04 73.472 0.246 7.66 43.62 7.42
7/13/2021 6:30:00 PM 23.03 73.454 0.248 7.66 42.31 7.4
7/13/2021 6:45:00 PM 23.03 73.454 0.249 7.66 40.51 7.39
7/13/2021 7:00:00 PM 23.03 73.454 0.251 7.66 39.92 7.38
7/13/2021 7:15:00 PM 23.03 73.454 0.252 7.66 40.27 7.38
7/13/2021 7:30:00 PM 23.02 73.436 0.254 7.67 38.92 7.36
7/13/2021 7:45:00 PM 23.01 73.418 0.255 7.66 37.17 7.36
7/13/2021 8:00:00 PM 23 73.4 0.256 7.66 36.54 7.35
7/13/2021 8:15:00 PM 22.99 73.382 0.258 7.67 35.89 7.33
7/13/2021 8:30:00 PM 22.98 73.364 0.259 7.67 36.92 7.33
7/13/2021 8:45:00 PM 22.96 73.328 0.26 7.67 34.61 7.32
7/13/2021 9:00:00 PM 22.94 73.292 0.262 7.67 34.88 7.31
7/13/2021 9:15:00 PM 22.93 73.274 0.227 7.67 33.45 7.31
7/13/2021 9:30:00 PM 22.91 73.238 0.215 7.67 33.11 7.32
7/13/2021 9:45:00 PM 22.89 73.202 0.199 7.67 34.11 7.31
7/13/2021 10:00:00 PM 22.86 73.148 0.185 7.67 30.69 7.31
7/13/2021 10:15:00 PM 22.84 73.112 0.172 7.67 33.66 7.3
7/13/2021 10:30:00 PM 22.81 73.058 0.166 7.67 32.43 7.3
7/13/2021 10:45:00 PM 22.78 73.004 0.159 7.67 32.74 7.3
7/13/2021 11:00:00 PM 22.76 72.968 0.155 7.68 30.57 7.31
7/13/2021 11:15:00 PM 22.74 72.932 0.152 7.68 30.57 7.31
7/13/2021 11:30:00 PM 22.72 72.896 0.149 7.68 31.3 7.3
7/13/2021 11:45:00 PM 22.69 72.842 0.144 7.68 29.62 7.3
7/14/2021 12:00:00 AM 22.67 72.806 0.144 7.68 29.17 7.3
7/14/2021 12:15:00 AM 22.65 72.77 0.14 7.68 31.61 7.3
7/14/2021 12:30:00 AM 22.63 72.734 0.137 7.68 29.47 7.3
7/14/2021 12:45:00 AM 22.6 72.68 0.133 7.68 28.24 7.3
7/14/2021 1:00:00 AM 22.58 72.644 0.265 7.62 114.67 7.3
7/14/2021 1:15:00 AM 22.55 72.59 0.266 7.67 47.24 7.31
7/14/2021 1:30:00 AM 22.52 72.536 0.167 7.62 38.53 7.31
7/14/2021 1:45:00 AM 22.49 72.482 0.268 7.68 47.63 7.31
7/14/2021 2:00:00 AM 22.45 72.41 0.272 7.68 33.56 7.32
7/14/2021 2:15:00 AM 22.42 72.356 0.274 7.68 39.45 7.33
7/14/2021 2:30:00 AM 22.39 72.302 0.275 7.68 35.8 7.33
7/14/2021 2:45:00 AM 22.35 72.23 0.279 7.68 33.25 7.34
7/14/2021 3:00:00 AM 22.31 72.158 0.145 7.51 29.15 7.35
7/14/2021 3:15:00 AM 22.28 72.104 0.285 7.68 30.6 7.36
7/14/2021 3:30:00 AM 22.24 72.032 0.286 7.69 27.02 7.37
7/14/2021 3:45:00 AM 22.19 71.942 0.292 7.68 29.35 7.38
7/14/2021 4:00:00 AM 22.15 71.87 0.29 7.69 29.11 7.39
7/14/2021 4:15:00 AM 22.11 71.798 0.289 7.69 30.17 7.4
7/14/2021 4:30:00 AM 22.07 71.726 0.29 7.68 32.6 7.4
7/14/2021 4:45:00 AM 22.03 71.654 0.288 7.69 33.47 7.41
7/14/2021 5:00:00 AM 21.98 71.564 0.358 7.69 30.89 7.41
7/14/2021 5:15:00 AM 21.93 71.474 0.359 7.7 33.66 7.42
7/14/2021 5:30:00 AM 21.88 71.384 0.36 7.7 29.03 7.43
7/14/2021 5:45:00 AM 21.84 71.312 0.361 7.7 29.99 7.44
7/14/2021 6:00:00 AM 21.79 71.222 0.361 7.7 28.35 7.46
7/14/2021 6:15:00 AM 21.74 71.132 0.362 7.7 31.16 7.47
7/14/2021 6:30:00 AM 21.7 71.06 0.363 7.7 29.25 7.48
7/14/2021 6:45:00 AM 21.66 70.988 0.364 7.7 27.21 7.49
7/14/2021 7:00:00 AM 21.62 70.916 0.364 7.7 25.66 7.51
7/14/2021 7:15:00 AM 21.59 70.862 0.365 7.7 28.22 7.52
7/14/2021 7:30:00 AM 21.57 70.826 0.366 7.71 24.88 7.53
7/14/2021 7:45:00 AM 21.55 70.79 0.366 7.71 23.19 7.54
7/14/2021 8:00:00 AM 21.54 70.772 0.367 7.71 27 7.56
7/14/2021 8:15:00 AM 21.53 70.754 0.367 7.71 23.63 7.58
7/14/2021 8:30:00 AM 21.52 70.736 0.368 7.72 25.62 7.59
7/14/2021 8:45:00 AM 21.52 70.736 0.37 7.72 23.08 7.61
7/14/2021 9:00:00 AM 21.53 70.754 0.37 7.72 22.63 7.63
7/14/2021 9:15:00 AM 21.54 70.772 0.37 7.73 27.19 7.65
7/14/2021 9:30:00 AM 21.57 70.826 0.371 7.73 21.97 7.68
7/14/2021 9:45:00 AM 21.59 70.862 0.372 7.73 23.04 7.7
7/14/2021 10:00:00 AM 21.62 70.916 0.372 7.74 19.54 7.72
7/14/2021 10:15:00 AM 21.65 70.97 0.373 7.74 21.63 7.74
7/14/2021 10:30:00 AM 21.7 71.06 0.373 7.75 21.43 7.77
7/14/2021 10:45:00 AM 21.77 71.186 0.374 7.76 19.56 7.78
7/14/2021 11:00:00 AM 21.84 71.312 0.375 7.76 19.94 7.81
7/14/2021 11:15:00 AM 21.93 71.474 0.376 7.77 18.88 7.83
7/14/2021 11:30:00 AM 22.01 71.618 0.376 7.77 19.72 7.85
7/14/2021 11:45:00 AM 22.07 71.726 0.377 7.77 23.32 7.86
7/14/2021 12:00:00 PM 22.2 71.96 0.377 7.78 21.24 7.91
7/14/2021 12:15:00 PM 22.3 72.14 0.378 7.78 17.86 7.92
7/14/2021 12:30:00 PM 22.46 72.42799 0.379 7.79 19.71 7.95
7/14/2021 12:45:00 PM 22.56 72.608 0.379 7.8 17.25 7.96
7/14/2021 1:00:00 PM 22.73 72.914 0.38 7.8 15.81 8.01
7/14/2021 1:15:00 PM 22.84 73.112 0.38 7.81 14.21 8.01
7/14/2021 1:30:00 PM 22.88 73.184 0.381 7.81 14.93 7.99
7/14/2021 1:45:00 PM 22.86 73.148 0.381 7.81 17.53 7.97
7/14/2021 2:00:00 PM 22.85 73.13 0.382 7.81 16.08 8
7/14/2021 2:15:00 PM 22.92 73.256 0.382 7.82 15.98 8.03
7/14/2021 2:30:00 PM 23.05 73.49 0.383 7.82 14.99 8.04
7/14/2021 2:45:00 PM 23.13 73.634 0.383 7.82 17.32 8.02
7/14/2021 3:00:00 PM 23.27 73.886 0.384 7.82 13.91 8.02
7/14/2021 3:15:00 PM 23.34 74.012 0.384 7.83 13.05 8.03
7/14/2021 3:30:00 PM 23.4 74.12 0.385 7.83 13 8.03
7/14/2021 3:45:00 PM 23.44 74.192 0.385 7.83 12.5 8.03
7/14/2021 4:00:00 PM 23.43 74.174 0.386 7.83 12.33 8.01
7/14/2021 4:15:00 PM 23.39 74.102 0.386 7.83 13.5 7.99
7/14/2021 4:30:00 PM 23.32 73.976 0.386 7.83 14.85 7.96
7/14/2021 4:45:00 PM 23.28 73.904 0.387 7.83 13.01 7.94
7/14/2021 5:00:00 PM 23.23 73.814 0.387 7.83 13.13 7.91
7/14/2021 5:15:00 PM 23.19 73.742 0.387 7.83 11.94 7.89
7/14/2021 5:30:00 PM 23.17 73.706 0.388 7.83 12.56 7.87
7/14/2021 5:45:00 PM 23.15 73.67 0.388 7.83 11.88 7.85
7/14/2021 6:00:00 PM 23.13 73.634 0.388 7.83 12.35 7.85
7/14/2021 6:15:00 PM 23.13 73.634 0.389 7.83 12.93 7.83
7/14/2021 6:30:00 PM 23.14 73.652 0.389 7.82 12.28 7.82
7/14/2021 6:45:00 PM 23.14 73.652 0.389 7.82 12 7.79
7/14/2021 7:00:00 PM 23.13 73.634 0.39 7.82 15.44 7.77
7/14/2021 7:15:00 PM 23.13 73.634 0.39 7.82 12.35 7.75
7/14/2021 7:30:00 PM 23.11 73.598 0.391 7.81 13.38 7.72
7/14/2021 7:45:00 PM 23.08 73.544 0.391 7.81 15.97 7.7
7/14/2021 8:00:00 PM 23.06 73.508 0.391 7.81 14.14 7.68
7/14/2021 8:15:00 PM 23.03 73.454 0.392 7.8 16.03 7.65
7/14/2021 8:30:00 PM 22.99 73.382 0.392 7.8 12.94 7.64
7/14/2021 8:45:00 PM 22.94 73.292 0.393 7.8 12.37 7.62
7/14/2021 9:00:00 PM 22.9 73.22 0.393 7.8 13.16 7.6
7/14/2021 9:15:00 PM 22.85 73.13 0.393 7.8 12.95 7.59
7/14/2021 9:30:00 PM 22.81 73.058 0.393 7.79 20.21 7.57
7/14/2021 9:45:00 PM 22.77 72.986 0.394 7.79 13.18 7.56
7/14/2021 10:00:00 PM 22.74 72.932 0.394 7.79 15.39 7.54
7/14/2021 10:15:00 PM 22.71 72.878 0.395 7.78 17.17 7.53
7/14/2021 10:30:00 PM 22.67 72.806 0.396 7.78 19.75 7.52
7/14/2021 10:45:00 PM 22.64 72.752 0.396 7.78 14.4 7.51
7/14/2021 11:00:00 PM 22.6 72.68 0.396 7.78 14.23 7.5
7/14/2021 11:15:00 PM 22.57 72.626 0.396 7.78 15.26 7.5
7/14/2021 11:30:00 PM 22.54 72.57201 0.397 7.78 14.86 7.49
7/14/2021 11:45:00 PM 22.5 72.5 0.397 7.78 19.22 7.49
7/15/2021 12:00:00 AM 22.46 72.42799 0.397 7.78 19.67 7.49
7/15/2021 12:15:00 AM 22.41 72.338 0.398 7.78 16.07 7.49
7/15/2021 12:30:00 AM 22.36 72.248 0.398 7.78 15.08 7.49
7/15/2021 12:45:00 AM 22.31 72.158 0.398 7.78 18.51 7.5
7/15/2021 1:00:00 AM 22.26 72.068 0.399 7.78 15.64 7.5
7/15/2021 1:15:00 AM 22.2 71.96 0.398 7.77 19.92 7.5
7/15/2021 1:30:00 AM 22.15 71.87 0.399 7.77 15.07 7.51
7/15/2021 1:45:00 AM 22.1 71.78 0.399 7.77 15.07 7.5
7/15/2021 2:00:00 AM 22.06 71.708 0.399 7.77 14.94 7.51
7/15/2021 2:15:00 AM 22.01 71.618 0.4 7.77 13.67 7.51
7/15/2021 2:30:00 AM 21.96 71.528 0.4 7.77 19.59 7.52
7/15/2021 2:45:00 AM 21.92 71.456 0.4 7.77 17.88 7.52
7/15/2021 3:00:00 AM 21.87 71.366 0.401 7.77 15.86 7.53
7/15/2021 3:15:00 AM 21.83 71.294 0.4 7.77 15.95 7.53
7/15/2021 3:30:00 AM 21.79 71.222 0.401 7.77 16.51 7.54
7/15/2021 3:45:00 AM 21.75 71.15 0.401 7.77 14.66 7.55
7/15/2021 4:00:00 AM 21.7 71.06 0.402 7.77 20.6 7.56
7/15/2021 4:15:00 AM 21.66 70.988 0.401 7.77 14.55 7.57
7/15/2021 4:30:00 AM 21.62 70.916 0.401 7.77 14.5 7.58
7/15/2021 4:45:00 AM 21.58 70.844 0.402 7.77 15.45 7.58
7/15/2021 5:00:00 AM 21.53 70.754 0.402 7.77 16.16 7.59
7/15/2021 5:15:00 AM 21.49 70.682 0.402 7.77 17.22 7.59
7/15/2021 5:30:00 AM 21.44 70.592 0.403 7.77 18.49 7.61
7/15/2021 5:45:00 AM 21.4 70.52 0.402 7.77 16.31 7.61
7/15/2021 6:00:00 AM 21.36 70.448 0.403 7.77 17.22 7.62
7/15/2021 6:15:00 AM 21.32 70.376 0.403 7.77 16.11 7.63
7/15/2021 6:30:00 AM 21.28 70.304 0.403 7.77 16.66 7.64
7/15/2021 6:45:00 AM 21.24 70.232 0.404 7.77 14.43 7.66
7/15/2021 7:00:00 AM 21.21 70.17799 0.404 7.77 16.11 7.67
7/15/2021 7:15:00 AM 21.19 70.142 0.404 7.77 14.03 7.68
7/15/2021 7:30:00 AM 21.17 70.106 0.404 7.77 12.58 7.71
7/15/2021 7:45:00 AM 21.16 70.088 0.404 7.77 12.19 7.72
7/15/2021 8:00:00 AM 21.15 70.07 0.404 7.78 12.89 7.74
7/15/2021 8:15:00 AM 21.15 70.07 0.404 7.78 12.51 7.77
7/15/2021 8:30:00 AM 21.15 70.07 0.405 7.78 11.88 7.79
7/15/2021 8:45:00 AM 21.16 70.088 0.405 7.79 12.84 7.82
7/15/2021 9:00:00 AM 21.18 70.124 0.405 7.79 11.36 7.85
7/15/2021 9:15:00 AM 21.2 70.16 0.405 7.8 11.44 7.87
7/15/2021 9:30:00 AM 21.23 70.214 0.405 7.8 11.19 7.9
7/15/2021 9:45:00 AM 21.26 70.268 0.405 7.81 11.21 7.94
7/15/2021 10:00:00 AM 21.3 70.34 0.405 7.81 11.1 7.98
7/15/2021 10:15:00 AM 21.36 70.448 0.406 7.82 11.84 8.01
7/15/2021 10:30:00 AM 21.43 70.574 0.407 7.82 11.66 8.05
7/15/2021 10:45:00 AM 21.49 70.682 0.406 7.82 10.78 8.08
7/15/2021 11:00:00 AM 21.57 70.826 0.407 7.83 10.05 8.13
7/15/2021 11:15:00 AM 21.67 71.006 0.407 7.84 10 8.16
7/15/2021 11:30:00 AM 21.78 71.204 0.407 7.84 9.37 8.2
7/15/2021 11:45:00 AM 21.9 71.42 0.407 7.85 9.45 8.24
7/15/2021 12:00:00 PM 22.03 71.654 0.407 7.86 9.92 8.28
7/15/2021 12:15:00 PM 22.17 71.906 0.407 7.86 9.2 8.32
7/15/2021 12:30:00 PM 22.33 72.194 0.407 7.87 9.33 8.36
7/15/2021 12:45:00 PM 22.48 72.464 0.407 7.88 9.12 8.38
7/15/2021 1:00:00 PM 22.64 72.752 0.407 7.88 8.9 8.42
7/15/2021 1:15:00 PM 22.74 72.932 0.408 7.89 8.96 8.41
7/15/2021 1:30:00 PM 22.83 73.094 0.408 7.89 8.76 8.42
7/15/2021 1:45:00 PM 22.87 73.166 0.408 7.89 9.6 8.42
7/15/2021 2:00:00 PM 22.88 73.184 0.408 7.89 9.97 8.39
7/15/2021 2:15:00 PM 22.99 73.382 0.408 7.9 8.84 8.43
7/15/2021 2:30:00 PM 23.05 73.49 0.408 7.9 9.25 8.43
7/15/2021 2:45:00 PM 23.17 73.706 0.408 7.9 9.97 8.44
7/15/2021 3:00:00 PM 23.3 73.94 0.408 7.91 10.21 8.43
7/15/2021 3:15:00 PM 23.42 74.156 0.409 7.91 9.94 8.42
7/15/2021 3:30:00 PM 23.52 74.336 0.409 7.91 9.15 8.4
7/15/2021 3:45:00 PM 23.59 74.462 0.409 7.91 8.18 8.39
7/15/2021 4:00:00 PM 23.61 74.498 0.409 7.91 7.89 8.35
7/15/2021 4:15:00 PM 23.57 74.426 0.409 7.91 8.42 8.31
7/15/2021 4:30:00 PM 23.52 74.336 0.409 7.91 7.99 8.26
7/15/2021 4:45:00 PM 23.47 74.246 0.41 7.91 7.84 8.23
7/15/2021 5:00:00 PM 23.4 74.12 0.41 7.9 8.28 8.18
7/15/2021 5:15:00 PM 23.35 74.03 0.41 7.9 8.07 8.15
7/15/2021 5:30:00 PM 23.32 73.976 0.411 7.89 8.11 8.11
7/15/2021 5:45:00 PM 23.31 73.958 0.411 7.89 8.51 8.08
7/15/2021 6:00:00 PM 23.31 73.958 0.411 7.89 8.31 8.05
7/15/2021 6:15:00 PM 23.31 73.958 0.411 7.88 8.42 8.02
7/15/2021 6:30:00 PM 23.32 73.976 0.411 7.88 8.27 7.99
7/15/2021 6:45:00 PM 23.31 73.958 0.41 7.88 7.95 7.97
7/15/2021 7:00:00 PM 23.29 73.922 0.41 7.88 7.89 7.94
7/15/2021 7:15:00 PM 23.25 73.85 0.41 7.87 8.11 7.91
7/15/2021 7:30:00 PM 23.22 73.796 0.41 7.86 8.61 7.87
7/15/2021 7:45:00 PM 23.18 73.724 0.411 7.86 9.6 7.83
7/15/2021 8:00:00 PM 23.13 73.634 0.411 7.85 8.7 7.8
7/15/2021 8:15:00 PM 23.08 73.544 0.411 7.84 8.39 7.77
7/15/2021 8:30:00 PM 23.02 73.436 0.411 7.84 9.33 7.74
7/15/2021 8:45:00 PM 22.96 73.328 0.411 7.84 10.87 7.71
7/15/2021 9:00:00 PM 22.9 73.22 0.411 7.83 11.57 7.68
7/15/2021 9:15:00 PM 22.84 73.112 0.412 7.83 10.14 7.66
7/15/2021 9:30:00 PM 22.79 73.022 0.412 7.83 10.87 7.64
7/15/2021 9:45:00 PM 22.74 72.932 0.412 7.82 12.14 7.63
7/15/2021 10:00:00 PM 22.7 72.86 0.413 7.82 11.56 7.61
7/15/2021 10:15:00 PM 22.66 72.788 0.412 7.82 12.72 7.59
7/15/2021 10:30:00 PM 22.62 72.716 0.413 7.81 12.56 7.58
7/15/2021 10:45:00 PM 22.59 72.662 0.413 7.81 12.14 7.56
7/15/2021 11:00:00 PM 22.56 72.608 0.413 7.81 12.49 7.55
7/15/2021 11:15:00 PM 22.53 72.554 0.413 7.8 15.81 7.54
7/15/2021 11:30:00 PM 22.5 72.5 0.413 7.8 13.03 7.53
7/15/2021 11:45:00 PM 22.47 72.446 0.413 7.8 19.36 7.52
7/16/2021 12:00:00 AM 22.44 72.392 0.414 7.8 12.12 7.52
7/16/2021 12:15:00 AM 22.41 72.338 0.414 7.8 13.4 7.51
7/16/2021 12:30:00 AM 22.37 72.266 0.414 7.79 12.85 7.51
7/16/2021 12:45:00 AM 22.34 72.212 0.414 7.79 13.25 7.5
7/16/2021 1:00:00 AM 22.3 72.14 0.414 7.79 11.45 7.5
7/16/2021 1:15:00 AM 22.26 72.068 0.414 7.79 12.8 7.51
7/16/2021 1:30:00 AM 22.22 71.996 0.414 7.79 14.77 7.51
7/16/2021 1:45:00 AM 22.18 71.924 0.415 7.79 13.06 7.5
7/16/2021 2:00:00 AM 22.13 71.834 0.415 7.79 13.41 7.51
7/16/2021 2:15:00 AM 22.09 71.762 0.415 7.79 13.24 7.51
7/16/2021 2:30:00 AM 22.05 71.69 0.415 7.79 13.1 7.51
7/16/2021 2:45:00 AM 22 71.6 0.415 7.79 12.83 7.51
7/16/2021 3:00:00 AM 21.96 71.528 0.415 7.78 13 7.51
7/16/2021 3:15:00 AM 21.91 71.438 0.415 7.78 12.36 7.51
7/16/2021 3:30:00 AM 21.86 71.348 0.415 7.78 12.59 7.52
7/16/2021 3:45:00 AM 21.82 71.276 0.415 7.78 13.26 7.53
7/16/2021 4:00:00 AM 21.77 71.186 0.415 7.78 11.92 7.54
7/16/2021 4:15:00 AM 21.73 71.114 0.415 7.78 12.32 7.54
7/16/2021 4:30:00 AM 21.69 71.042 0.415 7.78 12.16 7.55
7/16/2021 4:45:00 AM 21.64 70.952 0.415 7.78 12.7 7.56
7/16/2021 5:00:00 AM 21.59 70.862 0.415 7.78 13.21 7.56
7/16/2021 5:15:00 AM 21.54 70.772 0.415 7.77 13.34 7.57
7/16/2021 5:30:00 AM 21.5 70.7 0.415 7.77 13.13 7.58
7/16/2021 5:45:00 AM 21.45 70.61 0.415 7.77 12.05 7.59
7/16/2021 6:00:00 AM 21.4 70.52 0.415 7.77 12.01 7.59
7/16/2021 6:15:00 AM 21.35 70.43 0.415 7.77 12.82 7.61
7/16/2021 6:30:00 AM 21.31 70.358 0.415 7.77 11.88 7.62
7/16/2021 6:45:00 AM 21.27 70.286 0.415 7.77 11.85 7.63
7/16/2021 7:00:00 AM 21.24 70.232 0.414 7.77 10.86 7.65
7/16/2021 7:15:00 AM 21.21 70.17799 0.415 7.77 10.48 7.66
7/16/2021 7:30:00 AM 21.2 70.16 0.415 7.78 10.32 7.68
7/16/2021 7:45:00 AM 21.19 70.142 0.415 7.78 10.68 7.7
7/16/2021 8:00:00 AM 21.19 70.142 0.415 7.78 9.49 7.73
7/16/2021 8:15:00 AM 21.19 70.142 0.415 7.78 9.39 7.75
7/16/2021 8:30:00 AM 21.21 70.17799 0.415 7.79 9.2 7.78
7/16/2021 8:45:00 AM 21.22 70.196 0.415 7.79 8.79 7.81
7/16/2021 9:00:00 AM 21.25 70.25 0.415 7.8 8.22 7.85
7/16/2021 9:15:00 AM 21.28 70.304 0.415 7.81 7.81 7.89
7/16/2021 9:30:00 AM 21.33 70.394 0.415 7.81 7.56 7.93
7/16/2021 9:45:00 AM 21.37 70.466 0.415 7.82 8.37 7.98
7/16/2021 10:00:00 AM 21.42 70.556 0.415 7.83 7.23 8.02
7/16/2021 10:15:00 AM 21.48 70.664 0.414 7.83 7.67 8.06
7/16/2021 10:30:00 AM 21.55 70.79 0.415 7.84 12.45 8.11
7/16/2021 10:45:00 AM 21.63 70.934 0.415 7.85 7.72 8.15
7/16/2021 11:00:00 AM 21.72 71.096 0.415 7.85 8.2 8.2
7/16/2021 11:15:00 AM 21.83 71.294 0.415 7.86 8.25 8.24
7/16/2021 11:30:00 AM 21.96 71.528 0.415 7.87 6.98 8.29
7/16/2021 11:45:00 AM 22.1 71.78 0.415 7.88 6.85 8.35
7/16/2021 12:00:00 PM 22.25 72.05 0.415 7.88 9.2 8.4
7/16/2021 12:15:00 PM 22.41 72.338 0.415 7.89 9.8 8.45
7/16/2021 12:30:00 PM 22.59 72.662 0.415 7.9 7.88 8.49
7/16/2021 12:45:00 PM 22.77 72.986 0.415 7.91 6.74 8.55
7/16/2021 1:00:00 PM 22.96 73.328 0.415 7.92 11.63 8.59
7/16/2021 1:15:00 PM 23.17 73.706 0.415 7.93 7.31 8.63
7/16/2021 1:30:00 PM 23.37 74.066 0.415 7.93 9.23 8.66
7/16/2021 1:45:00 PM 23.56 74.408 0.416 7.94 7.12 8.69
7/16/2021 2:00:00 PM 23.73 74.714 0.416 7.95 7.66 8.71
7/16/2021 2:15:00 PM 23.89 75.002 0.416 7.95 7.15 8.71
7/16/2021 2:30:00 PM 24.03 75.254 0.416 7.96 8.44 8.71
7/16/2021 2:45:00 PM 24.09 75.362 0.416 7.96 7.33 8.68
7/16/2021 3:00:00 PM 24.2 75.56 0.416 7.96 6.26 8.67
7/16/2021 3:15:00 PM 24.24 75.632 0.416 7.96 6.32 8.65
7/16/2021 3:30:00 PM 24.27 75.686 0.416 7.96 6.25 8.61
7/16/2021 3:45:00 PM 24.25 75.65 0.416 7.96 6.34 8.54
7/16/2021 4:00:00 PM 24.22 75.596 0.416 7.96 6.35 8.5
7/16/2021 4:15:00 PM 24.23 75.614 0.416 7.96 8.28 8.47
7/16/2021 4:30:00 PM 24.25 75.65 0.416 7.96 6.79 8.45
7/16/2021 4:45:00 PM 24.23 75.614 0.416 7.95 5.68 8.41
7/16/2021 5:00:00 PM 24.19 75.542 0.417 7.95 6.03 8.35
7/16/2021 5:15:00 PM 24.18 75.524 0.417 7.95 5.95 8.3
7/16/2021 5:30:00 PM 24.15 75.47 0.417 7.94 6.17 8.24
7/16/2021 5:45:00 PM 24.12 75.416 0.417 7.93 14.36 8.18
7/16/2021 6:00:00 PM 24.09 75.362 0.417 7.93 7.24 8.13
7/16/2021 6:15:00 PM 24.06 75.308 0.417 7.93 8.25 8.07
7/16/2021 6:30:00 PM 24.03 75.254 0.417 7.92 6.88 8.02
7/16/2021 6:45:00 PM 23.99 75.182 0.417 7.92 6.2 7.97
7/16/2021 7:00:00 PM 23.94 75.092 0.418 7.91 6.12 7.91
7/16/2021 7:15:00 PM 23.89 75.002 0.418 7.9 6.25 7.86
7/16/2021 7:30:00 PM 23.86 74.948 0.418 7.9 6.07 7.82
7/16/2021 7:45:00 PM 23.82 74.876 0.418 7.89 6.16 7.78
7/16/2021 8:00:00 PM 23.78 74.804 0.418 7.88 6.24 7.74
7/16/2021 8:15:00 PM 23.73 74.714 0.418 7.88 5.96 7.69
7/16/2021 8:30:00 PM 23.67 74.606 0.419 7.87 6.12 7.66
7/16/2021 8:45:00 PM 23.61 74.498 0.419 7.87 6.31 7.63
7/16/2021 9:00:00 PM 23.56 74.408 0.419 7.86 6.67 7.59
7/16/2021 9:15:00 PM 23.5 74.3 0.419 7.85 7.88 7.57
7/16/2021 9:30:00 PM 23.44 74.192 0.419 7.85 10.29 7.55
7/16/2021 9:45:00 PM 23.38 74.084 0.419 7.85 8.65 7.53
7/16/2021 10:00:00 PM 23.32 73.976 0.419 7.84 9.08 7.51
7/16/2021 10:15:00 PM 23.27 73.886 0.419 7.84 8.52 7.5
7/16/2021 10:30:00 PM 23.21 73.778 0.419 7.84 10.3 7.48
7/16/2021 10:45:00 PM 23.15 73.67 0.42 7.83 9.68 7.47
7/16/2021 11:00:00 PM 23.09 73.562 0.42 7.83 8.93 7.46
7/16/2021 11:15:00 PM 23.04 73.472 0.42 7.83 9.33 7.45
7/16/2021 11:30:00 PM 22.99 73.382 0.42 7.83 8.91 7.45
7/16/2021 11:45:00 PM 22.94 73.292 0.42 7.83 9.41 7.44
7/17/2021 12:00:00 AM 22.89 73.202 0.42 7.83 10.18 7.44
7/17/2021 12:15:00 AM 22.83 73.094 0.42 7.82 10.4 7.44
7/17/2021 12:30:00 AM 22.78 73.004 0.421 7.82 10.88 7.43
7/17/2021 12:45:00 AM 22.73 72.914 0.421 7.82 11.13 7.42
7/17/2021 1:00:00 AM 22.68 72.824 0.421 7.82 10.16 7.42
7/17/2021 1:15:00 AM 22.63 72.734 0.421 7.82 10.26 7.42
7/17/2021 1:30:00 AM 22.58 72.644 0.421 7.82 10.08 7.42
7/17/2021 1:45:00 AM 22.53 72.554 0.421 7.82 10.67 7.42
7/17/2021 2:00:00 AM 22.47 72.446 0.421 7.82 11.1 7.42
7/17/2021 2:15:00 AM 22.42 72.356 0.421 7.82 10.48 7.43
7/17/2021 2:30:00 AM 22.37 72.266 0.421 7.82 11.13 7.43
7/17/2021 2:45:00 AM 22.32 72.176 0.421 7.82 10.9 7.43
7/17/2021 3:00:00 AM 22.27 72.086 0.421 7.82 10.62 7.44
7/17/2021 3:15:00 AM 22.22 71.996 0.421 7.82 10.83 7.44
7/17/2021 3:30:00 AM 22.17 71.906 0.421 7.81 10.65 7.45
7/17/2021 3:45:00 AM 22.12 71.816 0.421 7.81 11.07 7.46
7/17/2021 4:00:00 AM 22.08 71.744 0.421 7.81 10.56 7.46
7/17/2021 4:15:00 AM 22.02 71.636 0.421 7.81 9.55 7.47
7/17/2021 4:30:00 AM 21.98 71.564 0.422 7.81 12.03 7.47
7/17/2021 4:45:00 AM 21.93 71.474 0.422 7.81 11.42 7.48
7/17/2021 5:00:00 AM 21.88 71.384 0.421 7.81 11.89 7.49
7/17/2021 5:15:00 AM 21.83 71.294 0.421 7.81 11.3 7.49
7/17/2021 5:30:00 AM 21.78 71.204 0.421 7.81 11.07 7.51
7/17/2021 5:45:00 AM 21.73 71.114 0.421 7.81 11.25 7.52
7/17/2021 6:00:00 AM 21.68 71.024 0.421 7.81 10.84 7.53
7/17/2021 6:15:00 AM 21.63 70.934 0.421 7.81 10.63 7.53
7/17/2021 6:30:00 AM 21.58 70.844 0.421 7.81 9.6 7.56
7/17/2021 6:45:00 AM 21.54 70.772 0.421 7.81 10.14 7.57
7/17/2021 7:00:00 AM 21.5 70.7 0.421 7.81 11.02 7.59
7/17/2021 7:15:00 AM 21.47 70.646 0.421 7.81 8.86 7.61
7/17/2021 7:30:00 AM 21.45 70.61 0.421 7.81 8.69 7.63
7/17/2021 7:45:00 AM 21.43 70.574 0.421 7.81 8.25 7.66
7/17/2021 8:00:00 AM 21.42 70.556 0.421 7.81 7.91 7.68
7/17/2021 8:15:00 AM 21.42 70.556 0.421 7.82 7.81 7.71
7/17/2021 8:30:00 AM 21.42 70.556 0.421 7.82 6.76 7.75
7/17/2021 8:45:00 AM 21.43 70.574 0.421 7.82 6.81 7.79
7/17/2021 9:00:00 AM 21.45 70.61 0.422 7.83 6.87 7.82
7/17/2021 9:15:00 AM 21.48 70.664 0.421 7.83 8.61 7.87
7/17/2021 9:30:00 AM 21.51 70.718 0.421 7.83 12.75 7.93
7/17/2021 9:45:00 AM 21.55 70.79 0.421 7.84 6.89 7.98
7/17/2021 10:00:00 AM 21.59 70.862 0.421 7.85 6.93 8.04
7/17/2021 10:15:00 AM 21.64 70.952 0.421 7.85 9.25 8.09
7/17/2021 10:30:00 AM 21.7 71.06 0.421 7.86 8.98 8.14
7/17/2021 10:45:00 AM 21.79 71.222 0.421 7.86 12.09 8.2
7/17/2021 11:00:00 AM 21.89 71.402 0.421 7.87 9.04 8.26
7/17/2021 11:15:00 AM 22 71.6 0.421 7.88 7.44 8.33
7/17/2021 11:30:00 AM 22.13 71.834 0.421 7.89 5.85 8.4
7/17/2021 11:45:00 AM 22.27 72.086 0.421 7.9 6.66 8.47
7/17/2021 12:00:00 PM 22.43 72.374 0.421 7.91 6.56 8.55
7/17/2021 12:15:00 PM 22.61 72.698 0.421 7.92 6.07 8.61
7/17/2021 12:30:00 PM 22.8 73.04 0.421 7.93 6.11 8.69
7/17/2021 12:45:00 PM 23.01 73.418 0.421 7.94 8.98 8.76
7/17/2021 1:00:00 PM 23.19 73.742 0.421 7.95 6.1 8.81
7/17/2021 1:15:00 PM 23.42 74.156 0.421 7.96 5.68 8.89
7/17/2021 1:30:00 PM 23.56 74.408 0.421 7.97 5.27 8.91
7/17/2021 1:45:00 PM 23.55 74.39 0.42 7.97 5.01 8.81
7/17/2021 2:00:00 PM 23.47 74.246 0.41 7.98 20 8.69
7/17/2021 2:15:00 PM 23.4 74.12 0.411 7.97 9.71 8.62
7/17/2021 2:30:00 PM 23.29 73.922 0.408 7.96 10.63 8.51
7/17/2021 2:45:00 PM 23.21 73.778 0.406 7.95 11.41 8.43
7/17/2021 3:00:00 PM 23.16 73.688 0.407 7.95 11 8.4
7/17/2021 3:15:00 PM 23.13 73.634 0.408 7.94 10.09 8.35
7/17/2021 3:30:00 PM 23.12 73.616 0.409 7.93 9.04 8.33
7/17/2021 3:45:00 PM 23.13 73.634 0.41 7.93 8.23 8.32
7/17/2021 4:00:00 PM 23.12 73.616 0.412 7.92 8.32 8.28
7/17/2021 4:15:00 PM 23.12 73.616 0.412 7.92 8.35 8.23
7/17/2021 4:30:00 PM 23.12 73.616 0.412 7.91 7.92 8.19
7/17/2021 4:45:00 PM 23.1 73.58 0.412 7.9 8.57 8.09
7/17/2021 5:00:00 PM 23.12 73.616 0.411 7.9 8.78 8.05
7/17/2021 5:15:00 PM 23.13 73.634 0.411 7.9 7.85 8.04
7/17/2021 5:30:00 PM 23.14 73.652 0.411 7.9 7.95 8.03
7/17/2021 5:45:00 PM 23.15 73.67 0.411 7.9 7.08 8.02
7/17/2021 6:00:00 PM 23.17 73.706 0.411 7.91 7.59 8.03
7/17/2021 6:15:00 PM 23.15 73.67 0.411 7.9 7.3 8.01
7/17/2021 6:30:00 PM 23.12 73.616 0.411 7.9 6.7 7.97
7/17/2021 6:45:00 PM 23.08 73.544 0.411 7.89 7.17 7.92
7/17/2021 7:00:00 PM 23.01 73.418 0.411 7.88 6.99 7.85
7/17/2021 7:15:00 PM 22.92 73.256 0.411 7.87 7.41 7.77
7/17/2021 7:30:00 PM 22.82 73.076 0.411 7.86 7.3 7.7
7/17/2021 7:45:00 PM 22.71 72.878 0.41 7.86 7.71 7.64
7/17/2021 8:00:00 PM 22.57 72.626 0.404 7.86 12.14 7.66
7/17/2021 8:15:00 PM 22.47 72.446 0.403 7.85 11.69 7.63
7/17/2021 8:30:00 PM 22.35 72.23 0.395 7.87 22.99 7.71
7/17/2021 8:45:00 PM 22.26 72.068 0.393 7.86 21.26 7.7
7/17/2021 9:00:00 PM 22.2 71.96 0.391 7.86 18.57 7.69
7/17/2021 9:15:00 PM 22.15 71.87 0.393 7.85 21.27 7.65
7/17/2021 9:30:00 PM 22.1 71.78 0.392 7.84 17.41 7.63
7/17/2021 9:45:00 PM 22.06 71.708 0.392 7.84 25.86 7.59
7/17/2021 10:00:00 PM 22.04 71.672 0.393 7.83 18.61 7.56
7/17/2021 10:15:00 PM 22.01 71.618 0.393 7.82 16.54 7.53
7/17/2021 10:30:00 PM 21.98 71.564 0.394 7.81 16.58 7.49
7/17/2021 10:45:00 PM 21.96 71.528 0.394 7.8 16.64 7.46
7/17/2021 11:00:00 PM 21.94 71.492 0.394 7.79 19.22 7.42
7/17/2021 11:15:00 PM 21.91 71.438 0.392 7.78 19.06 7.39
7/17/2021 11:30:00 PM 21.88 71.384 0.393 7.78 21.05 7.36
7/17/2021 11:45:00 PM 21.85 71.33 0.392 7.77 28.48 7.35
7/18/2021 12:00:00 AM 21.83 71.294 0.391 7.77 30.57 7.34
7/18/2021 12:15:00 AM 21.81 71.258 0.39 7.77 21.88 7.34
7/18/2021 12:30:00 AM 21.8 71.24 0.389 7.77 23.01 7.35
7/18/2021 12:45:00 AM 21.79 71.222 0.388 7.77 26.83 7.37
7/18/2021 1:00:00 AM 21.78 71.204 0.388 7.77 23.58 7.39
7/18/2021 1:15:00 AM 21.77 71.186 0.387 7.77 19.44 7.4
7/18/2021 1:30:00 AM 21.75 71.15 0.387 7.78 22.2 7.42
7/18/2021 1:45:00 AM 21.73 71.114 0.387 7.78 20.2 7.43
7/18/2021 2:00:00 AM 21.7 71.06 0.387 7.78 23.2 7.44
7/18/2021 2:15:00 AM 21.67 71.006 0.387 7.78 22.74 7.44
7/18/2021 2:30:00 AM 21.64 70.952 0.388 7.78 22.65 7.44
7/18/2021 2:45:00 AM 21.61 70.898 0.388 7.78 22.51 7.44
7/18/2021 3:00:00 AM 21.58 70.844 0.386 7.77 25.49 7.45
7/18/2021 3:15:00 AM 21.55 70.79 0.386 7.77 21.08 7.46
7/18/2021 3:30:00 AM 21.52 70.736 0.384 7.77 27.18 7.46
7/18/2021 3:45:00 AM 21.48 70.664 0.384 7.77 20.98 7.48
7/18/2021 4:00:00 AM 21.44 70.592 0.383 7.77 23.11 7.48
7/18/2021 4:15:00 AM 21.41 70.538 0.384 7.77 23.36 7.49
7/18/2021 4:30:00 AM 21.37 70.466 0.384 7.77 22.49 7.5
7/18/2021 4:45:00 AM 21.34 70.412 0.386 7.77 25.9 7.5
7/18/2021 5:00:00 AM 21.31 70.358 0.386 7.77 22.95 7.51
7/18/2021 5:15:00 AM 21.29 70.32201 0.387 7.78 26.11 7.51
7/18/2021 5:30:00 AM 21.27 70.286 0.388 7.78 24.54 7.51
7/18/2021 5:45:00 AM 21.25 70.25 0.388 7.78 22.26 7.52
7/18/2021 6:00:00 AM 21.23 70.214 0.389 7.78 25.19 7.52
7/18/2021 6:15:00 AM 21.21 70.17799 0.39 7.78 22.1 7.53
7/18/2021 6:30:00 AM 21.19 70.142 0.391 7.78 20.1 7.54
7/18/2021 6:45:00 AM 21.16 70.088 0.391 7.79 21.51 7.56
7/18/2021 7:00:00 AM 21.13 70.034 0.392 7.79 19.03 7.58
7/18/2021 7:15:00 AM 21.11 69.998 0.392 7.79 16.24 7.6
7/18/2021 7:30:00 AM 21.09 69.962 0.392 7.8 16.96 7.63
7/18/2021 7:45:00 AM 21.07 69.926 0.393 7.8 16.68 7.66
7/18/2021 8:00:00 AM 21.06 69.908 0.393 7.8 15.77 7.69
7/18/2021 8:15:00 AM 21.06 69.908 0.392 7.8 13.26 7.72
7/18/2021 8:30:00 AM 21.05 69.89 0.393 7.81 15.55 7.76
7/18/2021 8:45:00 AM 21.05 69.89 0.394 7.81 13.52 7.79
7/18/2021 9:00:00 AM 21.05 69.89 0.394 7.82 12.66 7.84
7/18/2021 9:15:00 AM 21.03 69.854 0.395 7.82 13.74 7.87
7/18/2021 9:30:00 AM 21.01 69.818 0.395 7.82 11.59 7.89
7/18/2021 9:45:00 AM 21 69.8 0.395 7.83 11.3 7.92
7/18/2021 10:00:00 AM 20.98 69.764 0.396 7.83 11.16 7.94
7/18/2021 10:15:00 AM 20.97 69.746 0.396 7.83 10.24 7.97
7/18/2021 10:30:00 AM 20.94 69.692 0.397 7.84 11.98 8
7/18/2021 10:45:00 AM 20.93 69.674 0.397 7.84 11.11 8.02
7/18/2021 11:00:00 AM 20.97 69.746 0.398 7.85 9.49 8.1
7/18/2021 11:15:00 AM 21.02 69.836 0.398 7.85 10.48 8.16
7/18/2021 11:30:00 AM 21.04 69.872 0.399 7.86 10.06 8.21
7/18/2021 11:45:00 AM 21.08 69.944 0.399 7.87 8.94 8.29
7/18/2021 12:00:00 PM 21.13 70.034 0.4 7.88 8.54 8.39
7/18/2021 12:15:00 PM 21.23 70.214 0.4 7.9 8.82 8.5
7/18/2021 12:30:00 PM 21.24 70.232 0.4 7.9 9.06 8.54
7/18/2021 12:45:00 PM 21.22 70.196 0.4 7.9 8.38 8.54
7/18/2021 1:00:00 PM 21.23 70.214 0.401 7.91 8.31 8.6
7/18/2021 1:15:00 PM 21.24 70.232 0.401 7.92 7.65 8.64
7/18/2021 1:30:00 PM 21.2 70.16 0.401 7.92 7.02 8.61
7/18/2021 1:45:00 PM 21.2 70.16 0.401 7.92 7.01 8.64
7/18/2021 2:00:00 PM 21.22 70.196 0.401 7.93 7.71 8.71
7/18/2021 2:15:00 PM 21.18 70.124 0.401 7.93 7.04 8.64
7/18/2021 2:30:00 PM 21.17 70.106 0.401 7.93 6.45 8.67
7/18/2021 2:45:00 PM 21.17 70.106 0.401 7.93 6.57 8.69
7/18/2021 3:00:00 PM 21.14 70.052 0.401 7.93 7.52 8.65
7/18/2021 3:15:00 PM 21.12 70.016 0.402 7.93 6.31 8.64
7/18/2021 3:30:00 PM 21.11 69.998 0.402 7.93 6.47 8.62
7/18/2021 3:45:00 PM 21.07 69.926 0.401 7.92 6.57 8.56
7/18/2021 4:00:00 PM 21.07 69.926 0.402 7.92 7.21 8.55
7/18/2021 4:15:00 PM 21.06 69.908 0.402 7.92 6.64 8.53
7/18/2021 4:30:00 PM 21.05 69.89 0.402 7.92 6.69 8.51
7/18/2021 4:45:00 PM 21.05 69.89 0.403 7.92 6.95 8.53
7/18/2021 5:00:00 PM 21.04 69.872 0.403 7.92 7.51 8.53
7/18/2021 5:15:00 PM 21.03 69.854 0.404 7.92 7.4 8.53
7/18/2021 5:30:00 PM 21.01 69.818 0.404 7.92 6.22 8.54
7/18/2021 5:45:00 PM 21.02 69.836 0.405 7.92 6.23 8.57
7/18/2021 6:00:00 PM 21.02 69.836 0.405 7.92 6.43 8.56
7/18/2021 6:15:00 PM 21.01 69.818 0.405 7.92 6.28 8.53
7/18/2021 6:30:00 PM 20.99 69.782 0.406 7.92 6.15 8.51
7/18/2021 6:45:00 PM 20.98 69.764 0.406 7.92 5.99 8.49
7/18/2021 7:00:00 PM 20.96 69.728 0.405 7.91 6.1 8.46
7/18/2021 7:15:00 PM 20.94 69.692 0.406 7.91 7.68 8.42
7/18/2021 7:30:00 PM 20.91 69.638 0.407 7.9 5.72 8.39
7/18/2021 7:45:00 PM 20.88 69.584 0.406 7.9 6.33 8.35
7/18/2021 8:00:00 PM 20.84 69.512 0.406 7.89 5.76 8.3
7/18/2021 8:15:00 PM 20.79 69.422 0.407 7.88 7.76 8.24
7/18/2021 8:30:00 PM 20.74 69.332 0.407 7.88 6.53 8.2
7/18/2021 8:45:00 PM 20.7 69.26 0.408 7.87 6.99 8.15
7/18/2021 9:00:00 PM 20.66 69.188 0.408 7.86 7.64 8.11
7/18/2021 9:15:00 PM 20.63 69.134 0.408 7.86 9.53 8.06
7/18/2021 9:30:00 PM 20.6 69.08 0.409 7.85 8.83 8.03
7/18/2021 9:45:00 PM 20.58 69.044 0.409 7.85 9.03 8.01
7/18/2021 10:00:00 PM 20.55 68.99 0.409 7.84 9.66 8
7/18/2021 10:15:00 PM 20.54 68.972 0.409 7.84 9.11 7.98
7/18/2021 10:30:00 PM 20.52 68.936 0.41 7.84 9.06 7.97
7/18/2021 10:45:00 PM 20.49 68.882 0.41 7.84 9.37 7.96
7/18/2021 11:00:00 PM 20.45 68.81 0.41 7.83 9.14 7.95
7/18/2021 11:15:00 PM 20.42 68.756 0.411 7.83 10.88 7.94
7/18/2021 11:30:00 PM 20.38 68.684 0.411 7.83 9.98 7.93
7/18/2021 11:45:00 PM 20.34 68.612 0.411 7.83 9.86 7.92
7/19/2021 12:00:00 AM 20.31 68.558 0.412 7.83 9.85 7.92
7/19/2021 12:15:00 AM 20.27 68.486 0.412 7.83 9.6 7.9
7/19/2021 12:30:00 AM 20.24 68.432 0.412 7.82 9.43 7.9
7/19/2021 12:45:00 AM 20.2 68.36 0.412 7.82 10.12 7.89
7/19/2021 1:00:00 AM 20.16 68.288 0.413 7.82 10.24 7.89
7/19/2021 1:15:00 AM 20.12 68.216 0.413 7.82 10.36 7.88
7/19/2021 1:30:00 AM 20.07 68.126 0.413 7.81 12.68 7.87
7/19/2021 1:45:00 AM 20.03 68.054 0.413 7.81 10.62 7.87
7/19/2021 2:00:00 AM 19.98 67.964 0.413 7.81 10.25 7.88
7/19/2021 2:15:00 AM 19.93 67.874 0.413 7.81 11.45 7.87
7/19/2021 2:30:00 AM 19.87 67.766 0.413 7.81 10.99 7.88
7/19/2021 2:45:00 AM 19.82 67.676 0.414 7.81 11.24 7.88
7/19/2021 3:00:00 AM 19.77 67.586 0.414 7.81 11.04 7.88
7/19/2021 3:15:00 AM 19.72 67.496 0.414 7.8 11.06 7.89
7/19/2021 3:30:00 AM 19.67 67.406 0.414 7.81 11.2 7.9
7/19/2021 3:45:00 AM 19.62 67.316 0.414 7.81 11.19 7.91
7/19/2021 4:00:00 AM 19.58 67.244 0.414 7.81 11.69 7.91
7/19/2021 4:15:00 AM 19.54 67.172 0.414 7.81 11.82 7.91
7/19/2021 4:30:00 AM 19.49 67.082 0.414 7.81 12.79 7.92
7/19/2021 4:45:00 AM 19.44 66.992 0.415 7.81 11.2 7.93
7/19/2021 5:00:00 AM 19.39 66.902 0.415 7.81 10.87 7.93
7/19/2021 5:15:00 AM 19.34 66.812 0.415 7.81 10.6 7.93
7/19/2021 5:30:00 AM 19.29 66.722 0.414 7.8 11.08 7.94
7/19/2021 5:45:00 AM 19.24 66.632 0.415 7.8 11.26 7.95
7/19/2021 6:00:00 AM 19.19 66.542 0.415 7.81 10.42 7.96
7/19/2021 6:15:00 AM 19.14 66.452 0.415 7.8 10.18 7.97
7/19/2021 6:30:00 AM 19.1 66.38 0.416 7.8 9.8 7.98
7/19/2021 6:45:00 AM 19.06 66.308 0.415 7.8 9.64 8
7/19/2021 7:00:00 AM 19.03 66.254 0.416 7.81 9.43 8.02
7/19/2021 7:15:00 AM 19.02 66.236 0.416 7.81 8.45 8.05
7/19/2021 7:30:00 AM 19.01 66.218 0.416 7.81 8.24 8.07
7/19/2021 7:45:00 AM 19.01 66.218 0.416 7.81 7.97 8.09
7/19/2021 8:00:00 AM 19.01 66.218 0.416 7.82 7.79 8.15
7/19/2021 8:15:00 AM 19.02 66.236 0.416 7.82 7.34 8.19
7/19/2021 8:30:00 AM 19.04 66.272 0.416 7.83 8.05 8.24
7/19/2021 8:45:00 AM 19.07 66.326 0.416 7.83 6.65 8.3
7/19/2021 9:00:00 AM 19.1 66.38 0.416 7.84 6.51 8.36
7/19/2021 9:15:00 AM 19.14 66.452 0.417 7.85 6.27 8.43
7/19/2021 9:30:00 AM 19.18 66.524 0.415 7.85 6.32 8.51
7/19/2021 9:45:00 AM 19.22 66.596 0.416 7.87 5.82 8.6
7/19/2021 10:00:00 AM 19.28 66.704 0.416 7.87 6.2 8.68
7/19/2021 10:15:00 AM 19.34 66.812 0.416 7.88 5.99 8.76
7/19/2021 10:30:00 AM 19.41 66.938 0.416 7.89 5.62 8.86
7/19/2021 10:45:00 AM 19.49 67.082 0.416 7.9 5.41 8.95
7/19/2021 11:00:00 AM 19.59 67.262 0.416 7.91 6.01 9.04
7/19/2021 11:15:00 AM 19.69 67.442 0.416 7.93 5.39 9.13
7/19/2021 11:30:00 AM 19.82 67.676 0.416 7.94 6.74 9.22
7/19/2021 11:45:00 AM 19.95 67.91 0.417 7.95 6.72 9.3
7/19/2021 12:00:00 PM 20.1 68.18 0.416 7.97 6.69 9.4
7/19/2021 12:15:00 PM 20.26 68.468 0.417 7.98 6.4 9.49
7/19/2021 12:30:00 PM 20.42 68.756 0.417 7.99 5.65 9.56
7/19/2021 12:45:00 PM 20.59 69.062 0.417 8.01 4.97 9.64
7/19/2021 1:00:00 PM 20.76 69.368 0.417 8.02 5.12 9.71
7/19/2021 1:15:00 PM 20.93 69.674 0.417 8.03 5.09 9.78
7/19/2021 1:30:00 PM 21.1 69.98 0.417 8.04 4.87 9.83
7/19/2021 1:45:00 PM 21.27 70.286 0.417 8.06 6.81 9.86
7/19/2021 2:00:00 PM 21.43 70.574 0.417 8.06 6.91 9.9
7/19/2021 2:15:00 PM 21.54 70.772 0.417 8.07 6.09 9.91
7/19/2021 2:30:00 PM 21.63 70.934 0.417 8.07 7.26 9.91
7/19/2021 2:45:00 PM 21.75 71.15 0.417 8.08 5.31 9.92
7/19/2021 3:00:00 PM 21.83 71.294 0.417 8.08 5.35 9.9
7/19/2021 3:15:00 PM 21.91 71.438 0.418 8.09 6.71 9.87
7/19/2021 3:30:00 PM 21.97 71.546 0.418 8.09 5.45 9.85
7/19/2021 3:45:00 PM 22.01 71.618 0.418 8.09 5.64 9.8
7/19/2021 4:00:00 PM 21.99 71.582 0.417 8.08 5.62 9.72
7/19/2021 4:15:00 PM 22.01 71.618 0.418 8.08 4.97 9.68
7/19/2021 4:30:00 PM 22.02 71.636 0.419 8.08 5.69 9.63
7/19/2021 4:45:00 PM 21.98 71.564 0.419 8.07 5.6 9.52
7/19/2021 5:00:00 PM 21.96 71.528 0.418 8.06 5.33 9.45
7/19/2021 5:15:00 PM 21.96 71.528 0.419 8.06 5.08 9.4
7/19/2021 5:30:00 PM 21.94 71.492 0.419 8.05 6.12 9.31
7/19/2021 5:45:00 PM 21.91 71.438 0.419 8.04 4.98 9.22
7/19/2021 6:00:00 PM 21.88 71.384 0.419 8.04 5.16 9.12
7/19/2021 6:15:00 PM 21.86 71.348 0.419 8.03 5.97 9.04
7/19/2021 6:30:00 PM 21.83 71.294 0.42 8.01 5.38 8.93
7/19/2021 6:45:00 PM 21.82 71.276 0.42 8 5.13 8.83
7/19/2021 7:00:00 PM 21.81 71.258 0.42 7.99 4.79 8.75
7/19/2021 7:15:00 PM 21.79 71.222 0.42 7.98 5.1 8.66
7/19/2021 7:30:00 PM 21.75 71.15 0.421 7.97 4.85 8.56
7/19/2021 7:45:00 PM 21.73 71.114 0.421 7.96 5.1 8.49
7/19/2021 8:00:00 PM 21.69 71.042 0.421 7.95 4.7 8.4
7/19/2021 8:15:00 PM 21.65 70.97 0.421 7.94 5.14 8.31
7/19/2021 8:30:00 PM 21.6 70.88 0.422 7.93 4.86 8.25
7/19/2021 8:45:00 PM 21.56 70.808 0.422 7.92 6.92 8.15
7/19/2021 9:00:00 PM 21.51 70.718 0.422 7.91 5.61 8.13
7/19/2021 9:15:00 PM 21.46 70.628 0.421 7.9 5.86 8.06
7/19/2021 9:30:00 PM 21.4 70.52 0.422 7.89 6.18 8.02
7/19/2021 9:45:00 PM 21.34 70.412 0.422 7.89 6.22 7.98
7/19/2021 10:00:00 PM 21.28 70.304 0.422 7.88 6.32 7.92
7/19/2021 10:15:00 PM 21.22 70.196 0.423 7.87 6.96 7.91
7/19/2021 10:30:00 PM 21.16 70.088 0.423 7.87 7.13 7.88
7/19/2021 10:45:00 PM 21.11 69.998 0.423 7.86 7.27 7.86
7/19/2021 11:00:00 PM 21.05 69.89 0.423 7.86 7.37 7.83
7/19/2021 11:15:00 PM 20.99 69.782 0.424 7.85 7.19 7.82
7/19/2021 11:30:00 PM 20.93 69.674 0.424 7.85 7.42 7.8
7/19/2021 11:45:00 PM 20.87 69.566 0.424 7.84 7.64 7.78
7/20/2021 12:00:00 AM 20.82 69.476 0.424 7.84 7.55 7.78
7/20/2021 12:15:00 AM 20.76 69.368 0.424 7.83 7.67 7.75
7/20/2021 12:30:00 AM 20.71 69.278 0.424 7.83 9.01 7.73
7/20/2021 12:45:00 AM 20.66 69.188 0.425 7.82 7.75 7.73
7/20/2021 1:00:00 AM 20.61 69.098 0.425 7.82 7.89 7.71
7/20/2021 1:15:00 AM 20.55 68.99 0.425 7.82 7.78 7.7
7/20/2021 1:30:00 AM 20.51 68.918 0.425 7.81 7.84 7.68
7/20/2021 1:45:00 AM 20.46 68.828 0.425 7.81 8.53 7.69
7/20/2021 2:00:00 AM 20.41 68.738 0.426 7.81 7.79 7.68
7/20/2021 2:15:00 AM 20.37 68.666 0.425 7.8 7.45 7.69
7/20/2021 2:30:00 AM 20.33 68.594 0.426 7.8 7.89 7.68
7/20/2021 2:45:00 AM 20.29 68.522 0.426 7.8 8.99 7.68
7/20/2021 3:00:00 AM 20.24 68.432 0.426 7.8 9.89 7.68
7/20/2021 3:15:00 AM 20.2 68.36 0.426 7.8 8.67 7.69
7/20/2021 3:30:00 AM 20.16 68.288 0.426 7.8 8.5 7.69
7/20/2021 3:45:00 AM 20.12 68.216 0.426 7.79 8.22 7.68
7/20/2021 4:00:00 AM 20.08 68.144 0.426 7.79 7.98 7.69
7/20/2021 4:15:00 AM 20.04 68.07201 0.427 7.79 8.74 7.68
7/20/2021 4:30:00 AM 20 68 0.427 7.79 8.91 7.69
7/20/2021 4:45:00 AM 19.97 67.946 0.427 7.79 8.63 7.7
7/20/2021 5:00:00 AM 19.93 67.874 0.426 7.79 9.13 7.7
7/20/2021 5:15:00 AM 19.9 67.82 0.427 7.79 8.48 7.7
7/20/2021 5:30:00 AM 19.86 67.748 0.427 7.79 8.19 7.71
7/20/2021 5:45:00 AM 19.82 67.676 0.427 7.79 7.64 7.71
7/20/2021 6:00:00 AM 19.78 67.604 0.427 7.79 7.92 7.72
7/20/2021 6:15:00 AM 19.74 67.532 0.427 7.79 7.81 7.73
7/20/2021 6:30:00 AM 19.71 67.478 0.427 7.79 7.42 7.74
7/20/2021 6:45:00 AM 19.68 67.424 0.427 7.79 7.69 7.77
7/20/2021 7:00:00 AM 19.65 67.37 0.427 7.79 7.12 7.79
7/20/2021 7:15:00 AM 19.63 67.334 0.427 7.79 6.47 7.82
7/20/2021 7:30:00 AM 19.62 67.316 0.427 7.79 6.66 7.84
7/20/2021 7:45:00 AM 19.62 67.316 0.427 7.79 6.48 7.89
7/20/2021 8:00:00 AM 19.62 67.316 0.427 7.8 5.9 7.94
7/20/2021 8:15:00 AM 19.64 67.352 0.426 7.8 5.69 8.01
7/20/2021 8:30:00 AM 19.66 67.388 0.427 7.81 5.79 8.08
7/20/2021 8:45:00 AM 19.69 67.442 0.427 7.82 5.39 8.16
7/20/2021 9:00:00 AM 19.73 67.514 0.427 7.83 5.38 8.25
7/20/2021 9:15:00 AM 19.77 67.586 0.427 7.84 5.49 8.36
7/20/2021 9:30:00 AM 19.81 67.658 0.427 7.85 5.05 8.46
7/20/2021 9:45:00 AM 19.86 67.748 0.426 7.87 5 8.58
7/20/2021 10:00:00 AM 19.9 67.82 0.427 7.88 4.86 8.7
7/20/2021 10:15:00 AM 19.96 67.92799 0.426 7.89 5.1 8.82
7/20/2021 10:30:00 AM 20.02 68.036 0.426 7.91 5.27 8.95
7/20/2021 10:45:00 AM 20.1 68.18 0.426 7.93 4.74 9.08
7/20/2021 11:00:00 AM 20.17 68.306 0.426 7.94 4.75 9.21
7/20/2021 11:15:00 AM 20.26 68.468 0.426 7.96 4.71 9.36
7/20/2021 11:30:00 AM 20.35 68.63 0.426 7.98 4.45 9.46
7/20/2021 11:45:00 AM 20.46 68.828 0.426 7.99 4.44 9.6
7/20/2021 12:00:00 PM 20.57 69.026 0.426 8.01 4.32 9.72
7/20/2021 12:15:00 PM 20.69 69.242 0.425 8.03 4.34 9.86
7/20/2021 12:30:00 PM 20.81 69.458 0.425 8.05 3.95 9.97
7/20/2021 12:45:00 PM 20.94 69.692 0.425 8.07 4.4 10.08
7/20/2021 1:00:00 PM 21.09 69.962 0.425 8.09 4.41 10.17
7/20/2021 1:15:00 PM 21.23 70.214 0.425 8.1 8.77 10.26
7/20/2021 1:30:00 PM 21.35 70.43 0.425 8.12 6.2 10.32
7/20/2021 1:45:00 PM 21.49 70.682 0.425 8.13 7.35 10.38
7/20/2021 2:00:00 PM 21.63 70.934 0.424 8.14 6.45 10.44
7/20/2021 2:15:00 PM 21.75 71.15 0.424 8.16 4.69 10.49
7/20/2021 2:30:00 PM 21.82 71.276 0.424 8.16 4.66 10.46
7/20/2021 2:45:00 PM 21.89 71.402 0.424 8.17 4.55 10.45
7/20/2021 3:00:00 PM 22.01 71.618 0.424 8.17 5.97 10.46
7/20/2021 3:15:00 PM 22.05 71.69 0.425 8.17 4.15 10.43
7/20/2021 3:30:00 PM 22.08 71.744 0.425 8.17 4.42 10.36
7/20/2021 3:45:00 PM 22.09 71.762 0.425 8.17 4.14 10.29
7/20/2021 4:00:00 PM 22.11 71.798 0.424 8.17 3.88 10.24
7/20/2021 4:15:00 PM 22.12 71.816 0.425 8.16 3.66 10.15
7/20/2021 4:30:00 PM 22.17 71.906 0.424 8.16 3.93 10.12
7/20/2021 4:45:00 PM 22.12 71.816 0.425 8.14 3.92 9.96
7/20/2021 5:00:00 PM 22.12 71.816 0.425 8.13 4.17 9.87
7/20/2021 5:15:00 PM 22.11 71.798 0.425 8.13 4.08 9.76
7/20/2021 5:30:00 PM 22.1 71.78 0.426 8.12 4.44 9.66
7/20/2021 5:45:00 PM 22.07 71.726 0.426 8.1 4.13 9.55
7/20/2021 6:00:00 PM 22.06 71.708 0.426 8.1 3.86 9.45
7/20/2021 6:15:00 PM 22.05 71.69 0.427 8.08 3.99 9.35
7/20/2021 6:30:00 PM 22.03 71.654 0.426 8.07 4.89 9.25
7/20/2021 6:45:00 PM 22.02 71.636 0.427 8.06 4.82 9.12
7/20/2021 7:00:00 PM 22 71.6 0.427 8.04 4.33 8.99
7/20/2021 7:15:00 PM 21.98 71.564 0.428 8.03 4.64 8.88
7/20/2021 7:30:00 PM 21.96 71.528 0.428 8.01 5.95 8.75
7/20/2021 7:45:00 PM 21.93 71.474 0.428 8 4.62 8.64
7/20/2021 8:00:00 PM 21.9 71.42 0.428 7.98 4.31 8.51
7/20/2021 8:15:00 PM 21.87 71.366 0.429 7.97 4.38 8.42
7/20/2021 8:30:00 PM 21.84 71.312 0.429 7.95 4.13 8.32
7/20/2021 8:45:00 PM 21.81 71.258 0.429 7.94 4.87 8.22
7/20/2021 9:00:00 PM 21.77 71.186 0.43 7.93 6.35 8.14
7/20/2021 9:15:00 PM 21.73 71.114 0.429 7.92 6.31 8.06
7/20/2021 9:30:00 PM 21.69 71.042 0.43 7.91 5.69 8
7/20/2021 9:45:00 PM 21.64 70.952 0.43 7.9 5.09 7.95
7/20/2021 10:00:00 PM 21.6 70.88 0.431 7.89 5.09 7.9
7/20/2021 10:15:00 PM 21.55 70.79 0.43 7.88 5.31 7.84
7/20/2021 10:30:00 PM 21.51 70.718 0.431 7.87 5.17 7.8
7/20/2021 10:45:00 PM 21.46 70.628 0.431 7.87 5.09 7.78
7/20/2021 11:00:00 PM 21.41 70.538 0.431 7.86 5.02 7.75
7/20/2021 11:15:00 PM 21.36 70.448 0.431 7.85 5.59 7.73
7/20/2021 11:30:00 PM 21.3 70.34 0.431 7.85 5.55 7.7
7/20/2021 11:45:00 PM 21.25 70.25 0.432 7.84 5.78 7.69
7/21/2021 12:00:00 AM 21.2 70.16 0.432 7.84 5.35 7.66
7/21/2021 12:15:00 AM 21.15 70.07 0.432 7.83 5.79 7.64
7/21/2021 12:30:00 AM 21.1 69.98 0.432 7.83 6.21 7.63
7/21/2021 12:45:00 AM 21.05 69.89 0.432 7.82 5.5 7.62
7/21/2021 1:00:00 AM 21 69.8 0.433 7.82 6.17 7.6
7/21/2021 1:15:00 AM 20.95 69.71 0.432 7.82 5.73 7.6
7/21/2021 1:30:00 AM 20.91 69.638 0.432 7.81 6.37 7.58
7/21/2021 1:45:00 AM 20.86 69.548 0.432 7.81 6.2 7.58
7/21/2021 2:00:00 AM 20.82 69.476 0.433 7.81 5.94 7.56
7/21/2021 2:15:00 AM 20.77 69.386 0.433 7.8 7.3 7.56
7/21/2021 2:30:00 AM 20.73 69.314 0.433 7.8 6.08 7.54
7/21/2021 2:45:00 AM 20.68 69.224 0.433 7.8 6.32 7.54
7/21/2021 3:00:00 AM 20.64 69.152 0.433 7.79 5.97 7.54
7/21/2021 3:15:00 AM 20.6 69.08 0.433 7.79 6.02 7.53
7/21/2021 3:30:00 AM 20.57 69.026 0.433 7.79 6.4 7.53
7/21/2021 3:45:00 AM 20.53 68.954 0.433 7.79 6.04 7.53
7/21/2021 4:00:00 AM 20.49 68.882 0.434 7.78 7.06 7.53
7/21/2021 4:15:00 AM 20.46 68.828 0.433 7.78 6.27 7.54
7/21/2021 4:30:00 AM 20.43 68.774 0.433 7.78 6.32 7.54
7/21/2021 4:45:00 AM 20.39 68.702 0.433 7.78 6.83 7.55
7/21/2021 5:00:00 AM 20.36 68.648 0.433 7.78 7.21 7.54
7/21/2021 5:15:00 AM 20.33 68.594 0.433 7.78 6.58 7.51
7/21/2021 5:30:00 AM 20.29 68.522 0.433 7.78 6.86 7.55
7/21/2021 5:45:00 AM 20.26 68.468 0.433 7.78 6.26 7.56
7/21/2021 6:00:00 AM 20.22 68.396 0.433 7.78 6.01 7.56
7/21/2021 6:15:00 AM 20.2 68.36 0.433 7.78 6.69 7.57
7/21/2021 6:30:00 AM 20.16 68.288 0.433 7.78 5.98 7.59
7/21/2021 6:45:00 AM 20.13 68.234 0.433 7.78 6.32 7.6
7/21/2021 7:00:00 AM 20.11 68.198 0.433 7.78 6.13 7.63
7/21/2021 7:15:00 AM 20.09 68.162 0.433 7.78 8.88 7.66
7/21/2021 7:30:00 AM 20.08 68.144 0.433 7.78 6.36 7.7
7/21/2021 7:45:00 AM 20.08 68.144 0.433 7.79 5.65 7.75
7/21/2021 8:00:00 AM 20.08 68.144 0.433 7.79 5.17 7.81
7/21/2021 8:15:00 AM 20.09 68.162 0.432 7.8 4.62 7.87
7/21/2021 8:30:00 AM 20.11 68.198 0.432 7.8 4.52 7.98
7/21/2021 8:45:00 AM 20.14 68.252 0.432 7.81 4.41 8.08
7/21/2021 9:00:00 AM 20.19 68.342 0.432 7.83 4.32 8.22
7/21/2021 9:15:00 AM 20.21 68.378 0.432 7.84 4.76 8.3
7/21/2021 9:30:00 AM 20.24 68.432 0.432 7.85 4.2 8.44
7/21/2021 9:45:00 AM 20.29 68.522 0.432 7.87 4.1 8.61
7/21/2021 10:00:00 AM 20.35 68.63 0.432 7.89 4.04 8.77
7/21/2021 10:15:00 AM 20.38 68.684 0.431 7.9 3.98 8.84
7/21/2021 10:30:00 AM 20.43 68.774 0.431 7.92 4.11 9.01
7/21/2021 10:45:00 AM 20.5 68.9 0.431 7.94 3.86 9.17
7/21/2021 11:00:00 AM 20.59 69.062 0.431 7.96 3.94 9.36
7/21/2021 11:15:00 AM 20.69 69.242 0.43 7.99 3.82 9.53
7/21/2021 11:30:00 AM 20.79 69.422 0.43 8.01 3.86 9.73
7/21/2021 11:45:00 AM 20.9 69.62 0.429 8.04 3.79 9.91
7/21/2021 12:00:00 PM 21.02 69.836 0.429 8.07 3.73 10.08
7/21/2021 12:15:00 PM 21.15 70.07 0.429 8.09 5.56 10.24
7/21/2021 12:30:00 PM 21.28 70.304 0.429 8.11 3.8 10.37
7/21/2021 12:45:00 PM 21.43 70.574 0.429 8.14 3.65 10.51
7/21/2021 1:00:00 PM 21.55 70.79 0.428 8.16 3.57 10.62
7/21/2021 1:15:00 PM 21.64 70.952 0.428 8.17 3.51 10.63
7/21/2021 1:30:00 PM 21.75 71.15 0.428 8.18 3.65 10.68
7/21/2021 1:45:00 PM 21.83 71.294 0.428 8.19 3.82 10.63
7/21/2021 2:00:00 PM 21.88 71.384 0.428 8.18 3.61 10.57
7/21/2021 2:15:00 PM 21.86 71.348 0.428 8.18 3.46 10.47
7/21/2021 2:30:00 PM 21.83 71.294 0.428 8.18 3.81 10.4
7/21/2021 2:45:00 PM 21.71 71.078 0.427 8.15 3.97 10.15
7/21/2021 3:00:00 PM 21.65 70.97 0.426 8.14 4.15 10.06
7/21/2021 3:15:00 PM 21.66 70.988 0.426 8.14 3.74 10.07
7/21/2021 3:30:00 PM 21.73 71.114 0.427 8.15 3.46 10.06
7/21/2021 3:45:00 PM 21.77 71.186 0.426 8.14 4.23 10.04
7/21/2021 4:00:00 PM 21.81 71.258 0.426 8.15 4 10.08
7/21/2021 4:15:00 PM 21.87 71.366 0.426 8.16 3.66 10.13
7/21/2021 4:30:00 PM 21.93 71.474 0.426 8.17 3.74 10.14
7/21/2021 4:45:00 PM 21.96 71.528 0.426 8.17 3.29 10.1
7/21/2021 5:00:00 PM 21.99 71.582 0.426 8.17 3.47 10.02
7/21/2021 5:15:00 PM 21.99 71.582 0.427 8.16 3.37 9.94
7/21/2021 5:30:00 PM 21.98 71.564 0.427 8.15 3.66 9.81
7/21/2021 5:45:00 PM 21.93 71.474 0.427 8.12 3.94 9.63
7/21/2021 6:00:00 PM 21.82 71.276 0.426 8.1 3.85 9.41
7/21/2021 6:15:00 PM 21.74 71.132 0.425 8.08 4.24 9.27
7/21/2021 6:30:00 PM 21.67 71.006 0.425 8.07 4.02 9.16
7/21/2021 6:45:00 PM 21.58 70.844 0.425 8.05 3.88 8.98
7/21/2021 7:00:00 PM 21.5 70.7 0.425 8.02 3.76 8.83
7/21/2021 7:15:00 PM 21.46 70.628 0.425 8.01 3.71 8.75
7/21/2021 7:30:00 PM 21.43 70.574 0.426 8 4.08 8.66
7/21/2021 7:45:00 PM 21.41 70.538 0.426 7.99 4.05 8.58
7/21/2021 8:00:00 PM 21.39 70.502 0.426 7.97 4.94 8.47
7/21/2021 8:15:00 PM 21.37 70.466 0.426 7.96 4.45 8.38
7/21/2021 8:30:00 PM 21.36 70.448 0.426 7.95 4.72 8.29
7/21/2021 8:45:00 PM 21.34 70.412 0.425 7.93 5.44 8.12
7/21/2021 9:00:00 PM 21.33 70.394 0.424 7.92 6.59 8.11
7/21/2021 9:15:00 PM 21.33 70.394 0.421 7.92 7.54 8.04
7/21/2021 9:30:00 PM 21.34 70.412 0.418 7.91 7.61 7.99
7/21/2021 9:45:00 PM 21.35 70.43 0.416 7.91 8.07 7.94
7/21/2021 10:00:00 PM 21.36 70.448 0.413 7.91 7.18 7.9
7/21/2021 10:15:00 PM 21.35 70.43 0.411 7.91 7.68 7.87
7/21/2021 10:30:00 PM 21.34 70.412 0.41 7.91 7.77 7.84
7/21/2021 10:45:00 PM 21.3 70.34 0.409 7.91 7.68 7.82
7/21/2021 11:00:00 PM 21.26 70.268 0.408 7.91 7.73 7.8
7/21/2021 11:15:00 PM 21.2 70.16 0.407 7.91 7.44 7.78
7/21/2021 11:30:00 PM 21.14 70.052 0.407 7.9 15.59 7.77
7/21/2021 11:45:00 PM 21.08 69.944 0.407 7.9 7.89 7.76
7/22/2021 12:00:00 AM 21.03 69.854 0.406 7.89 7.73 7.74
7/22/2021 12:15:00 AM 20.98 69.764 0.406 7.89 7.1 7.73
7/22/2021 12:30:00 AM 20.93 69.674 0.406 7.88 8.24 7.71
7/22/2021 12:45:00 AM 20.89 69.602 0.406 7.87 6.89 7.7
7/22/2021 1:00:00 AM 20.84 69.512 0.405 7.87 7.29 7.69
7/22/2021 1:15:00 AM 20.79 69.422 0.405 7.87 7.59 7.68
7/22/2021 1:30:00 AM 20.74 69.332 0.405 7.87 7.67 7.69
7/22/2021 1:45:00 AM 20.68 69.224 0.405 7.86 7.02 7.68
7/22/2021 2:00:00 AM 20.6 69.08 0.404 7.86 8.09 7.68
7/22/2021 2:15:00 AM 20.53 68.954 0.405 7.86 7.04 7.69
7/22/2021 2:30:00 AM 20.46 68.828 0.405 7.85 8.94 7.68
7/22/2021 2:45:00 AM 20.39 68.702 0.406 7.85 8.03 7.69
7/22/2021 3:00:00 AM 20.32 68.576 0.406 7.85 8.18 7.7
7/22/2021 3:15:00 AM 20.24 68.432 0.406 7.85 8.22 7.7
7/22/2021 3:30:00 AM 20.16 68.288 0.407 7.85 8.96 7.71
7/22/2021 3:45:00 AM 20.09 68.162 0.408 7.85 8.31 7.71
7/22/2021 4:00:00 AM 20.01 68.018 0.409 7.84 8.54 7.71
7/22/2021 4:15:00 AM 19.93 67.874 0.409 7.84 8.05 7.71
7/22/2021 4:30:00 AM 19.86 67.748 0.409 7.84 8.76 7.72
7/22/2021 4:45:00 AM 19.79 67.622 0.409 7.84 8.31 7.73
7/22/2021 5:00:00 AM 19.72 67.496 0.41 7.83 8.95 7.73
7/22/2021 5:15:00 AM 19.64 67.352 0.409 7.83 8.4 7.74
7/22/2021 5:30:00 AM 19.57 67.226 0.409 7.83 8.93 7.74
7/22/2021 5:45:00 AM 19.5 67.1 0.409 7.83 9.17 7.74
7/22/2021 6:00:00 AM 19.43 66.974 0.408 7.82 8.92 7.75
7/22/2021 6:15:00 AM 19.36 66.848 0.407 7.82 8.36 7.75
7/22/2021 6:30:00 AM 19.3 66.74 0.406 7.82 8.29 7.75
7/22/2021 6:45:00 AM 19.25 66.65 0.405 7.82 8.55 7.77
7/22/2021 7:00:00 AM 19.2 66.56 0.405 7.81 8.2 7.8
7/22/2021 7:15:00 AM 19.16 66.488 0.403 7.81 8.15 7.82
7/22/2021 7:30:00 AM 19.14 66.452 0.402 7.81 8.13 7.85
7/22/2021 7:45:00 AM 19.12 66.416 0.4 7.81 8.71 7.89
7/22/2021 8:00:00 AM 19.12 66.416 0.399 7.82 8.41 7.95
7/22/2021 8:15:00 AM 19.12 66.416 0.397 7.82 7.78 8
7/22/2021 8:30:00 AM 19.12 66.416 0.395 7.82 8.18 8.07
7/22/2021 8:45:00 AM 19.14 66.452 0.394 7.83 8.66 8.15
7/22/2021 9:00:00 AM 19.16 66.488 0.392 7.84 7.74 8.25
7/22/2021 9:15:00 AM 19.17 66.506 0.39 7.85 7.32 8.34
7/22/2021 9:30:00 AM 19.19 66.542 0.388 7.86 7.31 8.45
7/22/2021 9:45:00 AM 19.21 66.578 0.388 7.88 7.54 8.56
7/22/2021 10:00:00 AM 19.23 66.614 0.386 7.89 7.36 8.68
7/22/2021 10:15:00 AM 19.27 66.686 0.387 7.91 7.28 8.83
7/22/2021 10:30:00 AM 19.32 66.776 0.385 7.92 6.82 8.95
7/22/2021 10:45:00 AM 19.37 66.866 0.386 7.93 7.2 9.09
7/22/2021 11:00:00 AM 19.43 66.974 0.385 7.95 7.2 9.23
7/22/2021 11:15:00 AM 19.49 67.082 0.385 7.97 6.55 9.36
7/22/2021 11:30:00 AM 19.56 67.208 0.386 7.99 6.9 9.53
7/22/2021 11:45:00 AM 19.65 67.37 0.385 8.01 7.16 9.66
7/22/2021 12:00:00 PM 19.79 67.622 0.386 8.04 6.74 9.85
7/22/2021 12:15:00 PM 19.9 67.82 0.386 8.06 6.91 9.97
7/22/2021 12:30:00 PM 20.03 68.054 0.387 8.08 11.22 10.11
7/22/2021 12:45:00 PM 20.13 68.234 0.387 8.1 8.15 10.23
7/22/2021 1:00:00 PM 20.24 68.432 0.388 8.12 6.7 10.37
7/22/2021 1:15:00 PM 20.32 68.576 0.388 8.15 7.04 10.48
7/22/2021 1:30:00 PM 20.44 68.792 0.389 8.17 6.32 10.59
7/22/2021 1:45:00 PM 20.59 69.062 0.389 8.2 6.1 10.71
7/22/2021 2:00:00 PM 20.77 69.386 0.389 8.22 6.37 10.81
7/22/2021 2:15:00 PM 20.88 69.584 0.39 8.23 6.26 10.85
7/22/2021 2:30:00 PM 21.01 69.818 0.391 8.24 6.07 10.9
7/22/2021 2:45:00 PM 21.07 69.926 0.391 8.25 5.62 10.92
7/22/2021 3:00:00 PM 21.16 70.088 0.392 8.26 5.88 10.93
7/22/2021 3:15:00 PM 21.24 70.232 0.392 8.27 4.61 10.91
7/22/2021 3:30:00 PM 21.25 70.25 0.393 8.26 4.72 10.83
7/22/2021 3:45:00 PM 21.2 70.16 0.393 8.25 4.56 10.69
7/22/2021 4:00:00 PM 21.15 70.07 0.394 8.24 4.26 10.59
7/22/2021 4:15:00 PM 21.1 69.98 0.394 8.22 4.53 10.5
7/22/2021 4:30:00 PM 21.05 69.89 0.395 8.21 4.73 10.39
7/22/2021 4:45:00 PM 21 69.8 0.395 8.2 4.47 10.31
7/22/2021 5:00:00 PM 20.96 69.728 0.396 8.19 3.98 10.27
7/22/2021 5:15:00 PM 20.94 69.692 0.396 8.19 4.45 10.21
7/22/2021 5:30:00 PM 20.91 69.638 0.397 8.17 4.63 10.13
7/22/2021 5:45:00 PM 20.9 69.62 0.398 8.16 4.2 10.02
7/22/2021 6:00:00 PM 20.87 69.566 0.398 8.14 5.16 9.88
7/22/2021 6:15:00 PM 20.85 69.53 0.398 8.13 3.93 9.73
7/22/2021 6:30:00 PM 20.84 69.512 0.399 8.11 3.64 9.59
7/22/2021 6:45:00 PM 20.79 69.422 0.4 8.08 4.53 9.42
7/22/2021 7:00:00 PM 20.76 69.368 0.4 8.06 4.06 9.26
7/22/2021 7:15:00 PM 20.72 69.296 0.4 8.05 4.31 9.11
7/22/2021 7:30:00 PM 20.68 69.224 0.4 8.03 4.35 9
7/22/2021 7:45:00 PM 20.64 69.152 0.4 8.01 4.06 8.88
7/22/2021 8:00:00 PM 20.59 69.062 0.401 8 4.19 8.77
7/22/2021 8:15:00 PM 20.54 68.972 0.401 7.99 4.03 8.68
7/22/2021 8:30:00 PM 20.48 68.864 0.402 7.97 4.35 8.56
7/22/2021 8:45:00 PM 20.42 68.756 0.403 7.95 5.38 8.48
7/22/2021 9:00:00 PM 20.34 68.612 0.403 7.94 4.52 8.4
7/22/2021 9:15:00 PM 20.26 68.468 0.404 7.93 4.61 8.32
7/22/2021 9:30:00 PM 20.19 68.342 0.404 7.91 4.49 8.25
7/22/2021 9:45:00 PM 20.11 68.198 0.405 7.9 4.06 8.19
7/22/2021 10:00:00 PM 20.04 68.07201 0.405 7.89 4.05 8.15
7/22/2021 10:15:00 PM 19.96 67.92799 0.406 7.89 4.63 8.09
7/22/2021 10:30:00 PM 19.9 67.82 0.406 7.88 4.79 8.06
7/22/2021 10:45:00 PM 19.83 67.694 0.406 7.87 5.42 8.03
7/22/2021 11:00:00 PM 19.76 67.568 0.406 7.86 5.36 8
7/22/2021 11:15:00 PM 19.69 67.442 0.407 7.86 5.33 8
7/22/2021 11:30:00 PM 19.62 67.316 0.407 7.85 4.99 7.98
7/22/2021 11:45:00 PM 19.55 67.19 0.407 7.84 4.7 7.95
7/23/2021 12:00:00 AM 19.48 67.064 0.407 7.83 154.48 7.93
7/23/2021 12:15:00 AM 19.41 66.938 0.408 7.83 15.57 7.92
7/23/2021 12:30:00 AM 19.35 66.83 0.408 7.82 80.98 7.91
7/23/2021 12:45:00 AM 19.28 66.704 0.409 7.82 5.77 7.9
7/23/2021 1:00:00 AM 19.21 66.578 0.409 7.82 11.89 7.89
7/23/2021 1:15:00 AM 19.14 66.452 0.409 7.82 9.55 7.89
7/23/2021 1:30:00 AM 19.08 66.344 0.41 7.81 7.85 7.88
7/23/2021 1:45:00 AM 19.02 66.236 0.41 7.81 7.61 7.88
7/23/2021 2:00:00 AM 18.96 66.128 0.411 7.81 15.74 7.87
7/23/2021 2:15:00 AM 18.9 66.02 0.411 7.81 11.07 7.88
7/23/2021 2:30:00 AM 18.84 65.912 0.412 7.8 6.45 7.87
7/23/2021 2:45:00 AM 18.79 65.82201 0.412 7.8 5.99 7.87
7/23/2021 3:00:00 AM 18.74 65.732 0.412 7.8 5.34 7.86
7/23/2021 3:15:00 AM 18.69 65.642 0.412 7.8 5.19 7.86
7/23/2021 3:30:00 AM 18.65 65.57 0.413 7.8 9.27 7.86
7/23/2021 3:45:00 AM 18.61 65.498 0.413 7.8 13.07 7.87
7/23/2021 4:00:00 AM 18.57 65.426 0.414 7.8 9.86 7.87
7/23/2021 4:15:00 AM 18.52 65.336 0.414 7.79 6.69 7.88
7/23/2021 4:30:00 AM 18.47 65.246 0.414 7.79 32.64 7.88
7/23/2021 4:45:00 AM 18.43 65.174 0.414 7.79 26.51 7.89
7/23/2021 5:00:00 AM 18.38 65.084 0.415 7.79 8.76 7.89
7/23/2021 5:15:00 AM 18.33 64.994 0.416 7.79 7.52 7.9
7/23/2021 5:30:00 AM 18.29 64.922 0.415 7.79 5.98 7.91
7/23/2021 5:45:00 AM 18.24 64.832 0.415 7.79 5.43 7.91
7/23/2021 6:00:00 AM 18.21 64.778 0.416 7.78 4.87 7.92
7/23/2021 6:15:00 AM 18.17 64.706 0.417 7.78 4.95 7.93
7/23/2021 6:30:00 AM 18.14 64.652 0.417 7.78 4.91 7.95
7/23/2021 6:45:00 AM 18.11 64.598 0.417 7.79 4.41 7.98
7/23/2021 7:00:00 AM 18.09 64.562 0.417 7.79 4.74 8
7/23/2021 7:15:00 AM 18.08 64.544 0.418 7.79 4.01 8.03
7/23/2021 7:30:00 AM 18.07 64.526 0.418 7.79 4.07 8.08
7/23/2021 7:45:00 AM 18.08 64.544 0.417 7.79 3.87 8.13
7/23/2021 8:00:00 AM 18.1 64.58 0.418 7.8 5.4 8.23
7/23/2021 8:15:00 AM 18.11 64.598 0.418 7.81 10.52 8.28
7/23/2021 8:30:00 AM 18.13 64.634 0.418 7.81 60.07 8.36
7/23/2021 8:45:00 AM 18.16 64.688 0.418 7.82 4.01 8.46
7/23/2021 9:00:00 AM 18.21 64.778 0.418 7.84 5.16 8.62
7/23/2021 9:15:00 AM 18.25 64.85 0.417 7.85 5.67 8.73
7/23/2021 9:30:00 AM 18.29 64.922 0.418 7.87 4.38 8.82
7/23/2021 9:45:00 AM 18.34 65.012 0.418 7.88 3.8 8.95
7/23/2021 10:00:00 AM 18.4 65.12 0.418 7.89 9.01